
Distance (Route):
Temperature : -34.1°C
Humidity : 3.5%
Pressure : 289.7hPa| Receiver | Frames | First received | Last received |
|---|---|---|---|
| PU1XMG-16 | 768 | 2026-09-05 11:32:07 | 2026-09-05 13:13:11 |
| Receiver | Date | Latitude | Longitude | Direction | Speed | Altitude | Climb | Temperature | Humidity | Pressure | Voltage | Killtimer | Uptime | BKT | XDATA |
|---|---|---|---|---|---|---|---|---|---|---|---|---|---|---|---|
| PU1XMG-16 | 2026-09-05 13:13:11 | -22.80489 | -42.21263 | 94° | 139km/h | 9891m | -14.7m/s | -34.1°C | 3.5% | 289.7hPa | 0V | 00:00:00 | 00:00:00 | 00:00:00 | |
| PU1XMG-16 | 2026-09-05 13:13:01 | -22.80477 | -42.21610 | 92° | 139km/h | 10012m | -13.9m/s | -34.7°C | 3.1% | 284.7hPa | 0V | 00:00:00 | 00:00:00 | 00:00:00 | |
| PU1XMG-16 | 2026-09-05 13:12:53 | -22.80478 | -42.21925 | 89° | 144km/h | 10117m | -14.1m/s | -35.0°C | 3.3% | 280.4hPa | 0V | 00:00:00 | 00:00:00 | 00:00:00 | |
| PU1XMG-16 | 2026-09-05 13:12:44 | -22.80490 | -42.22284 | 89° | 146km/h | 10238m | -13.1m/s | -35.6°C | 3.4% | 275.6hPa | 0V | 08:13:00 | 00:00:00 | 00:00:00 | |
| PU1XMG-16 | 2026-09-05 13:12:26 | -22.80506 | -42.23041 | 91° | 146km/h | 10481m | -13.2m/s | -37.8°C | 4.6% | 266.2hPa | 0V | 08:13:00 | 00:00:00 | 00:00:00 | |
| PU1XMG-16 | 2026-09-05 13:11:57 | -22.80559 | -42.24160 | 86° | 144km/h | 10866m | -14.9m/s | -40.9°C | 4.9% | 251.8hPa | 0V | 00:00:00 | 00:00:00 | 00:00:00 | |
| PU1XMG-16 | 2026-09-05 13:11:51 | -22.80575 | -42.24397 | 87° | 144km/h | 10942m | -12.7m/s | -41.5°C | 5.3% | 249.0hPa | 0V | 00:00:00 | 00:00:00 | 00:00:00 | |
| PU1XMG-16 | 2026-09-05 13:11:45 | -22.80587 | -42.24634 | 89° | 144km/h | 11020m | -13.7m/s | -42.1°C | 5.2% | 246.1hPa | 0V | 00:00:00 | 00:00:00 | 00:00:00 | |
| PU1XMG-16 | 2026-09-05 13:11:40 | -22.80592 | -42.24828 | 90° | 144km/h | 11083m | -12.5m/s | -42.6°C | 5.7% | 243.7hPa | 0V | 00:00:00 | 00:00:00 | 00:00:00 | |
| PU1XMG-16 | 2026-09-05 13:11:35 | -22.80597 | -42.25061 | 90° | 141km/h | 11164m | -15.5m/s | -43.3°C | 6.1% | 240.9hPa | 0V | 00:00:00 | 00:00:00 | 00:00:00 | |
| PU1XMG-16 | 2026-09-05 13:11:28 | -22.80603 | -42.25294 | 89° | 141km/h | 11252m | -15.1m/s | -44.0°C | 7.0% | 237.7hPa | 0V | 00:00:00 | 00:00:00 | 00:00:00 | |
| PU1XMG-16 | 2026-09-05 13:11:22 | -22.80610 | -42.25525 | 88° | 141km/h | 11337m | -13.3m/s | -44.8°C | 7.7% | 234.7hPa | 0V | 00:00:00 | 00:00:00 | 00:00:00 | |
| PU1XMG-16 | 2026-09-05 13:11:16 | -22.80611 | -42.25749 | 92° | 137km/h | 11410m | -11.7m/s | -45.2°C | 7.9% | 232.1hPa | 0V | 00:00:00 | 00:00:00 | 00:00:00 | |
| PU1XMG-16 | 2026-09-05 13:11:11 | -22.80605 | -42.25972 | 91° | 135km/h | 11488m | -14.7m/s | -45.7°C | 7.8% | 229.5hPa | 0V | 00:00:00 | 00:00:00 | 00:00:00 | |
| PU1XMG-16 | 2026-09-05 13:11:04 | -22.80597 | -42.26197 | 93° | 137km/h | 11563m | -11.5m/s | -46.1°C | 7.6% | 226.8hPa | 0V | 00:00:00 | 00:00:00 | 00:00:00 | |
| PU1XMG-16 | 2026-09-05 13:10:59 | -22.80587 | -42.26427 | 94° | 141km/h | 11634m | -12.0m/s | -46.6°C | 7.6% | 224.4hPa | 0V | 00:00:00 | 00:00:00 | 00:00:00 | |
| PU1XMG-16 | 2026-09-05 13:07:40 | -22.81023 | -42.33506 | 73° | 108km/h | 14356m | -12.5m/s | -64.4°C | 11.3% | 146.8hPa | 0V | 08:18:00 | 00:00:00 | 00:00:00 | |
| PU1XMG-16 | 2026-09-05 13:07:35 | -22.81078 | -42.33702 | 74° | 106km/h | 14443m | -13.0m/s | -65.0°C | 11.6% | 145.4hPa | 0V | 08:18:00 | 00:00:00 | 00:00:00 | |
| PU1XMG-16 | 2026-09-05 13:07:28 | -22.81099 | -42.33786 | 76° | 104km/h | 14481m | -13.5m/s | -65.4°C | 11.5% | 143.6hPa | 0V | 08:18:00 | 00:00:00 | 00:00:00 | |
| PU1XMG-16 | 2026-09-05 13:07:23 | -22.81133 | -42.33952 | 79° | 102km/h | 14557m | -12.8m/s | -65.7°C | 11.3% | 141.8hPa | 0V | 08:18:00 | 00:00:00 | 00:00:00 | |
| PU1XMG-16 | 2026-09-05 13:07:17 | -22.81155 | -42.34085 | 84° | 95km/h | 14620m | -13.1m/s | -65.7°C | 11.0% | 140.3hPa | 0V | 08:18:00 | 00:00:00 | 00:00:00 | |
| PU1XMG-16 | 2026-09-05 13:07:12 | -22.81172 | -42.34240 | 84° | 95km/h | 14697m | -13.2m/s | -66.2°C | 11.0% | 138.5hPa | 0V | 08:18:00 | 00:00:00 | 00:00:00 | |
| PU1XMG-16 | 2026-09-05 13:07:06 | -22.81182 | -42.34367 | 88° | 93km/h | 14760m | -13.0m/s | -66.7°C | 11.1% | 137.1hPa | 0V | 08:18:00 | 00:00:00 | 00:00:00 | |
| PU1XMG-16 | 2026-09-05 13:07:01 | -22.81187 | -42.34493 | 91° | 89km/h | 14823m | -12.9m/s | -67.2°C | 11.3% | 135.7hPa | 0V | 08:18:00 | 00:00:00 | 00:00:00 | |
| PU1XMG-16 | 2026-09-05 13:06:57 | -22.81187 | -42.34616 | 92° | 91km/h | 14887m | -13.0m/s | -67.6°C | 11.2% | 134.3hPa | 0V | 08:18:00 | 00:00:00 | 00:00:00 | |
| PU1XMG-16 | 2026-09-05 13:06:51 | -22.81184 | -42.34766 | 93° | 95km/h | 14964m | -13.2m/s | -68.0°C | 11.1% | 132.6hPa | 0V | 08:19:00 | 00:00:00 | 00:00:00 | |
| PU1XMG-16 | 2026-09-05 13:06:44 | -22.81177 | -42.34947 | 92° | 97km/h | 15054m | -13.3m/s | -68.5°C | 11.4% | 130.9hPa | 0V | 08:19:00 | 00:00:00 | 00:00:00 | |
| PU1XMG-16 | 2026-09-05 13:06:38 | -22.81173 | -42.35081 | 94° | 99km/h | 15118m | -13.0m/s | -69.0°C | 11.2% | 129.2hPa | 0V | 08:19:00 | 00:00:00 | 00:00:00 | |
| PU1XMG-16 | 2026-09-05 13:06:33 | -22.81167 | -42.35243 | 93° | 100km/h | 15194m | -12.9m/s | -69.5°C | 10.9% | 127.6hPa | 0V | 08:19:00 | 00:00:00 | 00:00:00 | |
| PU1XMG-16 | 2026-09-05 13:06:27 | -22.81162 | -42.35381 | 93° | 100km/h | 15258m | -13.2m/s | -70.1°C | 11.0% | 126.2hPa | 0V | 08:19:00 | 00:00:00 | 00:00:00 | |
| PU1XMG-16 | 2026-09-05 13:06:22 | -22.81156 | -42.35549 | 94° | 102km/h | 15334m | -13.4m/s | -70.8°C | 11.0% | 124.6hPa | 0V | 08:19:00 | 00:00:00 | 00:00:00 | |
| PU1XMG-16 | 2026-09-05 13:06:15 | -22.81149 | -42.35719 | 93° | 106km/h | 15412m | -13.0m/s | -71.3°C | 11.0% | 123.0hPa | 0V | 08:19:00 | 00:00:00 | 00:00:00 | |
| PU1XMG-16 | 2026-09-05 13:06:09 | -22.81144 | -42.35919 | 91° | 104km/h | 15503m | -13.3m/s | -71.9°C | 11.2% | 121.1hPa | 0V | 08:19:00 | 00:00:00 | 00:00:00 | |
| PU1XMG-16 | 2026-09-05 13:06:03 | -22.81150 | -42.36061 | 87° | 106km/h | 15568m | -13.2m/s | -72.0°C | 10.8% | 119.8hPa | 0V | 08:19:00 | 00:00:00 | 00:00:00 | |
| PU1XMG-16 | 2026-09-05 13:05:56 | -22.81168 | -42.36256 | 83° | 102km/h | 15660m | -13.4m/s | -71.9°C | 10.3% | 117.9hPa | 0V | 00:00:00 | 00:00:00 | 00:00:00 | |
| PU1XMG-16 | 2026-09-05 13:05:50 | -22.81138 | -42.38914 | 111° | 66km/h | 17646m | -14.9m/s | -71.6°C | 9.6% | 116.1hPa | 0V | 00:00:00 | 00:00:00 | 00:00:00 | |
| PU1XMG-16 | 2026-09-05 13:03:37 | -22.81138 | -42.38914 | 111° | 66km/h | 17646m | -14.9m/s | -70.6°C | 4.1% | 84.0hPa | 0V | 00:00:00 | 00:00:00 | 00:00:00 | |
| PU1XMG-16 | 2026-09-05 13:03:30 | -22.81019 | -42.39277 | 118° | 68km/h | 17984m | -15.8m/s | -68.8°C | 3.4% | 82.3hPa | 0V | 08:22:00 | 00:00:00 | 00:00:00 | |
| PU1XMG-16 | 2026-09-05 13:03:16 | -22.81019 | -42.39277 | 118° | 68km/h | 17984m | -15.8m/s | -65.8°C | 2.7% | 79.4hPa | 0V | 08:22:00 | 00:00:00 | 00:00:00 | |
| PU1XMG-16 | 2026-09-05 13:02:51 | -22.80982 | -42.39567 | 60° | 24km/h | 18369m | -16.3m/s | -64.4°C | 2.6% | 74.5hPa | 0V | 08:22:00 | 00:00:00 | 00:00:00 | |
| PU1XMG-16 | 2026-09-05 13:02:44 | -22.80980 | -42.39647 | 115° | 31km/h | 18547m | -16.8m/s | -63.1°C | 2.2% | 73.2hPa | 0V | 08:22:00 | 00:00:00 | 00:00:00 | |
| PU1XMG-16 | 2026-09-05 13:02:38 | -22.80967 | -42.39669 | 120° | 33km/h | 18596m | -16.9m/s | -62.5°C | 2.1% | 71.9hPa | 0V | 00:00:00 | 00:00:00 | 00:00:00 | |
| PU1XMG-16 | 2026-09-05 13:02:32 | -22.80941 | -42.39708 | 132° | 33km/h | 18679m | -16.9m/s | -61.5°C | 1.8% | 70.9hPa | 0V | 00:00:00 | 00:00:00 | 00:00:00 | |
| PU1XMG-16 | 2026-09-05 13:02:27 | -22.80903 | -42.39756 | 132° | 44km/h | 18778m | -17.0m/s | -62.4°C | 1.9% | 69.7hPa | 0V | 00:00:00 | 00:00:00 | 00:00:00 | |
| PU1XMG-16 | 2026-09-05 13:02:20 | -22.80855 | -42.39810 | 137° | 46km/h | 18878m | -16.9m/s | -63.2°C | 2.0% | 68.7hPa | 0V | 00:00:00 | 00:00:00 | 00:00:00 | |
| PU1XMG-16 | 2026-09-05 13:02:12 | -22.80786 | -42.39897 | 127° | 58km/h | 19013m | -17.3m/s | -64.1°C | 2.1% | 67.1hPa | 0V | 00:00:00 | 00:00:00 | 00:00:00 | |
| PU1XMG-16 | 2026-09-05 13:02:07 | -22.80734 | -42.39973 | 127° | 55km/h | 19115m | -17.4m/s | -64.6°C | 2.2% | 66.0hPa | 0V | 00:00:00 | 00:00:00 | 00:00:00 | |
| PU1XMG-16 | 2026-09-05 13:02:00 | -22.80697 | -42.40046 | 112° | 49km/h | 19217m | -17.4m/s | -64.4°C | 2.2% | 64.9hPa | 0V | 00:00:00 | 00:00:00 | 00:00:00 | |
| PU1XMG-16 | 2026-09-05 13:01:55 | -22.80677 | -42.40117 | 107° | 42km/h | 19320m | -18.2m/s | -63.8°C | 2.1% | 63.8hPa | 0V | 00:00:00 | 00:00:00 | 00:00:00 | |
| PU1XMG-16 | 2026-09-05 13:01:49 | -22.80674 | -42.40197 | 78° | 33km/h | 19463m | -18.1m/s | -63.2°C | 2.0% | 62.9hPa | 0V | 00:00:00 | 00:00:00 | 00:00:00 | |
| PU1XMG-16 | 2026-09-05 13:01:43 | -22.80679 | -42.40221 | 80° | 27km/h | 19515m | -18.1m/s | -62.8°C | 1.9% | 61.9hPa | 0V | 00:00:00 | 00:00:00 | 00:00:00 | |
| PU1XMG-16 | 2026-09-05 13:01:37 | -22.80673 | -42.40260 | 112° | 15km/h | 19642m | -19.0m/s | -62.7°C | 1.8% | 60.6hPa | 0V | 00:00:00 | 00:00:00 | 00:00:00 | |
| PU1XMG-16 | 2026-09-05 13:01:14 | -22.80563 | -42.40247 | 184° | 26km/h | 20382m | -19.7m/s | -61.7°C | 1.6% | 56.5hPa | 0V | 00:00:00 | 00:00:00 | 00:00:00 | |
| PU1XMG-16 | 2026-09-05 13:00:58 | -22.80563 | -42.40247 | 184° | 26km/h | 20382m | -19.7m/s | -62.2°C | 1.7% | 53.7hPa | 0V | 00:00:00 | 00:00:00 | 00:00:00 | |
| PU1XMG-16 | 2026-09-05 13:00:50 | -22.80517 | -42.40240 | 190° | 4km/h | 20631m | -19.6m/s | -62.0°C | 1.7% | 52.2hPa | 0V | 08:25:00 | 00:00:00 | 00:00:00 | |
| PU1XMG-16 | 2026-09-05 13:00:42 | -22.80507 | -42.40242 | 166° | 15km/h | 20708m | -19.8m/s | -62.4°C | 1.8% | 50.9hPa | 0V | 08:25:00 | 00:00:00 | 00:00:00 | |
| PU1XMG-16 | 2026-09-05 13:00:35 | -22.80466 | -42.40235 | 203° | 16km/h | 20883m | -19.1m/s | -61.3°C | 1.6% | 49.8hPa | 0V | 08:25:00 | 00:00:00 | 00:00:00 | |
| PU1XMG-16 | 2026-09-05 13:00:27 | -22.80443 | -42.40229 | 190° | 18km/h | 20978m | -19.5m/s | -61.0°C | 1.6% | 48.8hPa | 0V | 08:25:00 | 00:00:00 | 00:00:00 | |
| PU1XMG-16 | 2026-09-05 13:00:21 | -22.80416 | -42.40230 | 186° | 13km/h | 21092m | -19.3m/s | -61.1°C | 1.6% | 47.9hPa | 0V | 08:25:00 | 00:00:00 | 00:00:00 | |
| PU1XMG-16 | 2026-09-05 13:00:16 | -22.80393 | -42.40221 | 210° | 16km/h | 21203m | -19.3m/s | -60.9°C | 1.6% | 47.0hPa | 0V | 08:25:00 | 00:00:00 | 00:00:00 | |
| PU1XMG-16 | 2026-09-05 13:00:10 | -22.80375 | -42.40211 | 207° | 16km/h | 21302m | -19.1m/s | -60.3°C | 1.5% | 46.3hPa | 0V | 08:25:00 | 00:00:00 | 00:00:00 | |
| PU1XMG-16 | 2026-09-05 13:00:05 | -22.80350 | -42.40206 | 192° | 11km/h | 21439m | -18.2m/s | -60.3°C | 1.5% | 45.4hPa | 0V | 08:26:00 | 00:00:00 | 00:00:00 | |
| PU1XMG-16 | 2026-09-05 12:59:59 | -22.80345 | -42.40209 | 108° | 5km/h | 21537m | -18.3m/s | -59.4°C | 1.4% | 44.5hPa | 0V | 08:26:00 | 00:00:00 | 00:00:00 | |
| PU1XMG-16 | 2026-09-05 12:59:47 | -22.80322 | -42.40186 | 218° | 16km/h | 21733m | -20.6m/s | -59.1°C | 1.4% | 43.2hPa | 0V | 08:26:00 | 00:00:00 | 00:00:00 | |
| PU1XMG-16 | 2026-09-05 12:59:42 | -22.80295 | -42.40177 | 178° | 22km/h | 21844m | -19.1m/s | -59.4°C | 1.4% | 42.4hPa | 0V | 08:26:00 | 00:00:00 | 00:00:00 | |
| PU1XMG-16 | 2026-09-05 12:59:37 | -22.80270 | -42.40179 | 169° | 16km/h | 21937m | -17.5m/s | -59.4°C | 1.4% | 41.8hPa | 0V | 08:26:00 | 00:00:00 | 00:00:00 | |
| PU1XMG-16 | 2026-09-05 12:59:31 | -22.80250 | -42.40190 | 144° | 15km/h | 22048m | -20.4m/s | -59.3°C | 1.4% | 41.0hPa | 0V | 08:26:00 | 00:00:00 | 00:00:00 | |
| PU1XMG-16 | 2026-09-05 12:59:26 | -22.80231 | -42.40199 | 173° | 15km/h | 22140m | -20.6m/s | -58.8°C | 1.3% | 40.4hPa | 0V | 08:26:00 | 00:00:00 | 00:00:00 | |
| PU1XMG-16 | 2026-09-05 12:59:19 | -22.80199 | -42.40206 | 148° | 16km/h | 22311m | -22.5m/s | -58.6°C | 1.4% | 39.6hPa | 0V | 08:26:00 | 00:00:00 | 00:00:00 | |
| PU1XMG-16 | 2026-09-05 12:59:13 | -22.80184 | -42.40220 | 128° | 11km/h | 22420m | -22.4m/s | -57.7°C | 1.2% | 38.7hPa | 0V | 00:00:00 | 00:00:00 | 00:00:00 | |
| PU1XMG-16 | 2026-09-05 12:59:04 | -22.80177 | -42.40227 | 240° | 5km/h | 22598m | -22.8m/s | -58.0°C | 1.3% | 37.6hPa | 0V | 00:00:00 | 00:00:00 | 00:00:00 | |
| PU1XMG-16 | 2026-09-05 12:58:58 | -22.80171 | -42.40214 | 244° | 7km/h | 22737m | -23.9m/s | -58.1°C | 1.3% | 36.8hPa | 0V | 00:00:00 | 00:00:00 | 00:00:00 | |
| PU1XMG-16 | 2026-09-05 12:58:53 | -22.80170 | -42.40212 | 27° | 2km/h | 22860m | -25.3m/s | -58.1°C | 1.3% | 36.1hPa | 0V | 00:00:00 | 00:00:00 | 00:00:00 | |
| PU1XMG-16 | 2026-09-05 12:58:47 | -22.80180 | -42.40220 | 14° | 13km/h | 23001m | -21.7m/s | -57.6°C | 1.3% | 35.3hPa | 0V | 00:00:00 | 00:00:00 | 00:00:00 | |
| PU1XMG-16 | 2026-09-05 12:58:40 | -22.80208 | -42.40218 | 345° | 16km/h | 23160m | -25.9m/s | -56.5°C | 1.1% | 34.4hPa | 0V | 00:00:00 | 00:00:00 | 00:00:00 | |
| PU1XMG-16 | 2026-09-05 12:58:35 | -22.80264 | -42.40212 | 52° | 5km/h | 23665m | -23.9m/s | -56.8°C | 1.2% | 33.5hPa | 0V | 00:00:00 | 00:00:00 | 00:00:00 | |
| PU1XMG-16 | 2026-09-05 12:58:19 | -22.80264 | -42.40212 | 52° | 5km/h | 23665m | -23.9m/s | -56.6°C | 1.2% | 31.7hPa | 0V | 00:00:00 | 00:00:00 | 00:00:00 | |
| PU1XMG-16 | 2026-09-05 12:58:02 | -22.80257 | -42.40228 | 119° | 13km/h | 24050m | -20.3m/s | -54.4°C | 1.1% | 29.8hPa | 0V | 00:00:00 | 00:00:00 | 00:00:00 | |
| PU1XMG-16 | 2026-09-05 12:57:51 | -22.80270 | -42.40231 | 214° | 5km/h | 24280m | -19.4m/s | -52.6°C | 0.9% | 28.7hPa | 0V | 00:00:00 | 00:00:00 | 00:00:00 | |
| PU1XMG-16 | 2026-09-05 12:57:05 | -22.80214 | -42.40577 | 91° | 16km/h | 27137m | -19.5m/s | -51.9°C | 0.9% | 24.1hPa | 0V | 00:00:00 | 00:00:00 | 00:00:00 | |
| PU1XMG-16 | 2026-09-05 12:55:45 | -22.80223 | -42.40660 | 79° | 31km/h | 27441m | -21.9m/s | -48.6°C | 0.8% | 18.2hPa | 0V | 00:00:00 | 00:00:00 | 00:00:00 | |
| PU1XMG-16 | 2026-09-05 12:55:31 | -22.80224 | -42.40669 | 85° | 29km/h | 27463m | -20.6m/s | -47.9°C | 0.7% | 17.5hPa | 0V | 00:00:00 | 00:00:00 | 00:00:00 | |
| PU1XMG-16 | 2026-09-05 12:55:09 | -22.80223 | -42.40852 | 102° | 37km/h | 27955m | -34.4m/s | -47.8°C | 0.7% | 16.2hPa | 0V | 00:00:00 | 00:00:00 | 00:00:00 | |
| PU1XMG-16 | 2026-09-05 12:54:58 | -22.80195 | -42.40949 | 97° | 35km/h | 27998m | 8.8m/s | -47.7°C | 0.7% | 16.0hPa | 0V | 00:00:00 | 00:00:00 | 00:00:00 | |
| PU1XMG-16 | 2026-09-05 12:54:48 | -22.80169 | -42.41060 | 123° | 38km/h | 27914m | 8.0m/s | -48.9°C | 0.8% | 16.2hPa | 0V | 00:00:00 | 00:00:00 | 00:00:00 | |
| PU1XMG-16 | 2026-09-05 12:53:33 | -22.80184 | -42.41588 | 105° | 15km/h | 27359m | 7.5m/s | -47.8°C | 0.7% | 17.7hPa | 0V | 00:00:00 | 00:00:00 | 00:00:00 | |
| PU1XMG-16 | 2026-09-05 12:53:24 | -22.80177 | -42.41627 | 88° | 24km/h | 27302m | 7.5m/s | -47.9°C | 0.7% | 17.9hPa | 0V | 00:00:00 | 00:00:00 | 00:00:00 | |
| PU1XMG-16 | 2026-09-05 12:53:19 | -22.80185 | -42.41668 | 71° | 22km/h | 27261m | 8.8m/s | -48.3°C | 0.7% | 18.0hPa | 0V | 00:00:00 | 00:00:00 | 00:00:00 | |
| PU1XMG-16 | 2026-09-05 12:53:13 | -22.80189 | -42.41686 | 103° | 9km/h | 27226m | 6.5m/s | -48.6°C | 0.8% | 18.0hPa | 0V | 00:00:00 | 00:00:00 | 00:00:00 | |
| PU1XMG-16 | 2026-09-05 12:53:07 | -22.80185 | -42.41710 | 100° | 20km/h | 27182m | 8.9m/s | -48.2°C | 0.8% | 18.2hPa | 0V | 00:00:00 | 00:00:00 | 00:00:00 | |
| PU1XMG-16 | 2026-09-05 12:53:02 | -22.80179 | -42.41735 | 108° | 13km/h | 27142m | 8.0m/s | -48.1°C | 0.7% | 18.3hPa | 0V | 00:00:00 | 00:00:00 | 00:00:00 | |
| PU1XMG-16 | 2026-09-05 12:52:57 | -22.80174 | -42.41753 | 100° | 16km/h | 27110m | 8.2m/s | -48.0°C | 0.7% | 18.4hPa | 0V | 00:00:00 | 00:00:00 | 00:00:00 | |
| PU1XMG-16 | 2026-09-05 12:52:49 | -22.80182 | -42.41797 | 89° | 16km/h | 27058m | 5.3m/s | -47.6°C | 0.7% | 18.6hPa | 0V | 00:00:00 | 00:00:00 | 00:00:00 | |
| PU1XMG-16 | 2026-09-05 12:52:32 | -22.80195 | -42.41881 | 104° | 20km/h | 26948m | 6.7m/s | -47.5°C | 0.7% | 18.9hPa | 0V | 00:00:00 | 00:00:00 | 00:00:00 | |
| PU1XMG-16 | 2026-09-05 12:51:26 | -22.80153 | -42.42081 | 124° | 20km/h | 26520m | 6.3m/s | -49.5°C | 0.8% | 20.2hPa | 0V | 00:00:00 | 00:00:00 | 00:00:00 | |
| PU1XMG-16 | 2026-09-05 12:51:19 | -22.80141 | -42.42118 | 95° | 16km/h | 26464m | 6.3m/s | -49.9°C | 0.8% | 20.3hPa | 0V | 00:00:00 | 00:00:00 | 00:00:00 | |
| PU1XMG-16 | 2026-09-05 12:51:07 | -22.80096 | -42.42164 | 118° | 24km/h | 26382m | 6.1m/s | -50.6°C | 0.8% | 20.6hPa | 0V | 00:00:00 | 00:00:00 | 00:00:00 | |
| PU1XMG-16 | 2026-09-05 12:51:01 | -22.80090 | -42.42198 | 104° | 26km/h | 26340m | 5.9m/s | -50.8°C | 0.9% | 20.7hPa | 0V | 00:00:00 | 00:00:00 | 00:00:00 | |
| PU1XMG-16 | 2026-09-05 12:50:55 | -22.80079 | -42.42227 | 121° | 26km/h | 26303m | 6.0m/s | -50.8°C | 0.8% | 20.9hPa | 0V | 00:00:00 | 00:00:00 | 00:00:00 | |
| PU1XMG-16 | 2026-09-05 12:50:50 | -22.80056 | -42.42256 | 124° | 24km/h | 26261m | 6.6m/s | -50.8°C | 0.8% | 21.0hPa | 0V | 00:00:00 | 00:00:00 | 00:00:00 | |
| PU1XMG-16 | 2026-09-05 12:50:44 | -22.80046 | -42.42280 | 110° | 22km/h | 26227m | 5.9m/s | -51.0°C | 0.8% | 21.1hPa | 0V | 00:00:00 | 00:00:00 | 00:00:00 | |
| PU1XMG-16 | 2026-09-05 12:50:39 | -22.80025 | -42.42301 | 154° | 16km/h | 26185m | 5.7m/s | -51.6°C | 0.9% | 21.2hPa | 0V | 00:00:00 | 00:00:00 | 00:00:00 | |
| PU1XMG-16 | 2026-09-05 12:49:53 | -22.79889 | -42.42401 | 142° | 5km/h | 25862m | 7.0m/s | -52.1°C | 0.9% | 22.3hPa | 0V | 00:00:00 | 00:00:00 | 00:00:00 | |
| PU1XMG-16 | 2026-09-05 12:49:46 | -22.79877 | -42.42407 | 182° | 24km/h | 25805m | 5.4m/s | -51.9°C | 0.9% | 22.5hPa | 0V | 00:00:00 | 00:00:00 | 00:00:00 | |
| PU1XMG-16 | 2026-09-05 12:49:40 | -22.79850 | -42.42412 | 116° | 9km/h | 25762m | 7.9m/s | -51.6°C | 0.9% | 22.7hPa | 0V | 00:00:00 | 00:00:00 | 00:00:00 | |
| PU1XMG-16 | 2026-09-05 12:49:34 | -22.79845 | -42.42425 | 144° | 13km/h | 25728m | 5.2m/s | -51.7°C | 0.9% | 22.8hPa | 0V | 00:00:00 | 00:00:00 | 00:00:00 | |
| PU1XMG-16 | 2026-09-05 12:49:30 | -22.79825 | -42.42436 | 163° | 20km/h | 25693m | 5.4m/s | -52.0°C | 0.9% | 22.9hPa | 0V | 00:00:00 | 00:00:00 | 00:00:00 | |
| PU1XMG-16 | 2026-09-05 12:49:22 | -22.79803 | -42.42467 | 101° | 20km/h | 25637m | 6.3m/s | -52.2°C | 0.9% | 23.1hPa | 0V | 00:00:00 | 00:00:00 | 00:00:00 | |
| PU1XMG-16 | 2026-09-05 12:49:16 | -22.79783 | -42.42484 | 160° | 27km/h | 25596m | 6.0m/s | -52.3°C | 0.9% | 23.3hPa | 0V | 00:00:00 | 00:00:00 | 00:00:00 | |
| PU1XMG-16 | 2026-09-05 12:49:10 | -22.79725 | -42.42501 | 187° | 18km/h | 25523m | 7.5m/s | -52.6°C | 1.0% | 23.4hPa | 0V | 00:00:00 | 00:00:00 | 00:00:00 | |
| PU1XMG-16 | 2026-09-05 12:49:02 | -22.79711 | -42.42503 | 162° | 16km/h | 25503m | 7.4m/s | -52.3°C | 0.9% | 23.6hPa | 0V | 00:00:00 | 00:00:00 | 00:00:00 | |
| PU1XMG-16 | 2026-09-05 12:48:56 | -22.79695 | -42.42517 | 132° | 16km/h | 25469m | 7.3m/s | -52.1°C | 1.0% | 23.8hPa | 0V | 00:00:00 | 00:00:00 | 00:00:00 | |
| PU1XMG-16 | 2026-09-05 12:48:51 | -22.79680 | -42.42526 | 183° | 13km/h | 25428m | 9.0m/s | -51.9°C | 0.9% | 23.9hPa | 0V | 00:00:00 | 00:00:00 | 00:00:00 | |
| PU1XMG-16 | 2026-09-05 12:48:45 | -22.79661 | -42.42533 | 117° | 9km/h | 25388m | 8.9m/s | -51.6°C | 0.9% | 24.1hPa | 0V | 00:00:00 | 00:00:00 | 00:00:00 | |
| PU1XMG-16 | 2026-09-05 12:48:39 | -22.79661 | -42.42545 | 84° | 5km/h | 25353m | 8.3m/s | -51.3°C | 1.0% | 24.2hPa | 0V | 00:00:00 | 00:00:00 | 00:00:00 | |
| PU1XMG-16 | 2026-09-05 12:48:33 | -22.79644 | -42.42563 | 152° | 16km/h | 25307m | 6.9m/s | -51.3°C | 0.9% | 24.4hPa | 0V | 00:00:00 | 00:00:00 | 00:00:00 | |
| PU1XMG-16 | 2026-09-05 12:48:27 | -22.79640 | -42.42574 | 26° | 2km/h | 25267m | 6.2m/s | -51.3°C | 0.9% | 24.5hPa | 0V | 00:00:00 | 00:00:00 | 00:00:00 | |
| PU1XMG-16 | 2026-09-05 12:48:20 | -22.79634 | -42.42583 | 152° | 13km/h | 25220m | 7.9m/s | -51.5°C | 0.9% | 24.7hPa | 0V | 00:00:00 | 00:00:00 | 00:00:00 | |
| PU1XMG-16 | 2026-09-05 12:48:13 | -22.79627 | -42.42591 | 23° | 9km/h | 25175m | 7.5m/s | -51.5°C | 0.9% | 24.9hPa | 0V | 00:00:00 | 00:00:00 | 00:00:00 | |
| PU1XMG-16 | 2026-09-05 12:48:06 | -22.79639 | -42.42598 | 76° | 5km/h | 25136m | 7.4m/s | -51.7°C | 0.9% | 25.0hPa | 0V | 00:00:00 | 00:00:00 | 00:00:00 | |
| PU1XMG-16 | 2026-09-05 12:47:59 | -22.79649 | -42.42604 | 33° | 7km/h | 25091m | 6.2m/s | -51.6°C | 0.9% | 25.2hPa | 0V | 00:00:00 | 00:00:00 | 00:00:00 | |
| PU1XMG-16 | 2026-09-05 12:47:55 | -22.79655 | -42.42606 | 36° | 4km/h | 25058m | 4.7m/s | -51.9°C | 0.9% | 25.3hPa | 0V | 00:00:00 | 00:00:00 | 00:00:00 | |
| PU1XMG-16 | 2026-09-05 12:47:49 | -22.79662 | -42.42607 | 41° | 5km/h | 25021m | 7.0m/s | -51.9°C | 0.9% | 25.5hPa | 0V | 00:00:00 | 00:00:00 | 00:00:00 | |
| PU1XMG-16 | 2026-09-05 12:47:44 | -22.79662 | -42.42608 | 224° | 4km/h | 24988m | 6.5m/s | -51.7°C | 0.9% | 25.6hPa | 0V | 00:00:00 | 00:00:00 | 00:00:00 | |
| PU1XMG-16 | 2026-09-05 12:47:38 | -22.79662 | -42.42598 | 316° | 7km/h | 24952m | 8.9m/s | -51.7°C | 1.0% | 25.8hPa | 0V | 00:00:00 | 00:00:00 | 00:00:00 | |
| PU1XMG-16 | 2026-09-05 12:47:31 | -22.79677 | -42.42602 | 24° | 11km/h | 24916m | 6.8m/s | -51.4°C | 0.9% | 26.0hPa | 0V | 00:00:00 | 00:00:00 | 00:00:00 | |
| PU1XMG-16 | 2026-09-05 12:47:26 | -22.79690 | -42.42602 | 284° | 7km/h | 24896m | 4.2m/s | -51.5°C | 0.9% | 26.2hPa | 0V | 00:00:00 | 00:00:00 | 00:00:00 | |
| PU1XMG-16 | 2026-09-05 12:47:20 | -22.79710 | -42.42597 | 30° | 11km/h | 24888m | 5.9m/s | -51.7°C | 1.0% | 26.3hPa | 0V | 00:00:00 | 00:00:00 | 00:00:00 | |
| PU1XMG-16 | 2026-09-05 12:47:13 | -22.79731 | -42.42607 | 43° | 4km/h | 24883m | 8.1m/s | -52.0°C | 0.9% | 26.5hPa | 0V | 00:00:00 | 00:00:00 | 00:00:00 | |
| PU1XMG-16 | 2026-09-05 12:47:08 | -22.79740 | -42.42607 | 301° | 5km/h | 24916m | 6.9m/s | -51.8°C | 0.9% | 26.6hPa | 0V | 00:00:00 | 00:00:00 | 00:00:00 | |
| PU1XMG-16 | 2026-09-05 12:47:03 | -22.79738 | -42.42668 | 153° | 77km/h | 24836m | 54.7m/s | -51.9°C | 0.9% | 26.7hPa | 0V | 00:00:00 | 00:00:00 | 00:00:00 | |
| PU1XMG-16 | 2026-09-05 12:46:57 | -22.79721 | -42.42622 | 336° | 7km/h | 24675m | 8.2m/s | -52.0°C | 0.9% | 26.9hPa | 0V | 00:00:00 | 00:00:00 | 00:00:00 | |
| PU1XMG-16 | 2026-09-05 12:46:53 | -22.79727 | -42.42617 | 348° | 4km/h | 24642m | 6.1m/s | -52.2°C | 0.9% | 27.1hPa | 0V | 00:00:00 | 00:00:00 | 00:00:00 | |
| PU1XMG-16 | 2026-09-05 12:46:46 | -22.79729 | -42.42625 | 134° | 7km/h | 24600m | 7.5m/s | -52.2°C | 1.0% | 27.2hPa | 0V | 00:00:00 | 00:00:00 | 00:00:00 | |
| PU1XMG-16 | 2026-09-05 12:46:40 | -22.79714 | -42.42620 | 206° | 9km/h | 24562m | 5.1m/s | -52.4°C | 0.9% | 27.4hPa | 0V | 00:00:00 | 00:00:00 | 00:00:00 | |
| PU1XMG-16 | 2026-09-05 12:46:36 | -22.79711 | -42.42615 | 118° | 2km/h | 24528m | 6.1m/s | -52.4°C | 0.9% | 27.5hPa | 0V | 00:00:00 | 00:00:00 | 00:00:00 | |
| PU1XMG-16 | 2026-09-05 12:46:30 | -22.79700 | -42.42613 | 176° | 11km/h | 24491m | 5.0m/s | -52.8°C | 1.0% | 27.7hPa | 0V | 00:00:00 | 00:00:00 | 00:00:00 | |
| PU1XMG-16 | 2026-09-05 12:46:24 | -22.79693 | -42.42612 | 0° | 0km/h | 24450m | 7.8m/s | -53.1°C | 1.0% | 27.9hPa | 0V | 00:00:00 | 00:00:00 | 00:00:00 | |
| PU1XMG-16 | 2026-09-05 12:46:18 | -22.79695 | -42.42614 | 276° | 5km/h | 24413m | 8.0m/s | -53.4°C | 1.0% | 28.0hPa | 0V | 00:00:00 | 00:00:00 | 00:00:00 | |
| PU1XMG-16 | 2026-09-05 12:46:12 | -22.79695 | -42.42604 | 293° | 7km/h | 24373m | 4.6m/s | -53.2°C | 1.0% | 28.2hPa | 0V | 00:00:00 | 00:00:00 | 00:00:00 | |
| PU1XMG-16 | 2026-09-05 12:46:07 | -22.79704 | -42.42602 | 336° | 13km/h | 24339m | 4.8m/s | -53.2°C | 1.0% | 28.4hPa | 0V | 00:00:00 | 00:00:00 | 00:00:00 | |
| PU1XMG-16 | 2026-09-05 12:46:00 | -22.79710 | -42.42591 | 0° | 0km/h | 24293m | 7.5m/s | -53.4°C | 1.0% | 28.6hPa | 0V | 00:00:00 | 00:00:00 | 00:00:00 | |
| PU1XMG-16 | 2026-09-05 12:45:53 | -22.79716 | -42.42595 | 24° | 7km/h | 24257m | 6.4m/s | -53.6°C | 1.0% | 28.7hPa | 0V | 00:00:00 | 00:00:00 | 00:00:00 | |
| PU1XMG-16 | 2026-09-05 12:45:48 | -22.79716 | -42.42599 | 99° | 5km/h | 24219m | 8.5m/s | -54.3°C | 1.0% | 28.9hPa | 0V | 00:00:00 | 00:00:00 | 00:00:00 | |
| PU1XMG-16 | 2026-09-05 12:45:42 | -22.79718 | -42.42616 | 82° | 18km/h | 24179m | 7.0m/s | -54.8°C | 1.1% | 29.1hPa | 0V | 00:00:00 | 00:00:00 | 00:00:00 | |
| PU1XMG-16 | 2026-09-05 12:45:36 | -22.79718 | -42.42634 | 93° | 11km/h | 24147m | 7.1m/s | -55.1°C | 1.1% | 29.3hPa | 0V | 00:00:00 | 00:00:00 | 00:00:00 | |
| PU1XMG-16 | 2026-09-05 12:45:31 | -22.79718 | -42.42640 | 48° | 7km/h | 24107m | 6.6m/s | -55.3°C | 1.1% | 29.5hPa | 0V | 00:00:00 | 00:00:00 | 00:00:00 | |
| PU1XMG-16 | 2026-09-05 12:45:25 | -22.79725 | -42.42647 | 43° | 5km/h | 24075m | 7.6m/s | -55.4°C | 1.1% | 29.6hPa | 0V | 00:00:00 | 00:00:00 | 00:00:00 | |
| PU1XMG-16 | 2026-09-05 12:45:21 | -22.79719 | -42.42654 | 142° | 15km/h | 24043m | 7.0m/s | -55.6°C | 1.1% | 29.7hPa | 0V | 00:00:00 | 00:00:00 | 00:00:00 | |
| PU1XMG-16 | 2026-09-05 12:45:15 | -22.79713 | -42.42667 | 84° | 9km/h | 24008m | 8.0m/s | -55.8°C | 1.1% | 29.9hPa | 0V | 00:00:00 | 00:00:00 | 00:00:00 | |
| PU1XMG-16 | 2026-09-05 12:45:09 | -22.79710 | -42.42677 | 144° | 11km/h | 23969m | 8.8m/s | -56.2°C | 1.2% | 30.1hPa | 0V | 00:00:00 | 00:00:00 | 00:00:00 | |
| PU1XMG-16 | 2026-09-05 12:45:04 | -22.79702 | -42.42680 | 36° | 4km/h | 23930m | 5.0m/s | -56.4°C | 1.2% | 30.2hPa | 0V | 00:00:00 | 00:00:00 | 00:00:00 | |
| PU1XMG-16 | 2026-09-05 12:44:59 | -22.79709 | -42.42679 | 30° | 7km/h | 23898m | 7.3m/s | -56.6°C | 1.2% | 30.4hPa | 0V | 00:00:00 | 00:00:00 | 00:00:00 | |
| PU1XMG-16 | 2026-09-05 12:44:53 | -22.79708 | -42.42685 | 168° | 11km/h | 23867m | 5.7m/s | -56.7°C | 1.2% | 30.6hPa | 0V | 00:00:00 | 00:00:00 | 00:00:00 | |
| PU1XMG-16 | 2026-09-05 12:44:48 | -22.79695 | -42.42682 | 241° | 11km/h | 23834m | 5.3m/s | -56.9°C | 1.2% | 30.8hPa | 0V | 00:00:00 | 00:00:00 | 00:00:00 | |
| PU1XMG-16 | 2026-09-05 12:44:43 | -22.79695 | -42.42676 | 93° | 5km/h | 23795m | 9.1m/s | -57.0°C | 1.2% | 30.9hPa | 0V | 00:00:00 | 00:00:00 | 00:00:00 | |
| PU1XMG-16 | 2026-09-05 12:44:36 | -22.79690 | -42.42684 | 0° | 0km/h | 23755m | 7.1m/s | -57.1°C | 1.2% | 31.2hPa | 0V | 00:00:00 | 00:00:00 | 00:00:00 | |
| PU1XMG-16 | 2026-09-05 12:44:31 | -22.79706 | -42.42682 | 7° | 16km/h | 23716m | 9.3m/s | -57.0°C | 1.2% | 31.3hPa | 0V | 00:00:00 | 00:00:00 | 00:00:00 | |
| PU1XMG-16 | 2026-09-05 12:43:47 | -22.79829 | -42.42715 | 342° | 18km/h | 23427m | 4.4m/s | -57.0°C | 1.3% | 32.8hPa | 0V | 00:00:00 | 00:00:00 | 00:00:00 | |
| PU1XMG-16 | 2026-09-05 12:43:40 | -22.79842 | -42.42711 | 326° | 4km/h | 23389m | 7.6m/s | -56.9°C | 1.2% | 33.0hPa | 0V | 00:00:00 | 00:00:00 | 00:00:00 | |
| PU1XMG-16 | 2026-09-05 12:43:36 | -22.79851 | -42.42697 | 307° | 20km/h | 23355m | 7.6m/s | -56.9°C | 1.2% | 33.2hPa | 0V | 00:00:00 | 00:00:00 | 00:00:00 | |
| PU1XMG-16 | 2026-09-05 12:43:28 | -22.79883 | -42.42679 | 349° | 18km/h | 23308m | 5.3m/s | -56.9°C | 1.2% | 33.4hPa | 0V | 00:00:00 | 00:00:00 | 00:00:00 | |
| PU1XMG-16 | 2026-09-05 12:43:22 | -22.79911 | -42.42663 | 329° | 24km/h | 23262m | 5.2m/s | -56.9°C | 1.1% | 33.7hPa | 0V | 00:00:00 | 00:00:00 | 00:00:00 | |
| PU1XMG-16 | 2026-09-05 12:43:17 | -22.79939 | -42.42654 | 1° | 27km/h | 23229m | 5.1m/s | -56.6°C | 1.2% | 33.8hPa | 0V | 00:00:00 | 00:00:00 | 00:00:00 | |
| PU1XMG-16 | 2026-09-05 12:43:11 | -22.79971 | -42.42654 | 341° | 16km/h | 23192m | 5.5m/s | -56.8°C | 1.2% | 34.1hPa | 0V | 00:00:00 | 00:00:00 | 00:00:00 | |
| PU1XMG-16 | 2026-09-05 12:43:05 | -22.79991 | -42.42640 | 350° | 20km/h | 23155m | 5.6m/s | -56.9°C | 1.1% | 34.3hPa | 0V | 00:00:00 | 00:00:00 | 00:00:00 | |
| PU1XMG-16 | 2026-09-05 12:42:58 | -22.80026 | -42.42639 | 25° | 13km/h | 23110m | 4.0m/s | -57.4°C | 1.2% | 34.5hPa | 0V | 00:00:00 | 00:00:00 | 00:00:00 | |
| PU1XMG-16 | 2026-09-05 12:42:51 | -22.80044 | -42.42649 | 15° | 13km/h | 23064m | 5.0m/s | -57.9°C | 1.2% | 34.8hPa | 0V | 00:00:00 | 00:00:00 | 00:00:00 | |
| PU1XMG-16 | 2026-09-05 12:42:45 | -22.80056 | -42.42657 | 28° | 11km/h | 23032m | 6.6m/s | -58.1°C | 1.2% | 35.0hPa | 0V | 00:00:00 | 00:00:00 | 00:00:00 | |
| PU1XMG-16 | 2026-09-05 12:42:39 | -22.80069 | -42.42665 | 18° | 9km/h | 22993m | 4.5m/s | -58.3°C | 1.3% | 35.2hPa | 0V | 00:00:00 | 00:00:00 | 00:00:00 | |
| PU1XMG-16 | 2026-09-05 12:42:32 | -22.80079 | -42.42664 | 329° | 4km/h | 22941m | 5.9m/s | -58.3°C | 1.3% | 35.5hPa | 0V | 00:00:00 | 00:00:00 | 00:00:00 | |
| PU1XMG-16 | 2026-09-05 12:42:26 | -22.80084 | -42.42659 | 0° | 0km/h | 22901m | 9.6m/s | -58.5°C | 1.3% | 35.7hPa | 0V | 00:00:00 | 00:00:00 | 00:00:00 | |
| PU1XMG-16 | 2026-09-05 12:42:20 | -22.80079 | -42.42653 | 259° | 15km/h | 22861m | 3.4m/s | -58.7°C | 1.3% | 35.9hPa | 0V | 00:00:00 | 00:00:00 | 00:00:00 | |
| PU1XMG-16 | 2026-09-05 12:42:13 | -22.80080 | -42.42625 | 276° | 9km/h | 22813m | 4.7m/s | -58.5°C | 1.3% | 36.2hPa | 0V | 00:00:00 | 00:00:00 | 00:00:00 | |
| PU1XMG-16 | 2026-09-05 12:42:08 | -22.80076 | -42.42611 | 255° | 11km/h | 22782m | 4.5m/s | -58.2°C | 1.3% | 36.4hPa | 0V | 00:00:00 | 00:00:00 | 00:00:00 | |
| PU1XMG-16 | 2026-09-05 12:42:02 | -22.80073 | -42.42592 | 290° | 7km/h | 22752m | 5.7m/s | -57.9°C | 1.3% | 36.6hPa | 0V | 00:00:00 | 00:00:00 | 00:00:00 | |
| PU1XMG-16 | 2026-09-05 12:41:57 | -22.80078 | -42.42589 | 329° | 4km/h | 22713m | 6.4m/s | -57.9°C | 1.3% | 36.8hPa | 0V | 00:00:00 | 00:00:00 | 00:00:00 | |
| PU1XMG-16 | 2026-09-05 12:41:52 | -22.80079 | -42.42579 | 260° | 11km/h | 22680m | 6.9m/s | -58.0°C | 1.2% | 37.0hPa | 0V | 00:00:00 | 00:00:00 | 00:00:00 | |
| PU1XMG-16 | 2026-09-05 12:41:45 | -22.80082 | -42.42573 | 58° | 11km/h | 22637m | 5.6m/s | -58.1°C | 1.3% | 37.2hPa | 0V | 00:00:00 | 00:00:00 | 00:00:00 | |
| PU1XMG-16 | 2026-09-05 12:41:40 | -22.80084 | -42.42584 | 182° | 4km/h | 22590m | 7.4m/s | -58.1°C | 1.3% | 37.4hPa | 0V | 00:00:00 | 00:00:00 | 00:00:00 | |
| PU1XMG-16 | 2026-09-05 12:41:32 | -22.80079 | -42.42583 | 48° | 4km/h | 22556m | 6.3m/s | -57.8°C | 1.3% | 37.7hPa | 0V | 00:00:00 | 00:00:00 | 00:00:00 | |
| PU1XMG-16 | 2026-09-05 12:41:27 | -22.80081 | -42.42596 | 74° | 9km/h | 22527m | 6.8m/s | -57.8°C | 1.3% | 37.9hPa | 0V | 00:00:00 | 00:00:00 | 00:00:00 | |
| PU1XMG-16 | 2026-09-05 12:41:21 | -22.80077 | -42.42607 | 145° | 5km/h | 22489m | 5.3m/s | -57.7°C | 1.3% | 38.1hPa | 0V | 00:00:00 | 00:00:00 | 00:00:00 | |
| PU1XMG-16 | 2026-09-05 12:41:16 | -22.80069 | -42.42617 | 92° | 9km/h | 22458m | 5.4m/s | -57.7°C | 1.3% | 38.3hPa | 0V | 00:00:00 | 00:00:00 | 00:00:00 | |
| PU1XMG-16 | 2026-09-05 12:41:10 | -22.80065 | -42.42637 | 109° | 15km/h | 22423m | 4.2m/s | -57.9°C | 1.3% | 38.6hPa | 0V | 00:00:00 | 00:00:00 | 00:00:00 | |
| PU1XMG-16 | 2026-09-05 12:40:59 | -22.80044 | -42.42665 | 158° | 9km/h | 22356m | 7.4m/s | -58.4°C | 1.3% | 38.9hPa | 0V | 00:00:00 | 00:00:00 | 00:00:00 | |
| PU1XMG-16 | 2026-09-05 12:40:53 | -22.80033 | -42.42671 | 158° | 11km/h | 22324m | 8.8m/s | -58.8°C | 1.3% | 39.2hPa | 0V | 00:00:00 | 00:00:00 | 00:00:00 | |
| PU1XMG-16 | 2026-09-05 12:40:44 | -22.79996 | -42.42672 | 166° | 18km/h | 22261m | 8.0m/s | -59.2°C | 1.4% | 39.5hPa | 0V | 00:00:00 | 00:00:00 | 00:00:00 | |
| PU1XMG-16 | 2026-09-05 12:40:38 | -22.79980 | -42.42684 | 122° | 15km/h | 22229m | 7.4m/s | -59.1°C | 1.3% | 39.7hPa | 0V | 00:00:00 | 00:00:00 | 00:00:00 | |
| PU1XMG-16 | 2026-09-05 12:40:33 | -22.79969 | -42.42702 | 142° | 13km/h | 22191m | 6.6m/s | -59.0°C | 1.4% | 40.0hPa | 0V | 00:00:00 | 00:00:00 | 00:00:00 | |
| PU1XMG-16 | 2026-09-05 12:40:28 | -22.79954 | -42.42707 | 155° | 16km/h | 22158m | 6.2m/s | -59.2°C | 1.3% | 40.2hPa | 0V | 00:00:00 | 00:00:00 | 00:00:00 | |
| PU1XMG-16 | 2026-09-05 12:40:22 | -22.79933 | -42.42723 | 128° | 16km/h | 22122m | 5.6m/s | -59.6°C | 1.3% | 40.4hPa | 0V | 00:00:00 | 00:00:00 | 00:00:00 | |
| PU1XMG-16 | 2026-09-05 12:40:16 | -22.79924 | -42.42736 | 149° | 9km/h | 22092m | 6.9m/s | -59.9°C | 1.4% | 40.7hPa | 0V | 00:00:00 | 00:00:00 | 00:00:00 | |
| PU1XMG-16 | 2026-09-05 12:40:11 | -22.79906 | -42.42739 | 170° | 15km/h | 22052m | 6.2m/s | -60.0°C | 1.5% | 40.9hPa | 0V | 00:00:00 | 00:00:00 | 00:00:00 | |
| PU1XMG-16 | 2026-09-05 12:40:06 | -22.79885 | -42.42751 | 149° | 18km/h | 22023m | 7.8m/s | -59.9°C | 1.4% | 41.1hPa | 0V | 00:00:00 | 00:00:00 | 00:00:00 | |
| PU1XMG-16 | 2026-09-05 12:40:00 | -22.79863 | -42.42762 | 174° | 13km/h | 21987m | 3.5m/s | -59.6°C | 1.4% | 41.3hPa | 0V | 00:00:00 | 00:00:00 | 00:00:00 | |
| PU1XMG-16 | 2026-09-05 12:39:54 | -22.79832 | -42.42767 | 175° | 24km/h | 21949m | 7.9m/s | -59.4°C | 1.4% | 41.6hPa | 0V | 00:00:00 | 00:00:00 | 00:00:00 | |
| PU1XMG-16 | 2026-09-05 12:39:49 | -22.79807 | -42.42767 | 175° | 20km/h | 21916m | 9.1m/s | -59.3°C | 1.4% | 41.8hPa | 0V | 00:00:00 | 00:00:00 | 00:00:00 | |
| PU1XMG-16 | 2026-09-05 12:39:42 | -22.79783 | -42.42767 | 196° | 15km/h | 21875m | 6.9m/s | -59.4°C | 1.4% | 42.1hPa | 0V | 00:00:00 | 00:00:00 | 00:00:00 | |
| PU1XMG-16 | 2026-09-05 12:39:38 | -22.79762 | -42.42759 | 200° | 18km/h | 21846m | 6.3m/s | -59.4°C | 1.4% | 42.3hPa | 0V | 00:00:00 | 00:00:00 | 00:00:00 | |
| PU1XMG-16 | 2026-09-05 12:39:32 | -22.79740 | -42.42743 | 230° | 18km/h | 21807m | 5.8m/s | -59.4°C | 1.4% | 42.5hPa | 0V | 00:00:00 | 00:00:00 | 00:00:00 | |
| PU1XMG-16 | 2026-09-05 12:39:26 | -22.79720 | -42.42729 | 198° | 16km/h | 21768m | 8.0m/s | -59.6°C | 1.4% | 42.8hPa | 0V | 00:00:00 | 00:00:00 | 00:00:00 | |
| PU1XMG-16 | 2026-09-05 12:39:21 | -22.79705 | -42.42720 | 233° | 9km/h | 21735m | 8.4m/s | -59.6°C | 1.4% | 43.0hPa | 0V | 00:00:00 | 00:00:00 | 00:00:00 | |
| PU1XMG-16 | 2026-09-05 12:39:15 | -22.79709 | -42.42713 | 35° | 4km/h | 21695m | 4.1m/s | -59.3°C | 1.4% | 43.3hPa | 0V | 00:00:00 | 00:00:00 | 00:00:00 | |
| PU1XMG-16 | 2026-09-05 12:39:10 | -22.79705 | -42.42708 | 231° | 9km/h | 21659m | 6.8m/s | -59.2°C | 1.4% | 43.5hPa | 0V | 00:00:00 | 00:00:00 | 00:00:00 | |
| PU1XMG-16 | 2026-09-05 12:39:04 | -22.79708 | -42.42702 | 342° | 7km/h | 21628m | 6.7m/s | -59.6°C | 1.3% | 43.8hPa | 0V | 00:00:00 | 00:00:00 | 00:00:00 | |
| PU1XMG-16 | 2026-09-05 12:38:58 | -22.79709 | -42.42702 | 172° | 7km/h | 21598m | 5.7m/s | -59.7°C | 1.5% | 44.0hPa | 0V | 00:00:00 | 00:00:00 | 00:00:00 | |
| PU1XMG-16 | 2026-09-05 12:38:53 | -22.79699 | -42.42701 | 213° | 7km/h | 21560m | 6.4m/s | -60.0°C | 1.4% | 44.3hPa | 0V | 00:00:00 | 00:00:00 | 00:00:00 | |
| PU1XMG-16 | 2026-09-05 12:38:44 | -22.79680 | -42.42710 | 162° | 13km/h | 21504m | 8.1m/s | -60.8°C | 1.6% | 44.7hPa | 0V | 00:00:00 | 00:00:00 | 00:00:00 | |
| PU1XMG-16 | 2026-09-05 12:38:37 | -22.79660 | -42.42707 | 213° | 18km/h | 21465m | 4.7m/s | -60.8°C | 1.5% | 45.0hPa | 0V | 00:00:00 | 00:00:00 | 00:00:00 | |
| PU1XMG-16 | 2026-09-05 12:38:30 | -22.79638 | -42.42697 | 174° | 13km/h | 21413m | 8.1m/s | -60.6°C | 1.5% | 45.3hPa | 0V | 00:00:00 | 00:00:00 | 00:00:00 | |
| PU1XMG-16 | 2026-09-05 12:34:35 | -22.78570 | -42.42483 | 291° | 5km/h | 19909m | 5.6m/s | -60.9°C | 1.7% | 57.5hPa | 0V | 00:00:00 | 00:00:00 | 00:00:00 | |
| PU1XMG-16 | 2026-09-05 12:34:28 | -22.78570 | -42.42483 | 291° | 5km/h | 19909m | 5.6m/s | -60.9°C | 1.7% | 57.9hPa | 0V | 00:00:00 | 00:00:00 | 00:00:00 | |
| PU1XMG-16 | 2026-09-05 12:34:12 | -22.78590 | -42.42483 | 52° | 20km/h | 19814m | 5.4m/s | -61.7°C | 1.7% | 58.8hPa | 0V | 00:00:00 | 00:00:00 | 00:00:00 | |
| PU1XMG-16 | 2026-09-05 12:34:07 | -22.78600 | -42.42510 | 66° | 15km/h | 19777m | 6.0m/s | -61.7°C | 1.8% | 59.1hPa | 0V | 00:00:00 | 00:00:00 | 00:00:00 | |
| PU1XMG-16 | 2026-09-05 12:34:01 | -22.78609 | -42.42532 | 74° | 15km/h | 19740m | 7.9m/s | -62.0°C | 1.8% | 59.5hPa | 0V | 00:00:00 | 00:00:00 | 00:00:00 | |
| PU1XMG-16 | 2026-09-05 12:33:53 | -22.78605 | -42.42564 | 101° | 15km/h | 19695m | 5.6m/s | -62.2°C | 1.9% | 59.9hPa | 0V | 00:00:00 | 00:00:00 | 00:00:00 | |
| PU1XMG-16 | 2026-09-05 12:33:46 | -22.78595 | -42.42586 | 111° | 11km/h | 19644m | 7.4m/s | -62.1°C | 1.9% | 60.4hPa | 0V | 00:00:00 | 00:00:00 | 00:00:00 | |
| PU1XMG-16 | 2026-09-05 12:33:41 | -22.78593 | -42.42606 | 86° | 20km/h | 19610m | 6.7m/s | -62.0°C | 2.0% | 60.7hPa | 0V | 00:00:00 | 00:00:00 | 00:00:00 | |
| PU1XMG-16 | 2026-09-05 12:33:35 | -22.78595 | -42.42634 | 87° | 11km/h | 19573m | 8.3m/s | -61.9°C | 1.9% | 61.1hPa | 0V | 00:00:00 | 00:00:00 | 00:00:00 | |
| PU1XMG-16 | 2026-09-05 12:33:28 | -22.78603 | -42.42665 | 72° | 27km/h | 19527m | 8.3m/s | -61.8°C | 1.9% | 61.6hPa | 0V | 00:00:00 | 00:00:00 | 00:00:00 | |
| PU1XMG-16 | 2026-09-05 12:33:22 | -22.78613 | -42.42703 | 71° | 29km/h | 19495m | 5.7m/s | -61.8°C | 1.9% | 61.9hPa | 0V | 00:00:00 | 00:00:00 | 00:00:00 | |
| PU1XMG-16 | 2026-09-05 12:33:17 | -22.78625 | -42.42745 | 79° | 27km/h | 19456m | 6.8m/s | -62.2°C | 2.0% | 62.3hPa | 0V | 00:00:00 | 00:00:00 | 00:00:00 | |
| PU1XMG-16 | 2026-09-05 12:33:12 | -22.78634 | -42.42788 | 84° | 37km/h | 19425m | 5.2m/s | -62.0°C | 2.0% | 62.6hPa | 0V | 00:00:00 | 00:00:00 | 00:00:00 | |
| PU1XMG-16 | 2026-09-05 12:33:05 | -22.78639 | -42.42849 | 85° | 37km/h | 19388m | 7.5m/s | -61.9°C | 2.0% | 63.0hPa | 0V | 00:00:00 | 00:00:00 | 00:00:00 | |
| PU1XMG-16 | 2026-09-05 12:33:00 | -22.78647 | -42.42909 | 79° | 40km/h | 19352m | 4.3m/s | -62.3°C | 2.0% | 63.3hPa | 0V | 00:00:00 | 00:00:00 | 00:00:00 | |
| PU1XMG-16 | 2026-09-05 12:32:52 | -22.78650 | -42.42990 | 101° | 38km/h | 19307m | 5.0m/s | -62.9°C | 2.1% | 63.8hPa | 0V | 00:00:00 | 00:00:00 | 00:00:00 | |
| PU1XMG-16 | 2026-09-05 12:32:47 | -22.78648 | -42.43049 | 94° | 51km/h | 19278m | 5.0m/s | -63.0°C | 2.1% | 64.1hPa | 0V | 00:00:00 | 00:00:00 | 00:00:00 | |
| PU1XMG-16 | 2026-09-05 12:32:41 | -22.78644 | -42.43119 | 101° | 47km/h | 19251m | 6.5m/s | -63.2°C | 2.1% | 64.4hPa | 0V | 00:00:00 | 00:00:00 | 00:00:00 | |
| PU1XMG-16 | 2026-09-05 12:32:36 | -22.78627 | -42.43194 | 108° | 51km/h | 19218m | 3.9m/s | -63.5°C | 2.1% | 64.8hPa | 0V | 00:00:00 | 00:00:00 | 00:00:00 | |
| PU1XMG-16 | 2026-09-05 12:32:31 | -22.78614 | -42.43264 | 101° | 53km/h | 19190m | 4.0m/s | -63.6°C | 2.2% | 65.1hPa | 0V | 00:00:00 | 00:00:00 | 00:00:00 | |
| PU1XMG-16 | 2026-09-05 12:32:25 | -22.78593 | -42.43340 | 119° | 44km/h | 19157m | 5.7m/s | -64.1°C | 2.3% | 65.4hPa | 0V | 00:00:00 | 00:00:00 | 00:00:00 | |
| PU1XMG-16 | 2026-09-05 12:32:19 | -22.78559 | -42.43398 | 120° | 55km/h | 19129m | 6.8m/s | -64.3°C | 2.3% | 65.7hPa | 0V | 00:00:00 | 00:00:00 | 00:00:00 | |
| PU1XMG-16 | 2026-09-05 12:32:13 | -22.78523 | -42.43482 | 119° | 55km/h | 19098m | 5.9m/s | -64.3°C | 2.3% | 66.0hPa | 0V | 00:00:00 | 00:00:00 | 00:00:00 | |
| PU1XMG-16 | 2026-09-05 12:32:08 | -22.78479 | -42.43558 | 125° | 58km/h | 19066m | 4.5m/s | -64.4°C | 2.4% | 66.4hPa | 0V | 00:00:00 | 00:00:00 | 00:00:00 | |
| PU1XMG-16 | 2026-09-05 12:31:56 | -22.78394 | -42.43688 | 135° | 49km/h | 19009m | 4.9m/s | -63.9°C | 2.4% | 67.0hPa | 0V | 00:00:00 | 00:00:00 | 00:00:00 | |
| PU1XMG-16 | 2026-09-05 12:31:51 | -22.78345 | -42.43755 | 126° | 57km/h | 18978m | 5.0m/s | -63.7°C | 2.4% | 67.3hPa | 0V | 00:00:00 | 00:00:00 | 00:00:00 | |
| PU1XMG-16 | 2026-09-05 12:31:46 | -22.78308 | -42.43809 | 132° | 42km/h | 18951m | 6.9m/s | -63.5°C | 2.4% | 67.6hPa | 0V | 00:00:00 | 00:00:00 | 00:00:00 | |
| PU1XMG-16 | 2026-09-05 12:31:39 | -22.78261 | -42.43866 | 129° | 49km/h | 18919m | 5.6m/s | -63.3°C | 2.4% | 68.0hPa | 0V | 00:00:00 | 00:00:00 | 00:00:00 | |
| PU1XMG-16 | 2026-09-05 12:31:34 | -22.78213 | -42.43930 | 130° | 47km/h | 18888m | 5.1m/s | -63.1°C | 2.4% | 68.4hPa | 0V | 00:00:00 | 00:00:00 | 00:00:00 | |
| PU1XMG-16 | 2026-09-05 12:31:28 | -22.78167 | -42.43986 | 131° | 42km/h | 18856m | 3.8m/s | -62.9°C | 2.4% | 68.7hPa | 0V | 00:00:00 | 00:00:00 | 00:00:00 | |
| PU1XMG-16 | 2026-09-05 12:31:10 | -22.78057 | -42.44136 | 127° | 40km/h | 18761m | 6.8m/s | -62.5°C | 2.5% | 69.8hPa | 0V | 00:00:00 | 00:00:00 | 00:00:00 | |
| PU1XMG-16 | 2026-09-05 12:31:05 | -22.78026 | -42.44183 | 131° | 29km/h | 18724m | 5.4m/s | -62.1°C | 2.4% | 70.2hPa | 0V | 00:00:00 | 00:00:00 | 00:00:00 | |
| PU1XMG-16 | 2026-09-05 12:29:36 | -22.78067 | -42.44868 | 99° | 42km/h | 18196m | 7.0m/s | -64.4°C | 4.5% | 76.5hPa | 0V | 00:00:00 | 00:00:00 | 00:00:00 | |
| PU1XMG-16 | 2026-09-05 12:29:31 | -22.78053 | -42.44951 | 95° | 53km/h | 18151m | 7.6m/s | -64.7°C | 4.5% | 77.1hPa | 0V | 00:00:00 | 00:00:00 | 00:00:00 | |
| PU1XMG-16 | 2026-09-05 12:26:39 | -22.77403 | -42.47476 | 95° | 40km/h | 17194m | 8.9m/s | -72.7°C | 13.4% | 90.5hPa | 0V | 00:00:00 | 00:00:00 | 00:00:00 | |
| PU1XMG-16 | 2026-09-05 12:25:32 | -22.77295 | -42.48635 | 93° | 73km/h | 16811m | 6.8m/s | -74.1°C | 17.6% | 96.7hPa | 0V | 00:00:00 | 00:00:00 | 00:00:00 | |
| PU1XMG-16 | 2026-09-05 12:25:27 | -22.77296 | -42.48765 | 89° | 82km/h | 16776m | 10.3m/s | -74.1°C | 16.9% | 97.2hPa | 0V | 00:00:00 | 00:00:00 | 00:00:00 | |
| PU1XMG-16 | 2026-09-05 12:25:16 | -22.77296 | -42.49003 | 89° | 78km/h | 16712m | 5.4m/s | -74.2°C | 17.0% | 98.4hPa | 0V | 00:00:00 | 00:00:00 | 00:00:00 | |
| PU1XMG-16 | 2026-09-05 12:25:09 | -22.77295 | -42.49148 | 96° | 73km/h | 16671m | 6.7m/s | -74.5°C | 18.0% | 99.0hPa | 0V | 00:00:00 | 00:00:00 | 00:00:00 | |
| PU1XMG-16 | 2026-09-05 12:25:03 | -22.77295 | -42.49269 | 88° | 80km/h | 16640m | 4.5m/s | -75.4°C | 17.9% | 99.6hPa | 0V | 00:00:00 | 00:00:00 | 00:00:00 | |
| PU1XMG-16 | 2026-09-05 12:24:15 | -22.77210 | -42.50201 | 92° | 69km/h | 16367m | 3.8m/s | -75.0°C | 18.3% | 104.1hPa | 0V | 00:00:00 | 00:00:00 | 00:00:00 | |
| PU1XMG-16 | 2026-09-05 12:24:08 | -22.77208 | -42.50280 | 87° | 71km/h | 16345m | 5.5m/s | -74.6°C | 18.5% | 104.7hPa | 0V | 00:00:00 | 00:00:00 | 00:00:00 | |
| PU1XMG-16 | 2026-09-05 12:24:04 | -22.77221 | -42.50369 | 82° | 64km/h | 16315m | 4.8m/s | -74.4°C | 17.7% | 105.3hPa | 0V | 00:00:00 | 00:00:00 | 00:00:00 | |
| PU1XMG-16 | 2026-09-05 12:23:58 | -22.77232 | -42.50479 | 86° | 69km/h | 16282m | 5.5m/s | -74.1°C | 17.0% | 105.9hPa | 0V | 00:00:00 | 00:00:00 | 00:00:00 | |
| PU1XMG-16 | 2026-09-05 12:23:13 | -22.77360 | -42.51408 | 78° | 86km/h | 16041m | 5.7m/s | -73.8°C | 17.8% | 110.4hPa | 0V | 00:00:00 | 00:00:00 | 00:00:00 | |
| PU1XMG-16 | 2026-09-05 12:23:06 | -22.77383 | -42.51571 | 85° | 89km/h | 16007m | 5.9m/s | -73.9°C | 17.0% | 111.0hPa | 0V | 00:00:00 | 00:00:00 | 00:00:00 | |
| PU1XMG-16 | 2026-09-05 12:23:00 | -22.77402 | -42.51714 | 81° | 89km/h | 15977m | 4.7m/s | -73.7°C | 16.8% | 111.6hPa | 0V | 00:00:00 | 00:00:00 | 00:00:00 | |
| PU1XMG-16 | 2026-09-05 12:22:54 | -22.77428 | -42.51858 | 79° | 89km/h | 15944m | 4.9m/s | -73.5°C | 17.5% | 112.2hPa | 0V | 00:00:00 | 00:00:00 | 00:00:00 | |
| PU1XMG-16 | 2026-09-05 12:22:47 | -22.77457 | -42.52032 | 83° | 93km/h | 15910m | 5.5m/s | -73.7°C | 16.3% | 112.9hPa | 0V | 00:00:00 | 00:00:00 | 00:00:00 | |
| PU1XMG-16 | 2026-09-05 12:22:38 | -22.77489 | -42.52263 | 81° | 97km/h | 15861m | 5.8m/s | -73.7°C | 17.2% | 113.8hPa | 0V | 00:00:00 | 00:00:00 | 00:00:00 | |
| PU1XMG-16 | 2026-09-05 12:22:32 | -22.77515 | -42.52424 | 82° | 102km/h | 15828m | 6.2m/s | -73.8°C | 16.5% | 114.5hPa | 0V | 00:00:00 | 00:00:00 | 00:00:00 | |
| PU1XMG-16 | 2026-09-05 12:21:26 | -22.77558 | -42.54243 | 92° | 102km/h | 15484m | 5.0m/s | -71.8°C | 14.5% | 121.4hPa | 0V | 00:00:00 | 00:00:00 | 00:00:00 | |
| PU1XMG-16 | 2026-09-05 12:20:54 | -22.77532 | -42.55146 | 93° | 97km/h | 15304m | 4.5m/s | -70.4°C | 12.9% | 125.2hPa | 0V | 00:00:00 | 00:00:00 | 00:00:00 | |
| PU1XMG-16 | 2026-09-05 12:20:48 | -22.77531 | -42.55307 | 90° | 100km/h | 15269m | 5.3m/s | -70.1°C | 11.9% | 125.9hPa | 0V | 00:00:00 | 00:00:00 | 00:00:00 | |
| PU1XMG-16 | 2026-09-05 12:20:42 | -22.77532 | -42.55446 | 92° | 102km/h | 15243m | 3.9m/s | -69.9°C | 11.5% | 126.4hPa | 0V | 00:00:00 | 00:00:00 | 00:00:00 | |
| PU1XMG-16 | 2026-09-05 12:20:37 | -22.77532 | -42.55608 | 89° | 97km/h | 15212m | 6.1m/s | -69.5°C | 11.8% | 127.1hPa | 0V | 00:00:00 | 00:00:00 | 00:00:00 | |
| PU1XMG-16 | 2026-09-05 12:20:31 | -22.77534 | -42.55768 | 93° | 99km/h | 15180m | 5.9m/s | -69.2°C | 11.2% | 127.8hPa | 0V | 00:00:00 | 00:00:00 | 00:00:00 | |
| PU1XMG-16 | 2026-09-05 12:20:25 | -22.77527 | -42.55902 | 93° | 99km/h | 15154m | 4.7m/s | -69.2°C | 11.0% | 128.4hPa | 0V | 00:00:00 | 00:00:00 | 00:00:00 | |
| PU1XMG-16 | 2026-09-05 12:20:20 | -22.77529 | -42.56034 | 89° | 95km/h | 15126m | 4.7m/s | -68.9°C | 10.5% | 128.9hPa | 0V | 00:00:00 | 00:00:00 | 00:00:00 | |
| PU1XMG-16 | 2026-09-05 12:20:16 | -22.77532 | -42.56165 | 92° | 97km/h | 15099m | 5.3m/s | -68.7°C | 10.4% | 129.5hPa | 0V | 00:00:00 | 00:00:00 | 00:00:00 | |
| PU1XMG-16 | 2026-09-05 12:20:07 | -22.77525 | -42.56393 | 93° | 91km/h | 15051m | 6.3m/s | -68.3°C | 10.1% | 130.5hPa | 0V | 00:00:00 | 00:00:00 | 00:00:00 | |
| PU1XMG-16 | 2026-09-05 12:20:01 | -22.77523 | -42.56547 | 90° | 95km/h | 15019m | 5.4m/s | -68.1°C | 9.8% | 131.2hPa | 0V | 00:00:00 | 00:00:00 | 00:00:00 | |
| PU1XMG-16 | 2026-09-05 12:19:54 | -22.77511 | -42.56725 | 93° | 88km/h | 14982m | 4.0m/s | -67.8°C | 9.3% | 132.1hPa | 0V | 00:00:00 | 00:00:00 | 00:00:00 | |
| PU1XMG-16 | 2026-09-05 12:19:47 | -22.77518 | -42.56869 | 86° | 89km/h | 14950m | 5.3m/s | -67.7°C | 9.4% | 132.8hPa | 0V | 00:00:00 | 00:00:00 | 00:00:00 | |
| PU1XMG-16 | 2026-09-05 12:19:43 | -22.77520 | -42.56993 | 93° | 91km/h | 14921m | 6.3m/s | -67.4°C | 9.3% | 133.4hPa | 0V | 00:00:00 | 00:00:00 | 00:00:00 | |
| PU1XMG-16 | 2026-09-05 12:19:30 | -22.77523 | -42.57300 | 91° | 84km/h | 14852m | 4.9m/s | -66.9°C | 9.0% | 135.0hPa | 0V | 00:00:00 | 00:00:00 | 00:00:00 | |
| PU1XMG-16 | 2026-09-05 12:19:23 | -22.77524 | -42.57443 | 89° | 89km/h | 14821m | 6.7m/s | -66.8°C | 9.0% | 135.6hPa | 0V | 00:00:00 | 00:00:00 | 00:00:00 | |
| PU1XMG-16 | 2026-09-05 12:19:18 | -22.77532 | -42.57585 | 87° | 84km/h | 14788m | 6.0m/s | -66.6°C | 9.0% | 136.4hPa | 0V | 00:00:00 | 00:00:00 | 00:00:00 | |
| PU1XMG-16 | 2026-09-05 12:19:10 | -22.77546 | -42.57767 | 84° | 88km/h | 14745m | 6.0m/s | -66.3°C | 8.6% | 137.4hPa | 0V | 00:00:00 | 00:00:00 | 00:00:00 | |
| PU1XMG-16 | 2026-09-05 12:19:05 | -22.77560 | -42.57890 | 83° | 89km/h | 14718m | 6.3m/s | -66.1°C | 8.8% | 138.0hPa | 0V | 00:00:00 | 00:00:00 | 00:00:00 | |
| PU1XMG-16 | 2026-09-05 12:18:58 | -22.77579 | -42.58061 | 85° | 91km/h | 14679m | 4.3m/s | -65.9°C | 8.9% | 138.9hPa | 0V | 00:00:00 | 00:00:00 | 00:00:00 | |
| PU1XMG-16 | 2026-09-05 12:18:52 | -22.77598 | -42.58208 | 82° | 89km/h | 14647m | 5.8m/s | -65.5°C | 9.1% | 139.6hPa | 0V | 00:00:00 | 00:00:00 | 00:00:00 | |
| PU1XMG-16 | 2026-09-05 12:18:47 | -22.77616 | -42.58329 | 82° | 88km/h | 14621m | 5.3m/s | -65.3°C | 8.7% | 140.2hPa | 0V | 00:00:00 | 00:00:00 | 00:00:00 | |
| PU1XMG-16 | 2026-09-05 12:18:40 | -22.77642 | -42.58471 | 79° | 89km/h | 14589m | 4.3m/s | -65.0°C | 9.0% | 141.0hPa | 0V | 00:00:00 | 00:00:00 | 00:00:00 | |
| PU1XMG-16 | 2026-09-05 12:18:34 | -22.77668 | -42.58617 | 81° | 91km/h | 14559m | 6.2m/s | -64.8°C | 8.9% | 141.6hPa | 0V | 00:00:00 | 00:00:00 | 00:00:00 | |
| PU1XMG-16 | 2026-09-05 12:18:28 | -22.77696 | -42.58787 | 80° | 91km/h | 14520m | 4.6m/s | -64.6°C | 8.8% | 142.5hPa | 0V | 00:00:00 | 00:00:00 | 00:00:00 | |
| PU1XMG-16 | 2026-09-05 12:18:21 | -22.77720 | -42.58930 | 83° | 89km/h | 14488m | 7.4m/s | -64.3°C | 9.0% | 143.2hPa | 0V | 00:00:00 | 00:00:00 | 00:00:00 | |
| PU1XMG-16 | 2026-09-05 12:18:16 | -22.77736 | -42.59058 | 82° | 95km/h | 14458m | 6.9m/s | -64.2°C | 8.9% | 144.0hPa | 0V | 00:00:00 | 00:00:00 | 00:00:00 | |
| PU1XMG-16 | 2026-09-05 12:18:11 | -22.77771 | -42.59200 | 75° | 91km/h | 14425m | 6.4m/s | -64.1°C | 8.6% | 144.7hPa | 0V | 00:00:00 | 00:00:00 | 00:00:00 | |
| PU1XMG-16 | 2026-09-05 12:18:03 | -22.77816 | -42.59406 | 80° | 97km/h | 14375m | 5.0m/s | -63.6°C | 8.4% | 145.9hPa | 0V | 00:00:00 | 00:00:00 | 00:00:00 | |
| PU1XMG-16 | 2026-09-05 12:17:57 | -22.77852 | -42.59569 | 74° | 104km/h | 14340m | 6.8m/s | -63.3°C | 8.6% | 146.7hPa | 0V | 00:00:00 | 00:00:00 | 00:00:00 | |
| PU1XMG-16 | 2026-09-05 12:17:51 | -22.77891 | -42.59703 | 72° | 100km/h | 14312m | 4.6m/s | -63.1°C | 8.5% | 147.4hPa | 0V | 00:00:00 | 00:00:00 | 00:00:00 | |
| PU1XMG-16 | 2026-09-05 12:17:45 | -22.77934 | -42.59858 | 75° | 97km/h | 14282m | 5.3m/s | -63.0°C | 8.2% | 148.2hPa | 0V | 00:00:00 | 00:00:00 | 00:00:00 | |
| PU1XMG-16 | 2026-09-05 12:17:40 | -22.77979 | -42.60021 | 74° | 104km/h | 14252m | 5.0m/s | -62.7°C | 8.1% | 149.0hPa | 0V | 00:00:00 | 00:00:00 | 00:00:00 | |
| PU1XMG-16 | 2026-09-05 12:17:33 | -22.78025 | -42.60184 | 75° | 104km/h | 14220m | 5.4m/s | -62.5°C | 8.1% | 149.7hPa | 0V | 00:00:00 | 00:00:00 | 00:00:00 | |
| PU1XMG-16 | 2026-09-05 12:17:26 | -22.78082 | -42.60404 | 73° | 102km/h | 14177m | 4.3m/s | -62.2°C | 8.1% | 150.7hPa | 0V | 00:00:00 | 00:00:00 | 00:00:00 | |
| PU1XMG-16 | 2026-09-05 12:17:19 | -22.78127 | -42.60560 | 76° | 102km/h | 14145m | 4.3m/s | -62.0°C | 8.2% | 151.5hPa | 0V | 00:00:00 | 00:00:00 | 00:00:00 | |
| PU1XMG-16 | 2026-09-05 12:17:15 | -22.78160 | -42.60697 | 77° | 102km/h | 14118m | 6.4m/s | -61.8°C | 8.3% | 152.2hPa | 0V | 00:00:00 | 00:00:00 | 00:00:00 | |
| PU1XMG-16 | 2026-09-05 12:17:09 | -22.78205 | -42.60859 | 73° | 106km/h | 14087m | 4.8m/s | -61.6°C | 8.3% | 153.0hPa | 0V | 00:00:00 | 00:00:00 | 00:00:00 | |
| PU1XMG-16 | 2026-09-05 12:17:03 | -22.78249 | -42.61022 | 75° | 104km/h | 14054m | 4.6m/s | -61.5°C | 8.2% | 153.7hPa | 0V | 00:00:00 | 00:00:00 | 00:00:00 | |
| PU1XMG-16 | 2026-09-05 12:16:57 | -22.78288 | -42.61159 | 73° | 104km/h | 14028m | 6.3m/s | -61.6°C | 8.4% | 154.4hPa | 0V | 00:00:00 | 00:00:00 | 00:00:00 | |
| PU1XMG-16 | 2026-09-05 12:16:53 | -22.78325 | -42.61294 | 77° | 108km/h | 14003m | 5.7m/s | -61.4°C | 8.1% | 155.0hPa | 0V | 00:00:00 | 00:00:00 | 00:00:00 | |
| PU1XMG-16 | 2026-09-05 12:16:46 | -22.78368 | -42.61467 | 76° | 108km/h | 13967m | 7.0m/s | -61.2°C | 8.5% | 155.9hPa | 0V | 00:00:00 | 00:00:00 | 00:00:00 | |
| PU1XMG-16 | 2026-09-05 12:16:41 | -22.78402 | -42.61612 | 77° | 110km/h | 13940m | 4.5m/s | -61.0°C | 8.2% | 156.6hPa | 0V | 00:00:00 | 00:00:00 | 00:00:00 | |
| PU1XMG-16 | 2026-09-05 12:16:35 | -22.78443 | -42.61788 | 76° | 111km/h | 13909m | 3.8m/s | -60.9°C | 8.0% | 157.4hPa | 0V | 00:00:00 | 00:00:00 | 00:00:00 | |
| PU1XMG-16 | 2026-09-05 12:16:31 | -22.78478 | -42.61937 | 79° | 113km/h | 13884m | 5.1m/s | -60.8°C | 8.1% | 158.0hPa | 0V | 00:00:00 | 00:00:00 | 00:00:00 | |
| PU1XMG-16 | 2026-09-05 12:16:25 | -22.78511 | -42.62120 | 79° | 115km/h | 13854m | 4.0m/s | -60.5°C | 7.9% | 158.8hPa | 0V | 00:00:00 | 00:00:00 | 00:00:00 | |
| PU1XMG-16 | 2026-09-05 12:16:18 | -22.78547 | -42.62304 | 80° | 117km/h | 13822m | 5.6m/s | -60.3°C | 7.9% | 159.6hPa | 0V | 00:00:00 | 00:00:00 | 00:00:00 | |
| PU1XMG-16 | 2026-09-05 12:16:13 | -22.78574 | -42.62462 | 81° | 117km/h | 13796m | 5.4m/s | -60.1°C | 7.9% | 160.3hPa | 0V | 00:00:00 | 00:00:00 | 00:00:00 | |
| PU1XMG-16 | 2026-09-05 12:16:08 | -22.78608 | -42.62654 | 80° | 119km/h | 13762m | 4.6m/s | -59.9°C | 7.7% | 161.1hPa | 0V | 00:00:00 | 00:00:00 | 00:00:00 | |
| PU1XMG-16 | 2026-09-05 12:16:01 | -22.78642 | -42.62847 | 82° | 122km/h | 13730m | 3.7m/s | -59.6°C | 7.5% | 162.0hPa | 0V | 00:00:00 | 00:00:00 | 00:00:00 | |
| PU1XMG-16 | 2026-09-05 12:15:55 | -22.78669 | -42.63049 | 83° | 122km/h | 13698m | 4.7m/s | -59.3°C | 7.0% | 162.8hPa | 0V | 00:00:00 | 00:00:00 | 00:00:00 | |
| PU1XMG-16 | 2026-09-05 12:15:50 | -22.78699 | -42.63247 | 80° | 122km/h | 13667m | 5.8m/s | -59.0°C | 7.1% | 163.6hPa | 0V | 00:00:00 | 00:00:00 | 00:00:00 | |
| PU1XMG-16 | 2026-09-05 12:15:43 | -22.78730 | -42.63449 | 83° | 122km/h | 13636m | 4.9m/s | -58.8°C | 7.0% | 164.5hPa | 0V | 00:00:00 | 00:00:00 | 00:00:00 | |
| PU1XMG-16 | 2026-09-05 12:15:40 | -22.78753 | -42.63612 | 81° | 117km/h | 13610m | 6.3m/s | -58.5°C | 6.8% | 165.1hPa | 0V | 00:00:00 | 00:00:00 | 00:00:00 | |
| PU1XMG-16 | 2026-09-05 12:15:33 | -22.78782 | -42.63810 | 82° | 128km/h | 13579m | 3.4m/s | -58.3°C | 6.6% | 165.9hPa | 0V | 00:00:00 | 00:00:00 | 00:00:00 | |
| PU1XMG-16 | 2026-09-05 12:15:26 | -22.78810 | -42.64012 | 82° | 120km/h | 13547m | 4.6m/s | -58.0°C | 6.6% | 166.7hPa | 0V | 00:00:00 | 00:00:00 | 00:00:00 | |
| PU1XMG-16 | 2026-09-05 12:15:21 | -22.78839 | -42.64212 | 82° | 126km/h | 13517m | 5.6m/s | -57.7°C | 6.7% | 167.6hPa | 0V | 00:00:00 | 00:00:00 | 00:00:00 | |
| PU1XMG-16 | 2026-09-05 12:15:14 | -22.78859 | -42.64419 | 88° | 124km/h | 13488m | 5.7m/s | -57.6°C | 6.4% | 168.3hPa | 0V | 00:00:00 | 00:00:00 | 00:00:00 | |
| PU1XMG-16 | 2026-09-05 12:15:09 | -22.78880 | -42.64619 | 82° | 124km/h | 13458m | 5.5m/s | -57.3°C | 6.3% | 169.2hPa | 0V | 00:00:00 | 00:00:00 | 00:00:00 | |
| PU1XMG-16 | 2026-09-05 12:14:57 | -22.78923 | -42.65001 | 83° | 124km/h | 13403m | 4.3m/s | -56.9°C | 6.4% | 170.6hPa | 0V | 00:00:00 | 00:00:00 | 00:00:00 | |
| PU1XMG-16 | 2026-09-05 12:14:53 | -22.78938 | -42.65173 | 87° | 128km/h | 13381m | 4.3m/s | -56.7°C | 6.3% | 171.2hPa | 0V | 00:00:00 | 00:00:00 | 00:00:00 | |
| PU1XMG-16 | 2026-09-05 12:14:47 | -22.78958 | -42.65379 | 83° | 128km/h | 13351m | 5.1m/s | -56.5°C | 6.5% | 172.0hPa | 0V | 00:00:00 | 00:00:00 | 00:00:00 | |
| PU1XMG-16 | 2026-09-05 12:14:40 | -22.78979 | -42.65590 | 86° | 128km/h | 13320m | 3.0m/s | -56.2°C | 6.5% | 172.8hPa | 0V | 00:00:00 | 00:00:00 | 00:00:00 | |
| PU1XMG-16 | 2026-09-05 12:14:34 | -22.78995 | -42.65794 | 86° | 126km/h | 13292m | 3.6m/s | -56.2°C | 6.5% | 173.6hPa | 0V | 00:00:00 | 00:00:00 | 00:00:00 | |
| PU1XMG-16 | 2026-09-05 12:14:29 | -22.79008 | -42.65968 | 86° | 130km/h | 13268m | 5.4m/s | -56.0°C | 6.6% | 174.3hPa | 0V | 00:00:00 | 00:00:00 | 00:00:00 | |
| PU1XMG-16 | 2026-09-05 12:14:24 | -22.79026 | -42.66178 | 85° | 124km/h | 13241m | 4.1m/s | -55.8°C | 6.6% | 175.1hPa | 0V | 00:00:00 | 00:00:00 | 00:00:00 | |
| PU1XMG-16 | 2026-09-05 12:14:18 | -22.79040 | -42.66388 | 87° | 131km/h | 13213m | 3.9m/s | -55.6°C | 6.6% | 175.9hPa | 0V | 00:00:00 | 00:00:00 | 00:00:00 | |
| PU1XMG-16 | 2026-09-05 12:14:13 | -22.79052 | -42.66565 | 86° | 128km/h | 13188m | 4.3m/s | -55.5°C | 6.4% | 176.5hPa | 0V | 00:00:00 | 00:00:00 | 00:00:00 | |
| PU1XMG-16 | 2026-09-05 12:14:07 | -22.79068 | -42.66777 | 88° | 133km/h | 13160m | 4.3m/s | -55.3°C | 6.3% | 177.3hPa | 0V | 00:00:00 | 00:00:00 | 00:00:00 | |
| PU1XMG-16 | 2026-09-05 12:14:00 | -22.79077 | -42.66994 | 89° | 128km/h | 13130m | 6.0m/s | -55.1°C | 6.2% | 178.1hPa | 0V | 00:00:00 | 00:00:00 | 00:00:00 | |
| PU1XMG-16 | 2026-09-05 12:13:55 | -22.79086 | -42.67201 | 87° | 128km/h | 13102m | 5.3m/s | -54.9°C | 6.1% | 178.9hPa | 0V | 00:00:00 | 00:00:00 | 00:00:00 | |
| PU1XMG-16 | 2026-09-05 12:13:50 | -22.79097 | -42.67379 | 89° | 131km/h | 13077m | 6.2m/s | -54.8°C | 6.2% | 179.6hPa | 0V | 00:00:00 | 00:00:00 | 00:00:00 | |
| PU1XMG-16 | 2026-09-05 12:13:44 | -22.79103 | -42.67592 | 90° | 128km/h | 13050m | 3.9m/s | -54.6°C | 6.6% | 180.4hPa | 0V | 00:00:00 | 00:00:00 | 00:00:00 | |
| PU1XMG-16 | 2026-09-05 12:13:39 | -22.79106 | -42.67764 | 89° | 126km/h | 13026m | 5.0m/s | -55.0°C | 7.1% | 181.1hPa | 0V | 00:00:00 | 00:00:00 | 00:00:00 | |
| PU1XMG-16 | 2026-09-05 12:13:33 | -22.79115 | -42.67974 | 89° | 130km/h | 12998m | 5.4m/s | -54.9°C | 6.9% | 181.8hPa | 0V | 00:00:00 | 00:00:00 | 00:00:00 | |
| PU1XMG-16 | 2026-09-05 12:13:28 | -22.79120 | -42.68153 | 88° | 130km/h | 12974m | 4.7m/s | -54.6°C | 7.5% | 182.6hPa | 0V | 00:00:00 | 00:00:00 | 00:00:00 | |
| PU1XMG-16 | 2026-09-05 12:13:21 | -22.79129 | -42.68363 | 89° | 128km/h | 12944m | 3.9m/s | -54.5°C | 8.0% | 183.4hPa | 0V | 00:00:00 | 00:00:00 | 00:00:00 | |
| PU1XMG-16 | 2026-09-05 12:13:16 | -22.79134 | -42.68540 | 89° | 130km/h | 12920m | 5.8m/s | -54.6°C | 8.1% | 184.1hPa | 0V | 00:00:00 | 00:00:00 | 00:00:00 | |
| PU1XMG-16 | 2026-09-05 12:13:12 | -22.79138 | -42.68721 | 90° | 135km/h | 12897m | 3.6m/s | -54.5°C | 8.1% | 184.7hPa | 0V | 00:00:00 | 00:00:00 | 00:00:00 | |
| PU1XMG-16 | 2026-09-05 12:13:06 | -22.79138 | -42.68946 | 92° | 137km/h | 12870m | 3.8m/s | -54.3°C | 8.5% | 185.5hPa | 0V | 00:00:00 | 00:00:00 | 00:00:00 | |
| PU1XMG-16 | 2026-09-05 12:13:00 | -22.79138 | -42.69168 | 90° | 135km/h | 12840m | 4.5m/s | -54.2°C | 8.8% | 186.4hPa | 0V | 00:00:00 | 00:00:00 | 00:00:00 | |
| PU1XMG-16 | 2026-09-05 12:12:53 | -22.79139 | -42.69388 | 91° | 135km/h | 12812m | 3.8m/s | -54.4°C | 8.4% | 187.1hPa | 0V | 00:00:00 | 00:00:00 | 00:00:00 | |
| PU1XMG-16 | 2026-09-05 12:12:47 | -22.79140 | -42.69609 | 89° | 133km/h | 12782m | 4.0m/s | -54.1°C | 8.8% | 188.0hPa | 0V | 00:00:00 | 00:00:00 | 00:00:00 | |
| PU1XMG-16 | 2026-09-05 12:12:42 | -22.79149 | -42.69830 | 88° | 135km/h | 12753m | 5.9m/s | -53.9°C | 8.8% | 188.8hPa | 0V | 00:00:00 | 00:00:00 | 00:00:00 | |
| PU1XMG-16 | 2026-09-05 12:12:36 | -22.79159 | -42.70047 | 88° | 128km/h | 12725m | 4.7m/s | -53.7°C | 9.1% | 189.7hPa | 0V | 00:00:00 | 00:00:00 | 00:00:00 | |
| PU1XMG-16 | 2026-09-05 12:12:30 | -22.79169 | -42.70269 | 89° | 141km/h | 12695m | 3.4m/s | -53.6°C | 9.9% | 190.6hPa | 0V | 00:00:00 | 00:00:00 | 00:00:00 | |
| PU1XMG-16 | 2026-09-05 12:12:24 | -22.79175 | -42.70456 | 89° | 131km/h | 12670m | 4.7m/s | -53.6°C | 9.9% | 191.3hPa | 0V | 00:00:00 | 00:00:00 | 00:00:00 | |
| PU1XMG-16 | 2026-09-05 12:12:18 | -22.79187 | -42.70673 | 88° | 135km/h | 12642m | 5.5m/s | -53.7°C | 9.9% | 192.1hPa | 0V | 00:00:00 | 00:00:00 | 00:00:00 | |
| PU1XMG-16 | 2026-09-05 12:12:13 | -22.79196 | -42.70860 | 88° | 139km/h | 12618m | 5.9m/s | -53.3°C | 9.8% | 192.9hPa | 0V | 00:00:00 | 00:00:00 | 00:00:00 | |
| PU1XMG-16 | 2026-09-05 12:12:08 | -22.79208 | -42.71086 | 87° | 137km/h | 12588m | 5.8m/s | -53.2°C | 9.5% | 193.8hPa | 0V | 00:00:00 | 00:00:00 | 00:00:00 | |
| PU1XMG-16 | 2026-09-05 12:12:01 | -22.79221 | -42.71309 | 88° | 137km/h | 12559m | 5.5m/s | -53.1°C | 9.7% | 194.7hPa | 0V | 00:00:00 | 00:00:00 | 00:00:00 | |
| PU1XMG-16 | 2026-09-05 12:11:56 | -22.79235 | -42.71530 | 87° | 131km/h | 12531m | 4.8m/s | -52.9°C | 9.6% | 195.5hPa | 0V | 00:00:00 | 00:00:00 | 00:00:00 | |
| PU1XMG-16 | 2026-09-05 12:11:51 | -22.79249 | -42.71713 | 86° | 139km/h | 12507m | 4.9m/s | -52.8°C | 9.3% | 196.2hPa | 0V | 00:00:00 | 00:00:00 | 00:00:00 | |
| PU1XMG-16 | 2026-09-05 12:11:45 | -22.79266 | -42.71942 | 87° | 137km/h | 12478m | 3.8m/s | -52.4°C | 9.4% | 197.2hPa | 0V | 00:00:00 | 00:00:00 | 00:00:00 | |
| PU1XMG-16 | 2026-09-05 12:11:39 | -22.79277 | -42.72129 | 86° | 137km/h | 12454m | 5.8m/s | -52.3°C | 9.4% | 197.8hPa | 0V | 00:00:00 | 00:00:00 | 00:00:00 | |
| PU1XMG-16 | 2026-09-05 12:11:34 | -22.79297 | -42.72357 | 86° | 142km/h | 12425m | 4.8m/s | -52.1°C | 9.5% | 198.8hPa | 0V | 00:00:00 | 00:00:00 | 00:00:00 | |
| PU1XMG-16 | 2026-09-05 12:11:28 | -22.79315 | -42.72589 | 86° | 142km/h | 12397m | 5.5m/s | -51.9°C | 9.2% | 199.6hPa | 0V | 00:00:00 | 00:00:00 | 00:00:00 | |
| PU1XMG-16 | 2026-09-05 12:11:22 | -22.79335 | -42.72823 | 85° | 142km/h | 12368m | 6.3m/s | -51.8°C | 9.4% | 200.4hPa | 0V | 00:00:00 | 00:00:00 | 00:00:00 | |
| PU1XMG-16 | 2026-09-05 12:11:16 | -22.79352 | -42.73018 | 87° | 142km/h | 12343m | 5.6m/s | -51.6°C | 9.8% | 201.2hPa | 0V | 00:00:00 | 00:00:00 | 00:00:00 | |
| PU1XMG-16 | 2026-09-05 12:11:10 | -22.79364 | -42.73252 | 89° | 142km/h | 12313m | 6.2m/s | -51.3°C | 9.2% | 202.2hPa | 0V | 00:00:00 | 00:00:00 | 00:00:00 | |
| PU1XMG-16 | 2026-09-05 12:11:05 | -22.79375 | -42.73487 | 88° | 142km/h | 12283m | 4.5m/s | -51.0°C | 9.2% | 203.1hPa | 0V | 00:00:00 | 00:00:00 | 00:00:00 | |
| PU1XMG-16 | 2026-09-05 12:10:58 | -22.79384 | -42.73723 | 90° | 146km/h | 12253m | 4.5m/s | -50.7°C | 9.1% | 204.0hPa | 0V | 00:00:00 | 00:00:00 | 00:00:00 | |
| PU1XMG-16 | 2026-09-05 12:10:52 | -22.79388 | -42.73961 | 89° | 142km/h | 12223m | 5.4m/s | -50.4°C | 9.2% | 205.0hPa | 0V | 00:00:00 | 00:00:00 | 00:00:00 | |
| PU1XMG-16 | 2026-09-05 12:10:47 | -22.79397 | -42.74195 | 90° | 144km/h | 12194m | 6.2m/s | -50.2°C | 9.0% | 205.9hPa | 0V | 00:00:00 | 00:00:00 | 00:00:00 | |
| PU1XMG-16 | 2026-09-05 12:10:41 | -22.79400 | -42.74394 | 90° | 146km/h | 12169m | 4.2m/s | -50.1°C | 9.1% | 206.7hPa | 0V | 00:00:00 | 00:00:00 | 00:00:00 | |
| PU1XMG-16 | 2026-09-05 12:10:35 | -22.79408 | -42.74627 | 89° | 141km/h | 12138m | 5.8m/s | -49.7°C | 9.4% | 207.6hPa | 0V | 00:00:00 | 00:00:00 | 00:00:00 | |
| PU1XMG-16 | 2026-09-05 12:10:30 | -22.79412 | -42.74865 | 91° | 146km/h | 12108m | 7.4m/s | -49.5°C | 10.2% | 208.6hPa | 0V | 00:00:00 | 00:00:00 | 00:00:00 | |
| PU1XMG-16 | 2026-09-05 12:10:24 | -22.79411 | -42.75065 | 92° | 148km/h | 12081m | 4.2m/s | -49.3°C | 11.4% | 209.5hPa | 0V | 00:00:00 | 00:00:00 | 00:00:00 | |
| PU1XMG-16 | 2026-09-05 12:10:18 | -22.79409 | -42.75302 | 92° | 144km/h | 12046m | 6.3m/s | -49.3°C | 13.4% | 210.6hPa | 0V | 00:00:00 | 00:00:00 | 00:00:00 | |
| PU1XMG-16 | 2026-09-05 12:10:12 | -22.79406 | -42.75549 | 93° | 153km/h | 12016m | 4.8m/s | -49.1°C | 17.9% | 211.5hPa | 0V | 00:00:00 | 00:00:00 | 00:00:00 | |
| PU1XMG-16 | 2026-09-05 12:10:05 | -22.79388 | -42.75833 | 94° | 146km/h | 11977m | 5.0m/s | -49.2°C | 26.5% | 212.9hPa | 0V | 00:00:00 | 00:00:00 | 00:00:00 | |
| PU1XMG-16 | 2026-09-05 12:10:00 | -22.79374 | -42.76032 | 96° | 146km/h | 11948m | 5.6m/s | -49.0°C | 25.4% | 213.8hPa | 0V | 00:00:00 | 00:00:00 | 00:00:00 | |
| PU1XMG-16 | 2026-09-05 12:09:55 | -22.79347 | -42.76267 | 98° | 144km/h | 11918m | 5.6m/s | -48.8°C | 22.7% | 214.8hPa | 0V | 00:00:00 | 00:00:00 | 00:00:00 | |
| PU1XMG-16 | 2026-09-05 12:09:50 | -22.79321 | -42.76503 | 98° | 141km/h | 11889m | 6.0m/s | -48.5°C | 22.2% | 215.5hPa | 0V | 00:00:00 | 00:00:00 | 00:00:00 | |
| PU1XMG-16 | 2026-09-05 12:09:44 | -22.79300 | -42.76690 | 98° | 137km/h | 11865m | 5.2m/s | -48.3°C | 20.5% | 216.5hPa | 0V | 00:00:00 | 00:00:00 | 00:00:00 | |
| PU1XMG-16 | 2026-09-05 12:09:39 | -22.79279 | -42.76879 | 98° | 142km/h | 11839m | 4.7m/s | -48.0°C | 19.0% | 217.4hPa | 0V | 00:00:00 | 00:00:00 | 00:00:00 | |
| PU1XMG-16 | 2026-09-05 12:09:32 | -22.79251 | -42.77113 | 98° | 141km/h | 11807m | 3.8m/s | -47.8°C | 14.8% | 218.4hPa | 0V | 00:00:00 | 00:00:00 | 00:00:00 | |
| PU1XMG-16 | 2026-09-05 12:09:26 | -22.79225 | -42.77342 | 99° | 141km/h | 11777m | 4.9m/s | -47.7°C | 11.1% | 219.4hPa | 0V | 00:00:00 | 00:00:00 | 00:00:00 | |
| PU1XMG-16 | 2026-09-05 12:09:21 | -22.79197 | -42.77575 | 97° | 146km/h | 11749m | 5.5m/s | -47.4°C | 8.8% | 220.4hPa | 0V | 00:00:00 | 00:00:00 | 00:00:00 | |
| PU1XMG-16 | 2026-09-05 12:09:15 | -22.79176 | -42.77808 | 96° | 139km/h | 11719m | 3.6m/s | -47.2°C | 8.0% | 221.4hPa | 0V | 00:00:00 | 00:00:00 | 00:00:00 | |
| PU1XMG-16 | 2026-09-05 12:09:08 | -22.79159 | -42.78034 | 96° | 141km/h | 11687m | 4.9m/s | -47.0°C | 7.8% | 222.4hPa | 0V | 00:00:00 | 00:00:00 | 00:00:00 | |
| PU1XMG-16 | 2026-09-05 12:09:04 | -22.79145 | -42.78228 | 96° | 141km/h | 11661m | 6.2m/s | -46.8°C | 7.3% | 223.2hPa | 0V | 00:00:00 | 00:00:00 | 00:00:00 | |
| PU1XMG-16 | 2026-09-05 12:08:58 | -22.79130 | -42.78419 | 95° | 139km/h | 11635m | 3.9m/s | -46.7°C | 7.1% | 224.1hPa | 0V | 00:00:00 | 00:00:00 | 00:00:00 | |
| PU1XMG-16 | 2026-09-05 12:08:52 | -22.79121 | -42.78647 | 93° | 139km/h | 11604m | 4.2m/s | -46.5°C | 7.0% | 225.1hPa | 0V | 00:00:00 | 00:00:00 | 00:00:00 | |
| PU1XMG-16 | 2026-09-05 12:08:47 | -22.79114 | -42.78877 | 93° | 141km/h | 11574m | 4.6m/s | -46.1°C | 6.8% | 226.2hPa | 0V | 00:00:00 | 00:00:00 | 00:00:00 | |
| PU1XMG-16 | 2026-09-05 12:08:42 | -22.79110 | -42.79069 | 92° | 141km/h | 11548m | 5.7m/s | -45.9°C | 7.2% | 227.1hPa | 0V | 00:00:00 | 00:00:00 | 00:00:00 | |
| PU1XMG-16 | 2026-09-05 12:08:37 | -22.79109 | -42.79259 | 92° | 141km/h | 11522m | 3.4m/s | -45.6°C | 7.0% | 227.9hPa | 0V | 00:00:00 | 00:00:00 | 00:00:00 | |
| PU1XMG-16 | 2026-09-05 12:08:31 | -22.79101 | -42.79452 | 94° | 139km/h | 11496m | 6.1m/s | -45.5°C | 7.0% | 228.8hPa | 0V | 00:00:00 | 00:00:00 | 00:00:00 | |
| PU1XMG-16 | 2026-09-05 12:08:25 | -22.79103 | -42.79678 | 90° | 137km/h | 11467m | 6.6m/s | -45.2°C | 6.9% | 229.8hPa | 0V | 00:00:00 | 00:00:00 | 00:00:00 | |
| PU1XMG-16 | 2026-09-05 12:08:20 | -22.79101 | -42.79873 | 92° | 142km/h | 11443m | 4.8m/s | -44.9°C | 6.9% | 230.6hPa | 0V | 00:00:00 | 00:00:00 | 00:00:00 | |
| PU1XMG-16 | 2026-09-05 12:08:14 | -22.79099 | -42.80100 | 91° | 139km/h | 11414m | 6.2m/s | -44.7°C | 7.0% | 231.6hPa | 0V | 00:00:00 | 00:00:00 | 00:00:00 | |
| PU1XMG-16 | 2026-09-05 12:08:09 | -22.79104 | -42.80330 | 89° | 142km/h | 11384m | 6.7m/s | -44.5°C | 6.9% | 232.7hPa | 0V | 00:00:00 | 00:00:00 | 00:00:00 | |
| PU1XMG-16 | 2026-09-05 12:08:04 | -22.79106 | -42.80519 | 91° | 133km/h | 11358m | 4.9m/s | -44.3°C | 6.7% | 233.6hPa | 0V | 00:00:00 | 00:00:00 | 00:00:00 | |
| PU1XMG-16 | 2026-09-05 12:07:58 | -22.79106 | -42.80743 | 92° | 142km/h | 11329m | 6.3m/s | -44.0°C | 6.6% | 234.7hPa | 0V | 00:00:00 | 00:00:00 | 00:00:00 | |
| PU1XMG-16 | 2026-09-05 12:07:51 | -22.79110 | -42.80973 | 89° | 137km/h | 11296m | 5.6m/s | -43.8°C | 6.5% | 235.7hPa | 0V | 00:00:00 | 00:00:00 | 00:00:00 | |
| PU1XMG-16 | 2026-09-05 12:07:45 | -22.79118 | -42.81199 | 89° | 139km/h | 11265m | 4.7m/s | -43.5°C | 6.0% | 236.9hPa | 0V | 00:00:00 | 00:00:00 | 00:00:00 | |
| PU1XMG-16 | 2026-09-05 12:07:39 | -22.79123 | -42.81425 | 89° | 137km/h | 11235m | 5.7m/s | -43.2°C | 6.2% | 237.9hPa | 0V | 00:00:00 | 00:00:00 | 00:00:00 | |
| PU1XMG-16 | 2026-09-05 12:07:36 | -22.79127 | -42.81614 | 90° | 137km/h | 11211m | 4.8m/s | -43.0°C | 6.0% | 238.8hPa | 0V | 00:00:00 | 00:00:00 | 00:00:00 | |
| PU1XMG-16 | 2026-09-05 12:07:28 | -22.79132 | -42.81840 | 89° | 139km/h | 11181m | 5.9m/s | -42.8°C | 5.8% | 239.9hPa | 0V | 00:00:00 | 00:00:00 | 00:00:00 | |
| PU1XMG-16 | 2026-09-05 12:07:23 | -22.79136 | -42.82069 | 91° | 141km/h | 11151m | 6.0m/s | -42.6°C | 5.7% | 241.0hPa | 0V | 00:00:00 | 00:00:00 | 00:00:00 | |
| PU1XMG-16 | 2026-09-05 12:07:18 | -22.79133 | -42.82261 | 92° | 139km/h | 11124m | 6.1m/s | -42.5°C | 5.7% | 241.9hPa | 0V | 00:00:00 | 00:00:00 | 00:00:00 | |
| PU1XMG-16 | 2026-09-05 12:07:12 | -22.79133 | -42.82449 | 90° | 141km/h | 11101m | 3.7m/s | -42.2°C | 5.8% | 242.7hPa | 0V | 00:00:00 | 00:00:00 | 00:00:00 | |
| PU1XMG-16 | 2026-09-05 12:07:06 | -22.79135 | -42.82682 | 91° | 144km/h | 11072m | 4.6m/s | -42.0°C | 5.9% | 243.8hPa | 0V | 00:00:00 | 00:00:00 | 00:00:00 | |
| PU1XMG-16 | 2026-09-05 12:07:01 | -22.79130 | -42.82913 | 93° | 139km/h | 11042m | 3.3m/s | -41.8°C | 5.9% | 244.8hPa | 0V | 00:00:00 | 00:00:00 | 00:00:00 | |
| PU1XMG-16 | 2026-09-05 12:06:55 | -22.79132 | -42.83415 | 90° | 142km/h | 10978m | 5.5m/s | -41.6°C | 5.6% | 245.9hPa | 0V | 00:00:00 | 00:00:00 | 00:00:00 | |
| PU1XMG-16 | 2026-09-05 12:06:47 | -22.79133 | -42.83454 | 90° | 142km/h | 10973m | 4.3m/s | -41.1°C | 5.6% | 247.4hPa | 0V | 00:00:00 | 00:00:00 | 00:00:00 | |
| PU1XMG-16 | 2026-09-05 12:06:41 | -22.79136 | -42.83647 | 89° | 141km/h | 10949m | 5.6m/s | -40.9°C | 5.4% | 248.2hPa | 0V | 00:00:00 | 00:00:00 | 00:00:00 | |
| PU1XMG-16 | 2026-09-05 12:06:36 | -22.79142 | -42.83839 | 90° | 141km/h | 10924m | 4.8m/s | -40.8°C | 5.2% | 249.2hPa | 0V | 00:00:00 | 00:00:00 | 00:00:00 | |
| PU1XMG-16 | 2026-09-05 12:06:30 | -22.79142 | -42.84072 | 92° | 141km/h | 10894m | 6.3m/s | -40.6°C | 5.1% | 250.3hPa | 0V | 00:00:00 | 00:00:00 | 00:00:00 | |
| PU1XMG-16 | 2026-09-05 12:06:25 | -22.79140 | -42.84265 | 91° | 141km/h | 10870m | 5.0m/s | -40.4°C | 4.7% | 251.1hPa | 0V | 00:00:00 | 00:00:00 | 00:00:00 | |
| PU1XMG-16 | 2026-09-05 12:06:20 | -22.79141 | -42.84459 | 89° | 144km/h | 10845m | 5.9m/s | -40.1°C | 4.5% | 252.0hPa | 0V | 00:00:00 | 00:00:00 | 00:00:00 | |
| PU1XMG-16 | 2026-09-05 12:06:15 | -22.79149 | -42.84694 | 89° | 141km/h | 10815m | 4.7m/s | -39.8°C | 4.5% | 253.1hPa | 0V | 00:00:00 | 00:00:00 | 00:00:00 | |
| PU1XMG-16 | 2026-09-05 12:06:09 | -22.79153 | -42.84887 | 90° | 139km/h | 10791m | 4.6m/s | -39.6°C | 4.4% | 254.0hPa | 0V | 00:00:00 | 00:00:00 | 00:00:00 | |
| PU1XMG-16 | 2026-09-05 12:06:04 | -22.79156 | -42.85121 | 90° | 144km/h | 10762m | 3.1m/s | -39.4°C | 4.5% | 255.1hPa | 0V | 00:00:00 | 00:00:00 | 00:00:00 | |
| PU1XMG-16 | 2026-09-05 12:05:57 | -22.79164 | -42.85356 | 88° | 144km/h | 10733m | 5.6m/s | -39.3°C | 4.6% | 256.2hPa | 0V | 00:00:00 | 00:00:00 | 00:00:00 | |
| PU1XMG-16 | 2026-09-05 12:05:50 | -22.79179 | -42.85670 | 88° | 144km/h | 10694m | 4.2m/s | -39.0°C | 4.4% | 257.7hPa | 0V | 00:00:00 | 00:00:00 | 00:00:00 | |
| PU1XMG-16 | 2026-09-05 12:05:24 | -22.79210 | -42.86935 | 89° | 144km/h | 10539m | 6.1m/s | -38.0°C | 3.8% | 262.2hPa | 0V | 00:00:00 | 00:00:00 | 00:00:00 | |
| PU1XMG-16 | 2026-09-05 12:05:18 | -22.79210 | -42.86935 | 89° | 144km/h | 10539m | 6.1m/s | -37.8°C | 3.8% | 263.5hPa | 0V | 00:00:00 | 00:00:00 | 00:00:00 | |
| PU1XMG-16 | 2026-09-05 12:05:09 | -22.79211 | -42.87292 | 91° | 148km/h | 10496m | 4.7m/s | -37.5°C | 3.9% | 265.3hPa | 0V | 00:00:00 | 00:00:00 | 00:00:00 | |
| PU1XMG-16 | 2026-09-05 12:05:02 | -22.79206 | -42.87529 | 92° | 144km/h | 10466m | 3.8m/s | -37.2°C | 4.2% | 266.3hPa | 0V | 00:00:00 | 00:00:00 | 00:00:00 | |
| PU1XMG-16 | 2026-09-05 12:04:58 | -22.79206 | -42.87729 | 91° | 148km/h | 10442m | 5.9m/s | -37.1°C | 4.8% | 267.3hPa | 0V | 00:00:00 | 00:00:00 | 00:00:00 | |
| PU1XMG-16 | 2026-09-05 12:04:51 | -22.79202 | -42.87967 | 92° | 142km/h | 10414m | 4.5m/s | -37.0°C | 4.5% | 268.3hPa | 0V | 00:00:00 | 00:00:00 | 00:00:00 | |
| PU1XMG-16 | 2026-09-05 12:04:46 | -22.79201 | -42.88204 | 92° | 146km/h | 10385m | 5.0m/s | -36.7°C | 4.2% | 269.5hPa | 0V | 00:00:00 | 00:00:00 | 00:00:00 | |
| PU1XMG-16 | 2026-09-05 12:04:40 | -22.79196 | -42.88447 | 93° | 146km/h | 10355m | 3.9m/s | -36.4°C | 4.0% | 270.7hPa | 0V | 00:00:00 | 00:00:00 | 00:00:00 | |
| PU1XMG-16 | 2026-09-05 12:04:35 | -22.79191 | -42.88645 | 92° | 144km/h | 10331m | 5.1m/s | -36.2°C | 4.0% | 271.6hPa | 0V | 00:00:00 | 00:00:00 | 00:00:00 | |
| PU1XMG-16 | 2026-09-05 12:04:28 | -22.79184 | -42.88882 | 93° | 148km/h | 10303m | 5.1m/s | -36.0°C | 3.9% | 272.7hPa | 0V | 00:00:00 | 00:00:00 | 00:00:00 | |
| PU1XMG-16 | 2026-09-05 12:04:22 | -22.79177 | -42.89119 | 93° | 141km/h | 10275m | 5.0m/s | -35.6°C | 3.7% | 273.9hPa | 0V | 00:00:00 | 00:00:00 | 00:00:00 | |
| PU1XMG-16 | 2026-09-05 12:04:17 | -22.79173 | -42.89314 | 92° | 146km/h | 10251m | 6.0m/s | -35.4°C | 3.6% | 274.8hPa | 0V | 00:00:00 | 00:00:00 | 00:00:00 | |
| PU1XMG-16 | 2026-09-05 12:04:12 | -22.79169 | -42.89552 | 93° | 141km/h | 10221m | 4.7m/s | -35.1°C | 3.5% | 275.9hPa | 0V | 00:00:00 | 00:00:00 | 00:00:00 | |
| PU1XMG-16 | 2026-09-05 12:04:07 | -22.79162 | -42.89746 | 92° | 144km/h | 10196m | 4.8m/s | -34.9°C | 3.5% | 276.9hPa | 0V | 00:00:00 | 00:00:00 | 00:00:00 | |
| PU1XMG-16 | 2026-09-05 12:04:01 | -22.79159 | -42.89981 | 92° | 141km/h | 10168m | 3.1m/s | -34.7°C | 3.4% | 278.1hPa | 0V | 00:00:00 | 00:00:00 | 00:00:00 | |
| PU1XMG-16 | 2026-09-05 12:03:54 | -22.79155 | -42.90214 | 93° | 141km/h | 10139m | 6.1m/s | -34.4°C | 3.4% | 279.2hPa | 0V | 00:00:00 | 00:00:00 | 00:00:00 | |
| PU1XMG-16 | 2026-09-05 12:03:49 | -22.79153 | -42.90409 | 92° | 146km/h | 10114m | 4.7m/s | -34.2°C | 3.3% | 280.2hPa | 0V | 00:00:00 | 00:00:00 | 00:00:00 | |
| PU1XMG-16 | 2026-09-05 12:03:44 | -22.79150 | -42.90650 | 91° | 144km/h | 10086m | 5.9m/s | -33.9°C | 3.3% | 281.1hPa | 0V | 00:00:00 | 00:00:00 | 00:00:00 | |
| PU1XMG-16 | 2026-09-05 12:03:39 | -22.79151 | -42.90843 | 90° | 139km/h | 10061m | 5.5m/s | -33.7°C | 3.2% | 282.3hPa | 0V | 00:00:00 | 00:00:00 | 00:00:00 | |
| PU1XMG-16 | 2026-09-05 12:03:32 | -22.79149 | -42.91073 | 92° | 142km/h | 10032m | 5.6m/s | -33.4°C | 3.2% | 283.5hPa | 0V | 00:00:00 | 00:00:00 | 00:00:00 | |
| PU1XMG-16 | 2026-09-05 12:03:27 | -22.79147 | -42.91308 | 90° | 142km/h | 10003m | 3.9m/s | -33.4°C | 3.3% | 284.6hPa | 0V | 00:00:00 | 00:00:00 | 00:00:00 | |
| PU1XMG-16 | 2026-09-05 12:03:22 | -22.79149 | -42.91503 | 91° | 144km/h | 9979m | 3.5m/s | -33.4°C | 3.2% | 285.6hPa | 0V | 00:00:00 | 00:00:00 | 00:00:00 | |
| PU1XMG-16 | 2026-09-05 12:03:15 | -22.79147 | -42.91741 | 91° | 141km/h | 9951m | 5.0m/s | -33.5°C | 3.0% | 286.8hPa | 0V | 00:00:00 | 00:00:00 | 00:00:00 | |
| PU1XMG-16 | 2026-09-05 12:03:11 | -22.79150 | -42.91931 | 90° | 137km/h | 9925m | 3.7m/s | -33.4°C | 3.1% | 287.8hPa | 0V | 00:00:00 | 00:00:00 | 00:00:00 | |
| PU1XMG-16 | 2026-09-05 12:02:59 | -22.79132 | -42.92388 | 93° | 141km/h | 9867m | 4.4m/s | -33.1°C | 3.3% | 290.0hPa | 0V | 00:00:00 | 00:00:00 | 00:00:00 | |
| PU1XMG-16 | 2026-09-05 12:02:54 | -22.79128 | -42.92539 | 92° | 137km/h | 9847m | 4.2m/s | -33.1°C | 3.4% | 290.9hPa | 0V | 00:00:00 | 00:00:00 | 00:00:00 | |
| PU1XMG-16 | 2026-09-05 12:02:48 | -22.79123 | -42.92768 | 92° | 141km/h | 9818m | 4.0m/s | -33.1°C | 3.8% | 292.2hPa | 0V | 00:00:00 | 00:00:00 | 00:00:00 | |
| PU1XMG-16 | 2026-09-05 12:02:43 | -22.79115 | -42.92994 | 93° | 137km/h | 9791m | 3.5m/s | -32.9°C | 3.9% | 293.4hPa | 0V | 00:00:00 | 00:00:00 | 00:00:00 | |
| PU1XMG-16 | 2026-09-05 12:02:38 | -22.79107 | -42.93180 | 94° | 135km/h | 9767m | 4.3m/s | -32.8°C | 4.2% | 294.4hPa | 0V | 00:00:00 | 00:00:00 | 00:00:00 | |
| PU1XMG-16 | 2026-09-05 12:02:32 | -22.79094 | -42.93397 | 94° | 133km/h | 9737m | 4.5m/s | -32.7°C | 4.7% | 295.6hPa | 0V | 00:00:00 | 00:00:00 | 00:00:00 | |
| PU1XMG-16 | 2026-09-05 12:02:27 | -22.79086 | -42.93578 | 93° | 133km/h | 9715m | 5.9m/s | -32.5°C | 4.6% | 296.6hPa | 0V | 00:00:00 | 00:00:00 | 00:00:00 | |
| PU1XMG-16 | 2026-09-05 12:02:21 | -22.79077 | -42.93798 | 94° | 133km/h | 9687m | 6.0m/s | -32.3°C | 4.4% | 297.8hPa | 0V | 00:00:00 | 00:00:00 | 00:00:00 | |
| PU1XMG-16 | 2026-09-05 12:02:15 | -22.79064 | -42.94012 | 94° | 130km/h | 9660m | 6.6m/s | -32.1°C | 4.1% | 299.0hPa | 0V | 00:00:00 | 00:00:00 | 00:00:00 | |
| PU1XMG-16 | 2026-09-05 12:02:09 | -22.79049 | -42.94228 | 96° | 133km/h | 9630m | 5.0m/s | -32.1°C | 4.7% | 300.0hPa | 0V | 00:00:00 | 00:00:00 | 00:00:00 | |
| PU1XMG-16 | 2026-09-05 12:02:04 | -22.79037 | -42.94408 | 95° | 130km/h | 9605m | 3.2m/s | -31.9°C | 5.8% | 301.2hPa | 0V | 00:00:00 | 00:00:00 | 00:00:00 | |
| PU1XMG-16 | 2026-09-05 12:01:59 | -22.79025 | -42.94585 | 95° | 130km/h | 9581m | 4.4m/s | -31.8°C | 7.1% | 302.2hPa | 0V | 00:00:00 | 00:00:00 | 00:00:00 | |
| PU1XMG-16 | 2026-09-05 12:01:52 | -22.79011 | -42.94797 | 94° | 128km/h | 9550m | 6.8m/s | -31.7°C | 8.9% | 303.5hPa | 0V | 00:00:00 | 00:00:00 | 00:00:00 | |
| PU1XMG-16 | 2026-09-05 12:01:46 | -22.78998 | -42.95006 | 95° | 126km/h | 9522m | 4.9m/s | -31.6°C | 10.4% | 304.8hPa | 0V | 00:00:00 | 00:00:00 | 00:00:00 | |
| PU1XMG-16 | 2026-09-05 12:01:41 | -22.78992 | -42.95180 | 92° | 124km/h | 9494m | 6.7m/s | -31.3°C | 11.0% | 306.0hPa | 0V | 00:00:00 | 00:00:00 | 00:00:00 | |
| PU1XMG-16 | 2026-09-05 12:01:35 | -22.78983 | -42.95382 | 93° | 124km/h | 9463m | 5.8m/s | -31.1°C | 11.5% | 307.4hPa | 0V | 00:00:00 | 00:00:00 | 00:00:00 | |
| PU1XMG-16 | 2026-09-05 12:01:30 | -22.78986 | -42.95592 | 89° | 137km/h | 9426m | 5.5m/s | -30.8°C | 13.2% | 308.9hPa | 0V | 00:00:00 | 00:00:00 | 00:00:00 | |
| PU1XMG-16 | 2026-09-05 12:01:23 | -22.78986 | -42.95812 | 92° | 131km/h | 9393m | 5.8m/s | -30.8°C | 15.8% | 310.4hPa | 0V | 00:00:00 | 00:00:00 | 00:00:00 | |
| PU1XMG-16 | 2026-09-05 12:01:18 | -22.78986 | -42.96019 | 88° | 124km/h | 9361m | 7.4m/s | -30.6°C | 16.4% | 311.8hPa | 0V | 00:00:00 | 00:00:00 | 00:00:00 | |
| PU1XMG-16 | 2026-09-05 12:01:11 | -22.78999 | -42.96228 | 87° | 128km/h | 9328m | 5.8m/s | -30.5°C | 16.9% | 313.2hPa | 0V | 00:00:00 | 00:00:00 | 00:00:00 | |
| PU1XMG-16 | 2026-09-05 12:01:05 | -22.79014 | -42.96437 | 86° | 126km/h | 9300m | 6.1m/s | -30.2°C | 16.9% | 314.4hPa | 0V | 00:00:00 | 00:00:00 | 00:00:00 | |
| PU1XMG-16 | 2026-09-05 12:01:00 | -22.79024 | -42.96609 | 89° | 126km/h | 9275m | 6.6m/s | -30.0°C | 16.7% | 315.5hPa | 0V | 00:00:00 | 00:00:00 | 00:00:00 | |
| PU1XMG-16 | 2026-09-05 12:00:55 | -22.79030 | -42.96818 | 87° | 124km/h | 9247m | 4.7m/s | -29.8°C | 16.5% | 316.7hPa | 0V | 00:00:00 | 00:00:00 | 00:00:00 | |
| PU1XMG-16 | 2026-09-05 12:00:50 | -22.79040 | -42.96986 | 88° | 124km/h | 9223m | 5.4m/s | -29.6°C | 16.3% | 317.9hPa | 0V | 00:00:00 | 00:00:00 | 00:00:00 | |
| PU1XMG-16 | 2026-09-05 12:00:44 | -22.79047 | -42.97190 | 88° | 124km/h | 9192m | 5.2m/s | -29.3°C | 16.1% | 319.2hPa | 0V | 00:00:00 | 00:00:00 | 00:00:00 | |
| PU1XMG-16 | 2026-09-05 12:00:39 | -22.79054 | -42.97363 | 89° | 128km/h | 9164m | 4.4m/s | -29.1°C | 16.3% | 320.4hPa | 0V | 00:00:00 | 00:00:00 | 00:00:00 | |
| PU1XMG-16 | 2026-09-05 12:00:33 | -22.79056 | -42.97572 | 89° | 128km/h | 9131m | 6.0m/s | -28.8°C | 16.5% | 321.9hPa | 0V | 00:00:00 | 00:00:00 | 00:00:00 | |
| PU1XMG-16 | 2026-09-05 12:00:27 | -22.79064 | -42.97743 | 88° | 122km/h | 9107m | 3.1m/s | -28.6°C | 16.8% | 323.1hPa | 0V | 00:00:00 | 00:00:00 | 00:00:00 | |
| PU1XMG-16 | 2026-09-05 12:00:21 | -22.79066 | -42.97943 | 92° | 120km/h | 9077m | 3.3m/s | -28.3°C | 16.7% | 324.4hPa | 0V | 00:00:00 | 00:00:00 | 00:00:00 | |
| PU1XMG-16 | 2026-09-05 12:00:19 | -22.79063 | -42.98104 | 92° | 115km/h | 9052m | 3.8m/s | -28.1°C | 16.9% | 325.5hPa | 0V | 00:00:00 | 00:00:00 | 00:00:00 | |
| PU1XMG-16 | 2026-09-05 12:00:10 | -22.79060 | -42.98298 | 92° | 119km/h | 9024m | 6.6m/s | -28.0°C | 19.0% | 326.8hPa | 0V | 00:00:00 | 00:00:00 | 00:00:00 | |
| PU1XMG-16 | 2026-09-05 12:00:06 | -22.79058 | -42.98463 | 92° | 120km/h | 8999m | 5.5m/s | -28.0°C | 23.5% | 328.0hPa | 0V | 00:00:00 | 00:00:00 | 00:00:00 | |
| PU1XMG-16 | 2026-09-05 11:59:59 | -22.79054 | -42.98658 | 92° | 119km/h | 8971m | 3.8m/s | -27.7°C | 24.0% | 329.2hPa | 0V | 00:00:00 | 00:00:00 | 00:00:00 | |
| PU1XMG-16 | 2026-09-05 11:59:55 | -22.79053 | -42.98823 | 91° | 120km/h | 8948m | 5.2m/s | -27.5°C | 23.6% | 330.2hPa | 0V | 00:00:00 | 00:00:00 | 00:00:00 | |
| PU1XMG-16 | 2026-09-05 11:59:48 | -22.79059 | -42.99018 | 89° | 117km/h | 8919m | 3.9m/s | -27.2°C | 23.5% | 331.7hPa | 0V | 00:00:00 | 00:00:00 | 00:00:00 | |
| PU1XMG-16 | 2026-09-05 11:59:43 | -22.79067 | -42.99208 | 89° | 117km/h | 8888m | 4.1m/s | -27.2°C | 25.7% | 333.1hPa | 0V | 00:00:00 | 00:00:00 | 00:00:00 | |
| PU1XMG-16 | 2026-09-05 11:59:37 | -22.79067 | -42.99405 | 92° | 120km/h | 8858m | 5.9m/s | -27.0°C | 25.5% | 334.4hPa | 0V | 00:00:00 | 00:00:00 | 00:00:00 | |
| PU1XMG-16 | 2026-09-05 11:59:30 | -22.79071 | -42.99592 | 89° | 115km/h | 8830m | 4.6m/s | -26.7°C | 25.5% | 335.7hPa | 0V | 00:00:00 | 00:00:00 | 00:00:00 | |
| PU1XMG-16 | 2026-09-05 11:59:24 | -22.79074 | -42.99788 | 90° | 122km/h | 8799m | 5.8m/s | -26.4°C | 24.9% | 337.3hPa | 0V | 00:00:00 | 00:00:00 | 00:00:00 | |
| PU1XMG-16 | 2026-09-05 11:59:19 | -22.79084 | -42.99980 | 87° | 115km/h | 8765m | 6.4m/s | -26.1°C | 24.6% | 338.8hPa | 0V | 00:00:00 | 00:00:00 | 00:00:00 | |
| PU1XMG-16 | 2026-09-05 11:59:12 | -22.79089 | -43.00173 | 91° | 119km/h | 8734m | 3.9m/s | -25.7°C | 23.8% | 340.3hPa | 0V | 00:00:00 | 00:00:00 | 00:00:00 | |
| PU1XMG-16 | 2026-09-05 11:59:06 | -22.79095 | -43.00366 | 88° | 119km/h | 8703m | 6.4m/s | -25.4°C | 23.5% | 341.8hPa | 0V | 00:00:00 | 00:00:00 | 00:00:00 | |
| PU1XMG-16 | 2026-09-05 11:59:00 | -22.79105 | -43.00558 | 87° | 117km/h | 8669m | 4.8m/s | -25.2°C | 23.2% | 343.2hPa | 0V | 00:00:00 | 00:00:00 | 00:00:00 | |
| PU1XMG-16 | 2026-09-05 11:58:55 | -22.79117 | -43.00718 | 85° | 117km/h | 8643m | 5.2m/s | -24.9°C | 23.1% | 344.6hPa | 0V | 00:00:00 | 00:00:00 | 00:00:00 | |
| PU1XMG-16 | 2026-09-05 11:58:49 | -22.79132 | -43.00911 | 89° | 119km/h | 8610m | 4.2m/s | -24.7°C | 24.1% | 346.1hPa | 0V | 00:00:00 | 00:00:00 | 00:00:00 | |
| PU1XMG-16 | 2026-09-05 11:58:44 | -22.79138 | -43.01107 | 87° | 120km/h | 8579m | 5.8m/s | -24.4°C | 27.4% | 347.5hPa | 0V | 00:00:00 | 00:00:00 | 00:00:00 | |
| PU1XMG-16 | 2026-09-05 11:58:38 | -22.79156 | -43.01304 | 84° | 117km/h | 8549m | 4.6m/s | -24.1°C | 27.9% | 349.1hPa | 0V | 00:00:00 | 00:00:00 | 00:00:00 | |
| PU1XMG-16 | 2026-09-05 11:58:32 | -22.79174 | -43.01462 | 85° | 117km/h | 8523m | 7.3m/s | -23.9°C | 28.1% | 350.3hPa | 0V | 00:00:00 | 00:00:00 | 00:00:00 | |
| PU1XMG-16 | 2026-09-05 11:58:26 | -22.79193 | -43.01650 | 84° | 115km/h | 8489m | 5.1m/s | -23.7°C | 34.3% | 351.9hPa | 0V | 00:00:00 | 00:00:00 | 00:00:00 | |
| PU1XMG-16 | 2026-09-05 11:58:20 | -22.79221 | -43.01839 | 82° | 119km/h | 8455m | 6.2m/s | -23.9°C | 51.0% | 353.4hPa | 0V | 00:00:00 | 00:00:00 | 00:00:00 | |
| PU1XMG-16 | 2026-09-05 11:58:14 | -22.79238 | -43.02025 | 87° | 108km/h | 8422m | 4.9m/s | -23.8°C | 50.9% | 355.0hPa | 0V | 00:00:00 | 00:00:00 | 00:00:00 | |
| PU1XMG-16 | 2026-09-05 11:58:09 | -22.79253 | -43.02201 | 86° | 104km/h | 8383m | 7.0m/s | -23.5°C | 41.2% | 356.8hPa | 0V | 00:00:00 | 00:00:00 | 00:00:00 | |
| PU1XMG-16 | 2026-09-05 11:58:04 | -22.79262 | -43.02345 | 88° | 104km/h | 8359m | 5.2m/s | -23.2°C | 39.9% | 358.2hPa | 0V | 00:00:00 | 00:00:00 | 00:00:00 | |
| PU1XMG-16 | 2026-09-05 11:57:58 | -22.79266 | -43.02492 | 90° | 110km/h | 8331m | 4.4m/s | -22.9°C | 37.6% | 359.5hPa | 0V | 00:00:00 | 00:00:00 | 00:00:00 | |
| PU1XMG-16 | 2026-09-05 11:57:53 | -22.79268 | -43.02645 | 88° | 111km/h | 8305m | 6.1m/s | -22.8°C | 33.5% | 360.8hPa | 0V | 00:00:00 | 00:00:00 | 00:00:00 | |
| PU1XMG-16 | 2026-09-05 11:57:48 | -22.79279 | -43.02825 | 89° | 108km/h | 8273m | 7.1m/s | -22.5°C | 34.2% | 362.3hPa | 0V | 00:00:00 | 00:00:00 | 00:00:00 | |
| PU1XMG-16 | 2026-09-05 11:57:42 | -22.79282 | -43.02969 | 91° | 102km/h | 8246m | 3.1m/s | -22.2°C | 33.7% | 363.7hPa | 0V | 00:00:00 | 00:00:00 | 00:00:00 | |
| PU1XMG-16 | 2026-09-05 11:57:37 | -22.79284 | -43.03113 | 89° | 108km/h | 8221m | 4.7m/s | -22.0°C | 33.7% | 365.0hPa | 0V | 00:00:00 | 00:00:00 | 00:00:00 | |
| PU1XMG-16 | 2026-09-05 11:57:33 | -22.79285 | -43.03260 | 91° | 108km/h | 8195m | 4.2m/s | -21.8°C | 38.0% | 366.3hPa | 0V | 00:00:00 | 00:00:00 | 00:00:00 | |
| PU1XMG-16 | 2026-09-05 11:57:27 | -22.79284 | -43.03407 | 91° | 104km/h | 8169m | 4.4m/s | -21.7°C | 40.7% | 367.5hPa | 0V | 00:00:00 | 00:00:00 | 00:00:00 | |
| PU1XMG-16 | 2026-09-05 11:57:21 | -22.79286 | -43.03582 | 90° | 111km/h | 8139m | 5.3m/s | -21.5°C | 39.0% | 369.0hPa | 0V | 00:00:00 | 00:00:00 | 00:00:00 | |
| PU1XMG-16 | 2026-09-05 11:57:16 | -22.79292 | -43.03734 | 87° | 108km/h | 8115m | 5.3m/s | -21.3°C | 42.2% | 370.4hPa | 0V | 00:00:00 | 00:00:00 | 00:00:00 | |
| PU1XMG-16 | 2026-09-05 11:57:11 | -22.79302 | -43.03877 | 87° | 104km/h | 8088m | 6.0m/s | -21.1°C | 43.7% | 371.7hPa | 0V | 00:00:00 | 00:00:00 | 00:00:00 | |
| PU1XMG-16 | 2026-09-05 11:57:06 | -22.79310 | -43.04018 | 87° | 99km/h | 8061m | 7.3m/s | -20.9°C | 46.1% | 373.0hPa | 0V | 00:00:00 | 00:00:00 | 00:00:00 | |
| PU1XMG-16 | 2026-09-05 11:57:01 | -22.79314 | -43.04179 | 90° | 100km/h | 8029m | 5.0m/s | -20.8°C | 47.7% | 374.6hPa | 0V | 00:00:00 | 00:00:00 | 00:00:00 | |
| PU1XMG-16 | 2026-09-05 11:56:56 | -22.79316 | -43.04322 | 91° | 108km/h | 8001m | 3.1m/s | -20.7°C | 52.0% | 375.9hPa | 0V | 00:00:00 | 00:00:00 | 00:00:00 | |
| PU1XMG-16 | 2026-09-05 11:56:50 | -22.79318 | -43.04470 | 89° | 104km/h | 7977m | 5.4m/s | -20.5°C | 51.6% | 377.2hPa | 0V | 00:00:00 | 00:00:00 | 00:00:00 | |
| PU1XMG-16 | 2026-09-05 11:56:44 | -22.79329 | -43.04636 | 84° | 102km/h | 7941m | 7.1m/s | -20.2°C | 50.3% | 379.0hPa | 0V | 00:00:00 | 00:00:00 | 00:00:00 | |
| PU1XMG-16 | 2026-09-05 11:56:40 | -22.79335 | -43.04803 | 91° | 102km/h | 7906m | 6.8m/s | -19.9°C | 47.3% | 380.8hPa | 0V | 00:00:00 | 00:00:00 | 00:00:00 | |
| PU1XMG-16 | 2026-09-05 11:56:33 | -22.79337 | -43.04944 | 90° | 104km/h | 7876m | 5.9m/s | -19.9°C | 40.3% | 382.3hPa | 0V | 00:00:00 | 00:00:00 | 00:00:00 | |
| PU1XMG-16 | 2026-09-05 11:56:27 | -22.79347 | -43.05115 | 85° | 104km/h | 7841m | 7.2m/s | -19.8°C | 33.2% | 384.0hPa | 0V | 00:00:00 | 00:00:00 | 00:00:00 | |
| PU1XMG-16 | 2026-09-05 11:56:22 | -22.79361 | -43.05251 | 86° | 95km/h | 7811m | 5.0m/s | -19.8°C | 28.4% | 385.5hPa | 0V | 00:00:00 | 00:00:00 | 00:00:00 | |
| PU1XMG-16 | 2026-09-05 11:56:17 | -22.79370 | -43.05379 | 87° | 93km/h | 7782m | 5.8m/s | -19.7°C | 35.5% | 387.1hPa | 0V | 00:00:00 | 00:00:00 | 00:00:00 | |
| PU1XMG-16 | 2026-09-05 11:56:11 | -22.79377 | -43.05535 | 89° | 95km/h | 7751m | 2.2m/s | -19.6°C | 35.6% | 388.8hPa | 0V | 00:00:00 | 00:00:00 | 00:00:00 | |
| PU1XMG-16 | 2026-09-05 11:56:06 | -22.79380 | -43.05661 | 90° | 89km/h | 7726m | 6.0m/s | -19.5°C | 35.4% | 390.1hPa | 0V | 00:00:00 | 00:00:00 | 00:00:00 | |
| PU1XMG-16 | 2026-09-05 11:56:00 | -22.79386 | -43.05807 | 88° | 88km/h | 7693m | 5.3m/s | -19.3°C | 42.1% | 391.8hPa | 0V | 00:00:00 | 00:00:00 | 00:00:00 | |
| PU1XMG-16 | 2026-09-05 11:55:55 | -22.79395 | -43.05950 | 88° | 88km/h | 7661m | 5.4m/s | -19.1°C | 43.4% | 393.6hPa | 0V | 00:00:00 | 00:00:00 | 00:00:00 | |
| PU1XMG-16 | 2026-09-05 11:55:48 | -22.79402 | -43.06097 | 88° | 89km/h | 7630m | 5.4m/s | -18.9°C | 46.8% | 395.3hPa | 0V | 00:00:00 | 00:00:00 | 00:00:00 | |
| PU1XMG-16 | 2026-09-05 11:55:43 | -22.79404 | -43.06216 | 92° | 86km/h | 7600m | 7.0m/s | -18.7°C | 47.3% | 396.8hPa | 0V | 00:00:00 | 00:00:00 | 00:00:00 | |
| PU1XMG-16 | 2026-09-05 11:55:38 | -22.79402 | -43.06360 | 89° | 86km/h | 7563m | 6.0m/s | -18.4°C | 48.4% | 398.7hPa | 0V | 00:00:00 | 00:00:00 | 00:00:00 | |
| PU1XMG-16 | 2026-09-05 11:55:32 | -22.79410 | -43.06492 | 88° | 78km/h | 7530m | 7.9m/s | -18.1°C | 48.3% | 400.4hPa | 0V | 00:00:00 | 00:00:00 | 00:00:00 | |
| PU1XMG-16 | 2026-09-05 11:55:26 | -22.79416 | -43.06607 | 88° | 84km/h | 7502m | 5.0m/s | -17.9°C | 49.5% | 402.1hPa | 0V | 00:00:00 | 00:00:00 | 00:00:00 | |
| PU1XMG-16 | 2026-09-05 11:55:20 | -22.79419 | -43.06741 | 88° | 80km/h | 7471m | 6.2m/s | -17.7°C | 50.3% | 403.7hPa | 0V | 00:00:00 | 00:00:00 | 00:00:00 | |
| PU1XMG-16 | 2026-09-05 11:55:16 | -22.79426 | -43.06851 | 87° | 78km/h | 7442m | 7.5m/s | -17.6°C | 52.7% | 405.2hPa | 0V | 00:00:00 | 00:00:00 | 00:00:00 | |
| PU1XMG-16 | 2026-09-05 11:55:10 | -22.79439 | -43.06971 | 84° | 71km/h | 7408m | 6.0m/s | -17.3°C | 52.6% | 407.0hPa | 0V | 00:00:00 | 00:00:00 | 00:00:00 | |
| PU1XMG-16 | 2026-09-05 11:55:04 | -22.79455 | -43.07087 | 82° | 73km/h | 7378m | 6.0m/s | -17.2°C | 53.2% | 408.6hPa | 0V | 00:00:00 | 00:00:00 | 00:00:00 | |
| PU1XMG-16 | 2026-09-05 11:54:58 | -22.79471 | -43.07187 | 81° | 73km/h | 7351m | 5.2m/s | -17.1°C | 55.1% | 410.2hPa | 0V | 00:00:00 | 00:00:00 | 00:00:00 | |
| PU1XMG-16 | 2026-09-05 11:54:52 | -22.79490 | -43.07301 | 81° | 68km/h | 7320m | 5.8m/s | -16.9°C | 55.3% | 411.8hPa | 0V | 00:00:00 | 00:00:00 | 00:00:00 | |
| PU1XMG-16 | 2026-09-05 11:54:46 | -22.79508 | -43.07413 | 80° | 71km/h | 7291m | 5.5m/s | -16.7°C | 53.3% | 413.4hPa | 0V | 00:00:00 | 00:00:00 | 00:00:00 | |
| PU1XMG-16 | 2026-09-05 11:54:40 | -22.79536 | -43.07525 | 74° | 71km/h | 7257m | 5.5m/s | -16.5°C | 52.4% | 415.4hPa | 0V | 00:00:00 | 00:00:00 | 00:00:00 | |
| PU1XMG-16 | 2026-09-05 11:54:35 | -22.79560 | -43.07617 | 75° | 68km/h | 7232m | 4.5m/s | -16.5°C | 54.0% | 416.8hPa | 0V | 00:00:00 | 00:00:00 | 00:00:00 | |
| PU1XMG-16 | 2026-09-05 11:54:29 | -22.79595 | -43.07723 | 70° | 71km/h | 7201m | 4.6m/s | -16.2°C | 50.8% | 418.4hPa | 0V | 00:00:00 | 00:00:00 | 00:00:00 | |
| PU1XMG-16 | 2026-09-05 11:54:23 | -22.79630 | -43.07837 | 76° | 73km/h | 7171m | 2.5m/s | -16.0°C | 46.6% | 420.1hPa | 0V | 00:00:00 | 00:00:00 | 00:00:00 | |
| PU1XMG-16 | 2026-09-05 11:54:18 | -22.79648 | -43.07932 | 81° | 68km/h | 7147m | 5.9m/s | -15.9°C | 39.3% | 421.5hPa | 0V | 00:00:00 | 00:00:00 | 00:00:00 | |
| PU1XMG-16 | 2026-09-05 11:54:12 | -22.79670 | -43.08038 | 75° | 68km/h | 7119m | 6.8m/s | -15.7°C | 35.1% | 423.1hPa | 0V | 00:00:00 | 00:00:00 | 00:00:00 | |
| PU1XMG-16 | 2026-09-05 11:54:06 | -22.79704 | -43.08143 | 74° | 69km/h | 7087m | 3.3m/s | -15.5°C | 31.6% | 424.8hPa | 0V | 00:00:00 | 00:00:00 | 00:00:00 | |
| PU1XMG-16 | 2026-09-05 11:54:01 | -22.79727 | -43.08231 | 75° | 62km/h | 7062m | 4.2m/s | -15.3°C | 25.2% | 426.3hPa | 0V | 00:00:00 | 00:00:00 | 00:00:00 | |
| PU1XMG-16 | 2026-09-05 11:53:55 | -22.79756 | -43.08336 | 72° | 66km/h | 7028m | 5.1m/s | -15.1°C | 23.6% | 428.2hPa | 0V | 00:00:00 | 00:00:00 | 00:00:00 | |
| PU1XMG-16 | 2026-09-05 11:53:49 | -22.79784 | -43.08435 | 72° | 60km/h | 7001m | 4.4m/s | -14.8°C | 21.3% | 429.8hPa | 0V | 00:00:00 | 00:00:00 | 00:00:00 | |
| PU1XMG-16 | 2026-09-05 11:53:43 | -22.79821 | -43.08527 | 66° | 60km/h | 6975m | 5.2m/s | -14.6°C | 19.9% | 431.3hPa | 0V | 00:00:00 | 00:00:00 | 00:00:00 | |
| PU1XMG-16 | 2026-09-05 11:53:37 | -22.79868 | -43.08626 | 68° | 71km/h | 6943m | 6.0m/s | -14.4°C | 18.2% | 432.9hPa | 0V | 00:00:00 | 00:00:00 | 00:00:00 | |
| PU1XMG-16 | 2026-09-05 11:53:31 | -22.79908 | -43.08726 | 66° | 68km/h | 6907m | 6.9m/s | -14.2°C | 16.2% | 435.1hPa | 0V | 00:00:00 | 00:00:00 | 00:00:00 | |
| PU1XMG-16 | 2026-09-05 11:53:25 | -22.79955 | -43.08825 | 63° | 66km/h | 6875m | 4.7m/s | -14.1°C | 15.9% | 437.0hPa | 0V | 00:00:00 | 00:00:00 | 00:00:00 | |
| PU1XMG-16 | 2026-09-05 11:53:19 | -22.80012 | -43.08919 | 56° | 68km/h | 6842m | 4.2m/s | -13.9°C | 14.4% | 438.8hPa | 0V | 00:00:00 | 00:00:00 | 00:00:00 | |
| PU1XMG-16 | 2026-09-05 11:53:07 | -22.80125 | -43.09089 | 53° | 64km/h | 6788m | 3.5m/s | -13.5°C | 13.3% | 442.0hPa | 0V | 00:00:00 | 00:00:00 | 00:00:00 | |
| PU1XMG-16 | 2026-09-05 11:53:02 | -22.80187 | -43.09179 | 59° | 69km/h | 6758m | 5.2m/s | -13.2°C | 13.1% | 443.6hPa | 0V | 00:00:00 | 00:00:00 | 00:00:00 | |
| PU1XMG-16 | 2026-09-05 11:52:56 | -22.80247 | -43.09276 | 53° | 71km/h | 6734m | 4.6m/s | -13.0°C | 13.1% | 445.2hPa | 0V | 00:00:00 | 00:00:00 | 00:00:00 | |
| PU1XMG-16 | 2026-09-05 11:52:49 | -22.80315 | -43.09367 | 54° | 73km/h | 6705m | 5.6m/s | -13.1°C | 14.2% | 446.6hPa | 0V | 00:00:00 | 00:00:00 | 00:00:00 | |
| PU1XMG-16 | 2026-09-05 11:52:44 | -22.80369 | -43.09448 | 55° | 71km/h | 6686m | 4.2m/s | -13.0°C | 18.2% | 447.9hPa | 0V | 00:00:00 | 00:00:00 | 00:00:00 | |
| PU1XMG-16 | 2026-09-05 11:52:39 | -22.80438 | -43.09536 | 51° | 71km/h | 6658m | 5.6m/s | -12.8°C | 20.0% | 449.5hPa | 0V | 00:00:00 | 00:00:00 | 00:00:00 | |
| PU1XMG-16 | 2026-09-05 11:52:33 | -22.80503 | -43.09640 | 53° | 80km/h | 6628m | 6.4m/s | -12.5°C | 22.3% | 451.3hPa | 0V | 00:00:00 | 00:00:00 | 00:00:00 | |
| PU1XMG-16 | 2026-09-05 11:52:27 | -22.80565 | -43.09712 | 55° | 68km/h | 6600m | 7.7m/s | -12.3°C | 24.0% | 452.8hPa | 0V | 00:00:00 | 00:00:00 | 00:00:00 | |
| PU1XMG-16 | 2026-09-05 11:52:22 | -22.80610 | -43.09804 | 57° | 82km/h | 6571m | 1.5m/s | -12.0°C | 24.7% | 454.7hPa | 0V | 00:00:00 | 00:00:00 | 00:00:00 | |
| PU1XMG-16 | 2026-09-05 11:52:16 | -22.80675 | -43.09898 | 61° | 62km/h | 6539m | 7.3m/s | -11.9°C | 33.7% | 456.5hPa | 0V | 00:00:00 | 00:00:00 | 00:00:00 | |
| PU1XMG-16 | 2026-09-05 11:52:11 | -22.80717 | -43.09981 | 63° | 71km/h | 6512m | 4.0m/s | -11.9°C | 41.4% | 458.1hPa | 0V | 00:00:00 | 00:00:00 | 00:00:00 | |
| PU1XMG-16 | 2026-09-05 11:52:05 | -22.80770 | -43.10085 | 62° | 78km/h | 6484m | 4.3m/s | -11.9°C | 36.3% | 459.7hPa | 0V | 00:00:00 | 00:00:00 | 00:00:00 | |
| PU1XMG-16 | 2026-09-05 11:51:53 | -22.80894 | -43.10336 | 57° | 75km/h | 6429m | 3.7m/s | -11.6°C | 19.4% | 462.9hPa | 0V | 00:00:00 | 00:00:00 | 00:00:00 | |
| PU1XMG-16 | 2026-09-05 11:51:47 | -22.80945 | -43.10417 | 60° | 69km/h | 6408m | 2.3m/s | -11.5°C | 19.4% | 464.3hPa | 0V | 00:00:00 | 00:00:00 | 00:00:00 | |
| PU1XMG-16 | 2026-09-05 11:51:42 | -22.80992 | -43.10512 | 66° | 64km/h | 6380m | 4.0m/s | -11.3°C | 19.3% | 466.0hPa | 0V | 00:00:00 | 00:00:00 | 00:00:00 | |
| PU1XMG-16 | 2026-09-05 11:51:35 | -22.81038 | -43.10608 | 63° | 68km/h | 6354m | 5.9m/s | -11.1°C | 19.5% | 467.6hPa | 0V | 00:00:00 | 00:00:00 | 00:00:00 | |
| PU1XMG-16 | 2026-09-05 11:51:30 | -22.81080 | -43.10687 | 62° | 66km/h | 6331m | 5.0m/s | -10.9°C | 19.6% | 469.0hPa | 0V | 00:00:00 | 00:00:00 | 00:00:00 | |
| PU1XMG-16 | 2026-09-05 11:51:24 | -22.81125 | -43.10781 | 65° | 64km/h | 6305m | 2.7m/s | -10.7°C | 22.4% | 470.6hPa | 0V | 00:00:00 | 00:00:00 | 00:00:00 | |
| PU1XMG-16 | 2026-09-05 11:51:18 | -22.81171 | -43.10876 | 63° | 71km/h | 6280m | 5.1m/s | -10.6°C | 25.6% | 472.1hPa | 0V | 00:00:00 | 00:00:00 | 00:00:00 | |
| PU1XMG-16 | 2026-09-05 11:51:13 | -22.81225 | -43.10979 | 59° | 68km/h | 6252m | 3.7m/s | -10.3°C | 24.6% | 473.8hPa | 0V | 00:00:00 | 00:00:00 | 00:00:00 | |
| PU1XMG-16 | 2026-09-05 11:51:07 | -22.81270 | -43.11057 | 59° | 69km/h | 6228m | 4.6m/s | -10.2°C | 23.7% | 475.3hPa | 0V | 00:00:00 | 00:00:00 | 00:00:00 | |
| PU1XMG-16 | 2026-09-05 11:51:01 | -22.81329 | -43.11161 | 59° | 78km/h | 6198m | 4.6m/s | -10.1°C | 27.2% | 477.0hPa | 0V | 00:00:00 | 00:00:00 | 00:00:00 | |
| PU1XMG-16 | 2026-09-05 11:50:55 | -22.81388 | -43.11264 | 61° | 71km/h | 6176m | 4.4m/s | -10.0°C | 34.1% | 478.4hPa | 0V | 00:00:00 | 00:00:00 | 00:00:00 | |
| PU1XMG-16 | 2026-09-05 11:50:50 | -22.81445 | -43.11365 | 58° | 71km/h | 6151m | 3.9m/s | -9.9°C | 42.1% | 480.0hPa | 0V | 00:00:00 | 00:00:00 | 00:00:00 | |
| PU1XMG-16 | 2026-09-05 11:50:44 | -22.81488 | -43.11445 | 66° | 68km/h | 6131m | 3.8m/s | -9.7°C | 41.3% | 481.4hPa | 0V | 00:00:00 | 00:00:00 | 00:00:00 | |
| PU1XMG-16 | 2026-09-05 11:50:39 | -22.81534 | -43.11553 | 66° | 73km/h | 6106m | 6.0m/s | -9.6°C | 47.1% | 482.9hPa | 0V | 00:00:00 | 00:00:00 | 00:00:00 | |
| PU1XMG-16 | 2026-09-05 11:50:32 | -22.81579 | -43.11661 | 67° | 73km/h | 6080m | 5.7m/s | -9.5°C | 50.4% | 484.6hPa | 0V | 00:00:00 | 00:00:00 | 00:00:00 | |
| PU1XMG-16 | 2026-09-05 11:50:26 | -22.81625 | -43.11776 | 66° | 77km/h | 6050m | 5.3m/s | -9.2°C | 34.4% | 486.5hPa | 0V | 00:00:00 | 00:00:00 | 00:00:00 | |
| PU1XMG-16 | 2026-09-05 11:50:21 | -22.81669 | -43.11872 | 61° | 80km/h | 6027m | 3.3m/s | -9.0°C | 27.5% | 487.9hPa | 0V | 00:00:00 | 00:00:00 | 00:00:00 | |
| PU1XMG-16 | 2026-09-05 11:50:16 | -22.81719 | -43.11962 | 62° | 71km/h | 6001m | 4.1m/s | -8.7°C | 24.9% | 489.5hPa | 0V | 00:00:00 | 00:00:00 | 00:00:00 | |
| PU1XMG-16 | 2026-09-05 11:50:10 | -22.81767 | -43.12061 | 65° | 69km/h | 5973m | 5.6m/s | -8.5°C | 22.8% | 491.2hPa | 0V | 00:00:00 | 00:00:00 | 00:00:00 | |
| PU1XMG-16 | 2026-09-05 11:50:05 | -22.81803 | -43.12146 | 66° | 66km/h | 5950m | 5.8m/s | -8.3°C | 20.8% | 492.7hPa | 0V | 00:00:00 | 00:00:00 | 00:00:00 | |
| PU1XMG-16 | 2026-09-05 11:49:59 | -22.81851 | -43.12249 | 62° | 73km/h | 5922m | 3.0m/s | -8.1°C | 18.4% | 494.4hPa | 0V | 00:00:00 | 00:00:00 | 00:00:00 | |
| PU1XMG-16 | 2026-09-05 11:49:54 | -22.81896 | -43.12336 | 66° | 71km/h | 5899m | 3.8m/s | -7.9°C | 17.0% | 496.0hPa | 0V | 00:00:00 | 00:00:00 | 00:00:00 | |
| PU1XMG-16 | 2026-09-05 11:49:48 | -22.81942 | -43.12449 | 66° | 75km/h | 5869m | 4.5m/s | -7.7°C | 15.3% | 497.8hPa | 0V | 00:00:00 | 00:00:00 | 00:00:00 | |
| PU1XMG-16 | 2026-09-05 11:49:43 | -22.81984 | -43.12537 | 64° | 71km/h | 5845m | 4.5m/s | -7.5°C | 14.9% | 499.4hPa | 0V | 00:00:00 | 00:00:00 | 00:00:00 | |
| PU1XMG-16 | 2026-09-05 11:49:37 | -22.82038 | -43.12640 | 62° | 71km/h | 5818m | 3.0m/s | -7.5°C | 19.3% | 501.2hPa | 0V | 00:00:00 | 00:00:00 | 00:00:00 | |
| PU1XMG-16 | 2026-09-05 11:49:31 | -22.82086 | -43.12738 | 67° | 68km/h | 5794m | 3.7m/s | -7.6°C | 34.0% | 502.8hPa | 0V | 00:00:00 | 00:00:00 | 00:00:00 | |
| PU1XMG-16 | 2026-09-05 11:49:25 | -22.82128 | -43.12848 | 66° | 78km/h | 5765m | 5.8m/s | -7.4°C | 37.0% | 504.6hPa | 0V | 00:00:00 | 00:00:00 | 00:00:00 | |
| PU1XMG-16 | 2026-09-05 11:49:19 | -22.82187 | -43.12963 | 64° | 77km/h | 5731m | 5.6m/s | -7.2°C | 22.3% | 506.8hPa | 0V | 00:00:00 | 00:00:00 | 00:00:00 | |
| PU1XMG-16 | 2026-09-05 11:49:13 | -22.82235 | -43.13084 | 72° | 84km/h | 5698m | 4.5m/s | -7.1°C | 23.7% | 508.9hPa | 0V | 00:00:00 | 00:00:00 | 00:00:00 | |
| PU1XMG-16 | 2026-09-05 11:49:07 | -22.82282 | -43.13210 | 66° | 80km/h | 5672m | 4.1m/s | -7.0°C | 26.6% | 510.7hPa | 0V | 00:00:00 | 00:00:00 | 00:00:00 | |
| PU1XMG-16 | 2026-09-05 11:49:02 | -22.82324 | -43.13312 | 69° | 84km/h | 5646m | 5.5m/s | -6.9°C | 27.2% | 512.2hPa | 0V | 00:00:00 | 00:00:00 | 00:00:00 | |
| PU1XMG-16 | 2026-09-05 11:48:56 | -22.82371 | -43.13438 | 69° | 80km/h | 5617m | 3.4m/s | -6.7°C | 28.3% | 514.1hPa | 0V | 00:00:00 | 00:00:00 | 00:00:00 | |
| PU1XMG-16 | 2026-09-05 11:48:51 | -22.82408 | -43.13545 | 72° | 88km/h | 5594m | 3.9m/s | -6.5°C | 28.2% | 515.7hPa | 0V | 00:00:00 | 00:00:00 | 00:00:00 | |
| PU1XMG-16 | 2026-09-05 11:48:45 | -22.82441 | -43.13686 | 73° | 82km/h | 5567m | 5.2m/s | -6.2°C | 28.3% | 517.4hPa | 0V | 00:00:00 | 00:00:00 | 00:00:00 | |
| PU1XMG-16 | 2026-09-05 11:48:39 | -22.82483 | -43.13814 | 72° | 82km/h | 5519m | 5.4m/s | -5.9°C | 26.8% | 520.6hPa | 0V | 00:00:00 | 00:00:00 | 00:00:00 | |
| PU1XMG-16 | 2026-09-05 11:48:27 | -22.82560 | -43.14057 | 71° | 75km/h | 5464m | 5.3m/s | -5.6°C | 14.2% | 524.3hPa | 0V | 00:00:00 | 00:00:00 | 00:00:00 | |
| PU1XMG-16 | 2026-09-05 11:48:21 | -22.82608 | -43.14184 | 69° | 89km/h | 5432m | 3.2m/s | -5.4°C | 15.4% | 526.4hPa | 0V | 00:00:00 | 00:00:00 | 00:00:00 | |
| PU1XMG-16 | 2026-09-05 11:48:16 | -22.82647 | -43.14297 | 69° | 86km/h | 5407m | 5.0m/s | -5.3°C | 21.7% | 528.1hPa | 0V | 00:00:00 | 00:00:00 | 00:00:00 | |
| PU1XMG-16 | 2026-09-05 11:48:10 | -22.82692 | -43.14425 | 70° | 84km/h | 5377m | 4.5m/s | -5.3°C | 34.7% | 530.2hPa | 0V | 00:00:00 | 00:00:00 | 00:00:00 | |
| PU1XMG-16 | 2026-09-05 11:48:04 | -22.82747 | -43.14556 | 65° | 88km/h | 5347m | 6.1m/s | -5.5°C | 35.3% | 532.1hPa | 0V | 00:00:00 | 00:00:00 | 00:00:00 | |
| PU1XMG-16 | 2026-09-05 11:47:59 | -22.82790 | -43.14667 | 72° | 86km/h | 5323m | 4.9m/s | -5.6°C | 41.5% | 533.9hPa | 0V | 00:00:00 | 00:00:00 | 00:00:00 | |
| PU1XMG-16 | 2026-09-05 11:47:54 | -22.82837 | -43.14795 | 67° | 82km/h | 5293m | 4.2m/s | -5.7°C | 56.1% | 535.9hPa | 0V | 00:00:00 | 00:00:00 | 00:00:00 | |
| PU1XMG-16 | 2026-09-05 11:47:48 | -22.82884 | -43.14902 | 65° | 91km/h | 5266m | 6.1m/s | -5.7°C | 68.6% | 537.5hPa | 0V | 00:00:00 | 00:00:00 | 00:00:00 | |
| PU1XMG-16 | 2026-09-05 11:47:43 | -22.82926 | -43.15016 | 70° | 89km/h | 5238m | 5.9m/s | -5.7°C | 76.3% | 539.5hPa | 0V | 00:00:00 | 00:00:00 | 00:00:00 | |
| PU1XMG-16 | 2026-09-05 11:47:38 | -22.82975 | -43.15152 | 68° | 93km/h | 5207m | 5.2m/s | -5.4°C | 63.8% | 541.8hPa | 0V | 00:00:00 | 00:00:00 | 00:00:00 | |
| PU1XMG-16 | 2026-09-05 11:47:31 | -22.83030 | -43.15290 | 67° | 88km/h | 5176m | 6.7m/s | -5.1°C | 45.0% | 543.8hPa | 0V | 00:00:00 | 00:00:00 | 00:00:00 | |
| PU1XMG-16 | 2026-09-05 11:47:25 | -22.83081 | -43.15416 | 67° | 82km/h | 5146m | 3.9m/s | -5.2°C | 68.5% | 545.9hPa | 0V | 00:00:00 | 00:00:00 | 00:00:00 | |
| PU1XMG-16 | 2026-09-05 11:47:11 | -22.83192 | -43.15744 | 77° | 93km/h | 5070m | 5.2m/s | -5.1°C | 83.9% | 551.0hPa | 0V | 00:00:00 | 00:00:00 | 00:00:00 | |
| PU1XMG-16 | 2026-09-05 11:47:05 | -22.83222 | -43.15860 | 72° | 82km/h | 5046m | 3.7m/s | -4.9°C | 82.9% | 552.7hPa | 0V | 00:00:00 | 00:00:00 | 00:00:00 | |
| PU1XMG-16 | 2026-09-05 11:46:59 | -22.83260 | -43.15980 | 77° | 75km/h | 5016m | 5.3m/s | -4.7°C | 80.8% | 554.8hPa | 0V | 00:00:00 | 00:00:00 | 00:00:00 | |
| PU1XMG-16 | 2026-09-05 11:46:53 | -22.83290 | -43.16112 | 81° | 84km/h | 4981m | 8.2m/s | -4.4°C | 78.4% | 557.3hPa | 0V | 00:00:00 | 00:00:00 | 00:00:00 | |
| PU1XMG-16 | 2026-09-05 11:46:47 | -22.83325 | -43.16245 | 71° | 84km/h | 4949m | 6.1m/s | -4.1°C | 74.7% | 559.7hPa | 0V | 00:00:00 | 00:00:00 | 00:00:00 | |
| PU1XMG-16 | 2026-09-05 11:46:42 | -22.83354 | -43.16345 | 76° | 73km/h | 4923m | 6.6m/s | -4.0°C | 72.7% | 561.4hPa | 0V | 00:00:00 | 00:00:00 | 00:00:00 | |
| PU1XMG-16 | 2026-09-05 11:46:36 | -22.83387 | -43.16460 | 76° | 71km/h | 4889m | 5.6m/s | -3.8°C | 72.8% | 563.9hPa | 0V | 00:00:00 | 00:00:00 | 00:00:00 | |
| PU1XMG-16 | 2026-09-05 11:46:31 | -22.83417 | -43.16550 | 72° | 66km/h | 4865m | 6.0m/s | -3.6°C | 70.7% | 565.8hPa | 0V | 00:00:00 | 00:00:00 | 00:00:00 | |
| PU1XMG-16 | 2026-09-05 11:46:25 | -22.83451 | -43.16656 | 72° | 66km/h | 4832m | 4.8m/s | -3.4°C | 72.6% | 568.2hPa | 0V | 00:00:00 | 00:00:00 | 00:00:00 | |
| PU1XMG-16 | 2026-09-05 11:46:19 | -22.83482 | -43.16779 | 78° | 73km/h | 4799m | 6.2m/s | -3.1°C | 69.7% | 570.2hPa | 0V | 00:00:00 | 00:00:00 | 00:00:00 | |
| PU1XMG-16 | 2026-09-05 11:46:14 | -22.83509 | -43.16878 | 69° | 73km/h | 4773m | 4.8m/s | -2.8°C | 65.8% | 572.6hPa | 0V | 00:00:00 | 00:00:00 | 00:00:00 | |
| PU1XMG-16 | 2026-09-05 11:46:08 | -22.83539 | -43.16971 | 74° | 69km/h | 4744m | 4.1m/s | -2.5°C | 63.0% | 574.7hPa | 0V | 00:00:00 | 00:00:00 | 00:00:00 | |
| PU1XMG-16 | 2026-09-05 11:46:03 | -22.83561 | -43.17059 | 77° | 66km/h | 4720m | 4.9m/s | -2.4°C | 61.2% | 576.6hPa | 0V | 00:00:00 | 00:00:00 | 00:00:00 | |
| PU1XMG-16 | 2026-09-05 11:45:58 | -22.83593 | -43.17166 | 74° | 69km/h | 4689m | 3.6m/s | -2.2°C | 63.5% | 578.5hPa | 0V | 00:00:00 | 00:00:00 | 00:00:00 | |
| PU1XMG-16 | 2026-09-05 11:45:51 | -22.83625 | -43.17267 | 68° | 66km/h | 4662m | 6.0m/s | -2.1°C | 65.4% | 580.3hPa | 0V | 00:00:00 | 00:00:00 | 00:00:00 | |
| PU1XMG-16 | 2026-09-05 11:45:46 | -22.83655 | -43.17364 | 77° | 77km/h | 4636m | 6.7m/s | -1.9°C | 64.1% | 582.2hPa | 0V | 00:00:00 | 00:00:00 | 00:00:00 | |
| PU1XMG-16 | 2026-09-05 11:45:40 | -22.83682 | -43.17482 | 78° | 71km/h | 4603m | 5.5m/s | -1.6°C | 62.1% | 584.6hPa | 0V | 00:00:00 | 00:00:00 | 00:00:00 | |
| PU1XMG-16 | 2026-09-05 11:45:35 | -22.83705 | -43.17578 | 77° | 71km/h | 4575m | 4.3m/s | -1.4°C | 61.1% | 586.6hPa | 0V | 00:00:00 | 00:00:00 | 00:00:00 | |
| PU1XMG-16 | 2026-09-05 11:45:29 | -22.83728 | -43.17691 | 78° | 69km/h | 4544m | 4.4m/s | -1.1°C | 60.0% | 588.9hPa | 0V | 00:00:00 | 00:00:00 | 00:00:00 | |
| PU1XMG-16 | 2026-09-05 11:45:23 | -22.83754 | -43.17801 | 77° | 68km/h | 4517m | 5.6m/s | -0.9°C | 59.6% | 590.9hPa | 0V | 00:00:00 | 00:00:00 | 00:00:00 | |
| PU1XMG-16 | 2026-09-05 11:45:18 | -22.83771 | -43.17893 | 83° | 69km/h | 4492m | 5.8m/s | -0.6°C | 59.1% | 592.9hPa | 0V | 00:00:00 | 00:00:00 | 00:00:00 | |
| PU1XMG-16 | 2026-09-05 11:45:12 | -22.83781 | -43.18005 | 88° | 71km/h | 4463m | 4.4m/s | -0.4°C | 59.2% | 595.3hPa | 0V | 00:00:00 | 00:00:00 | 00:00:00 | |
| PU1XMG-16 | 2026-09-05 11:45:06 | -22.83793 | -43.18118 | 83° | 66km/h | 4435m | 4.8m/s | -0.3°C | 61.5% | 597.2hPa | 0V | 00:00:00 | 00:00:00 | 00:00:00 | |
| PU1XMG-16 | 2026-09-05 11:45:01 | -22.83814 | -43.18208 | 73° | 73km/h | 4411m | 7.3m/s | -0.1°C | 60.8% | 599.0hPa | 0V | 00:00:00 | 00:00:00 | 00:00:00 | |
| PU1XMG-16 | 2026-09-05 11:44:56 | -22.83836 | -43.18300 | 80° | 66km/h | 4383m | 6.7m/s | 0.1°C | 62.3% | 600.7hPa | 0V | 00:00:00 | 00:00:00 | 00:00:00 | |
| PU1XMG-16 | 2026-09-05 11:44:51 | -22.83851 | -43.18386 | 82° | 62km/h | 4356m | 2.5m/s | 0.3°C | 63.5% | 603.0hPa | 0V | 00:00:00 | 00:00:00 | 00:00:00 | |
| PU1XMG-16 | 2026-09-05 11:44:45 | -22.83864 | -43.18491 | 85° | 68km/h | 4328m | 5.4m/s | 0.4°C | 64.5% | 605.0hPa | 0V | 00:00:00 | 00:00:00 | 00:00:00 | |
| PU1XMG-16 | 2026-09-05 11:44:39 | -22.83879 | -43.18600 | 80° | 62km/h | 4300m | 4.8m/s | 0.4°C | 73.3% | 607.1hPa | 0V | 00:00:00 | 00:00:00 | 00:00:00 | |
| PU1XMG-16 | 2026-09-05 11:44:34 | -22.83890 | -43.18685 | 83° | 68km/h | 4276m | 3.7m/s | 0.5°C | 75.8% | 608.9hPa | 0V | 00:00:00 | 00:00:00 | 00:00:00 | |
| PU1XMG-16 | 2026-09-05 11:44:28 | -22.83908 | -43.18797 | 80° | 69km/h | 4250m | 5.5m/s | 0.7°C | 73.7% | 611.1hPa | 0V | 00:00:00 | 00:00:00 | 00:00:00 | |
| PU1XMG-16 | 2026-09-05 11:44:23 | -22.83922 | -43.18892 | 84° | 75km/h | 4225m | 5.2m/s | 0.9°C | 71.3% | 612.7hPa | 0V | 00:00:00 | 00:00:00 | 00:00:00 | |
| PU1XMG-16 | 2026-09-05 11:44:18 | -22.83934 | -43.18991 | 82° | 69km/h | 4201m | 5.2m/s | 1.1°C | 70.0% | 614.6hPa | 0V | 00:00:00 | 00:00:00 | 00:00:00 | |
| PU1XMG-16 | 2026-09-05 11:44:13 | -22.83958 | -43.19080 | 75° | 64km/h | 4171m | 5.5m/s | 1.4°C | 68.1% | 617.1hPa | 0V | 00:00:00 | 00:00:00 | 00:00:00 | |
| PU1XMG-16 | 2026-09-05 11:44:08 | -22.83982 | -43.19165 | 77° | 66km/h | 4138m | 6.7m/s | 1.6°C | 67.3% | 619.4hPa | 0V | 00:00:00 | 00:00:00 | 00:00:00 | |
| PU1XMG-16 | 2026-09-05 11:44:02 | -22.84002 | -43.19271 | 80° | 66km/h | 4106m | 5.5m/s | 1.9°C | 68.3% | 622.0hPa | 0V | 00:00:00 | 00:00:00 | 00:00:00 | |
| PU1XMG-16 | 2026-09-05 11:43:58 | -22.84024 | -43.19362 | 70° | 68km/h | 4083m | 4.3m/s | 2.0°C | 71.3% | 623.8hPa | 0V | 00:00:00 | 00:00:00 | 00:00:00 | |
| PU1XMG-16 | 2026-09-05 11:43:51 | -22.84061 | -43.19462 | 79° | 57km/h | 4055m | 6.4m/s | 2.1°C | 72.8% | 626.0hPa | 0V | 00:00:00 | 00:00:00 | 00:00:00 | |
| PU1XMG-16 | 2026-09-05 11:43:46 | -22.84073 | -43.19534 | 73° | 55km/h | 4030m | 6.5m/s | 2.3°C | 72.6% | 627.9hPa | 0V | 00:00:00 | 00:00:00 | 00:00:00 | |
| PU1XMG-16 | 2026-09-05 11:43:41 | -22.84097 | -43.19609 | 71° | 60km/h | 4000m | 6.3m/s | 2.5°C | 73.9% | 630.3hPa | 0V | 00:00:00 | 00:00:00 | 00:00:00 | |
| PU1XMG-16 | 2026-09-05 11:43:35 | -22.84133 | -43.19702 | 65° | 62km/h | 3965m | 5.6m/s | 2.7°C | 73.4% | 632.8hPa | 0V | 00:00:00 | 00:00:00 | 00:00:00 | |
| PU1XMG-16 | 2026-09-05 11:43:29 | -22.84169 | -43.19806 | 72° | 68km/h | 3936m | 3.0m/s | 3.0°C | 73.1% | 635.1hPa | 0V | 00:00:00 | 00:00:00 | 00:00:00 | |
| PU1XMG-16 | 2026-09-05 11:43:24 | -22.84199 | -43.19889 | 72° | 62km/h | 3911m | 3.6m/s | 3.2°C | 72.5% | 637.0hPa | 0V | 00:00:00 | 00:00:00 | 00:00:00 | |
| PU1XMG-16 | 2026-09-05 11:43:19 | -22.84220 | -43.19970 | 79° | 64km/h | 3887m | 3.1m/s | 3.4°C | 72.8% | 638.8hPa | 0V | 00:00:00 | 00:00:00 | 00:00:00 | |
| PU1XMG-16 | 2026-09-05 11:43:13 | -22.84236 | -43.20070 | 78° | 58km/h | 3859m | 3.9m/s | 3.6°C | 75.0% | 641.2hPa | 0V | 00:00:00 | 00:00:00 | 00:00:00 | |
| PU1XMG-16 | 2026-09-05 11:43:09 | -22.84271 | -43.20164 | 66° | 64km/h | 3829m | 6.4m/s | 3.7°C | 75.9% | 643.7hPa | 0V | 00:00:00 | 00:00:00 | 00:00:00 | |
| PU1XMG-16 | 2026-09-05 11:43:02 | -22.84294 | -43.20243 | 79° | 58km/h | 3800m | 6.9m/s | 3.9°C | 75.6% | 645.8hPa | 0V | 00:00:00 | 00:00:00 | 00:00:00 | |
| PU1XMG-16 | 2026-09-05 11:42:56 | -22.84311 | -43.20345 | 81° | 64km/h | 3767m | 5.1m/s | 4.2°C | 75.0% | 648.4hPa | 0V | 00:00:00 | 00:00:00 | 00:00:00 | |
| PU1XMG-16 | 2026-09-05 11:42:51 | -22.84334 | -43.20432 | 74° | 71km/h | 3741m | 2.7m/s | 4.5°C | 73.9% | 650.2hPa | 0V | 00:00:00 | 00:00:00 | 00:00:00 | |
| PU1XMG-16 | 2026-09-05 11:42:45 | -22.84366 | -43.20539 | 79° | 60km/h | 3715m | 6.8m/s | 4.7°C | 73.4% | 652.3hPa | 0V | 00:00:00 | 00:00:00 | 00:00:00 | |
| PU1XMG-16 | 2026-09-05 11:42:40 | -22.84380 | -43.20618 | 77° | 62km/h | 3682m | 9.7m/s | 5.0°C | 72.0% | 655.1hPa | 0V | 00:00:00 | 00:00:00 | 00:00:00 | |
| PU1XMG-16 | 2026-09-05 11:42:34 | -22.84405 | -43.20715 | 79° | 53km/h | 3648m | 5.9m/s | 5.3°C | 71.7% | 657.9hPa | 0V | 00:00:00 | 00:00:00 | 00:00:00 | |
| PU1XMG-16 | 2026-09-05 11:42:29 | -22.84423 | -43.20791 | 76° | 64km/h | 3619m | 4.6m/s | 5.5°C | 70.6% | 660.3hPa | 0V | 00:00:00 | 00:00:00 | 00:00:00 | |
| PU1XMG-16 | 2026-09-05 11:42:23 | -22.84446 | -43.20897 | 83° | 62km/h | 3592m | 5.2m/s | 5.7°C | 71.5% | 662.4hPa | 0V | 00:00:00 | 00:00:00 | 00:00:00 | |
| PU1XMG-16 | 2026-09-05 11:42:18 | -22.84462 | -43.20991 | 74° | 64km/h | 3557m | 5.4m/s | 6.0°C | 71.0% | 665.2hPa | 0V | 00:00:00 | 00:00:00 | 00:00:00 | |
| PU1XMG-16 | 2026-09-05 11:42:12 | -22.84477 | -43.21076 | 85° | 64km/h | 3533m | 7.8m/s | 6.1°C | 71.8% | 667.4hPa | 0V | 00:00:00 | 00:00:00 | 00:00:00 | |
| PU1XMG-16 | 2026-09-05 11:42:06 | -22.84474 | -43.21176 | 93° | 58km/h | 3500m | 2.7m/s | 6.3°C | 74.7% | 669.9hPa | 0V | 00:00:00 | 00:00:00 | 00:00:00 | |
| PU1XMG-16 | 2026-09-05 11:42:01 | -22.84482 | -43.21260 | 83° | 60km/h | 3473m | 6.8m/s | 6.4°C | 75.1% | 672.0hPa | 0V | 00:00:00 | 00:00:00 | 00:00:00 | |
| PU1XMG-16 | 2026-09-05 11:41:55 | -22.84484 | -43.21364 | 91° | 66km/h | 3439m | 5.8m/s | 6.5°C | 79.1% | 674.7hPa | 0V | 00:00:00 | 00:00:00 | 00:00:00 | |
| PU1XMG-16 | 2026-09-05 11:41:50 | -22.84493 | -43.21458 | 85° | 69km/h | 3414m | 5.2m/s | 6.6°C | 80.6% | 676.6hPa | 0V | 00:00:00 | 00:00:00 | 00:00:00 | |
| PU1XMG-16 | 2026-09-05 11:41:44 | -22.84499 | -43.21558 | 91° | 58km/h | 3380m | 3.4m/s | 6.8°C | 82.3% | 679.5hPa | 0V | 00:00:00 | 00:00:00 | 00:00:00 | |
| PU1XMG-16 | 2026-09-05 11:41:39 | -22.84507 | -43.21643 | 86° | 62km/h | 3354m | 6.1m/s | 6.9°C | 83.0% | 681.7hPa | 0V | 00:00:00 | 00:00:00 | 00:00:00 | |
| PU1XMG-16 | 2026-09-05 11:41:29 | -22.84519 | -43.21788 | 81° | 51km/h | 3294m | 6.3m/s | 7.1°C | 87.5% | 686.9hPa | 0V | 00:00:00 | 00:00:00 | 00:00:00 | |
| PU1XMG-16 | 2026-09-05 11:41:24 | -22.84520 | -43.21872 | 96° | 64km/h | 3267m | 6.0m/s | 7.3°C | 87.7% | 689.0hPa | 0V | 00:00:00 | 00:00:00 | 00:00:00 | |
| PU1XMG-16 | 2026-09-05 11:41:19 | -22.84505 | -43.21968 | 105° | 62km/h | 3234m | 5.6m/s | 7.6°C | 85.9% | 691.8hPa | 0V | 00:00:00 | 00:00:00 | 00:00:00 | |
| PU1XMG-16 | 2026-09-05 11:41:13 | -22.84489 | -43.22040 | 98° | 51km/h | 3210m | 8.9m/s | 7.8°C | 84.9% | 693.9hPa | 0V | 00:00:00 | 00:00:00 | 00:00:00 | |
| PU1XMG-16 | 2026-09-05 11:41:08 | -22.84478 | -43.22131 | 101° | 46km/h | 3167m | 5.5m/s | 8.2°C | 82.0% | 697.7hPa | 0V | 00:00:00 | 00:00:00 | 00:00:00 | |
| PU1XMG-16 | 2026-09-05 11:41:02 | -22.84466 | -43.22187 | 103° | 42km/h | 3135m | 7.8m/s | 8.5°C | 80.2% | 700.3hPa | 0V | 00:00:00 | 00:00:00 | 00:00:00 | |
| PU1XMG-16 | 2026-09-05 11:40:56 | -22.84458 | -43.22269 | 96° | 49km/h | 3099m | 5.0m/s | 8.9°C | 78.4% | 703.2hPa | 0V | 00:00:00 | 00:00:00 | 00:00:00 | |
| PU1XMG-16 | 2026-09-05 11:40:51 | -22.84447 | -43.22328 | 110° | 38km/h | 3071m | 7.1m/s | 9.1°C | 76.8% | 705.4hPa | 0V | 00:00:00 | 00:00:00 | 00:00:00 | |
| PU1XMG-16 | 2026-09-05 11:40:46 | -22.84433 | -43.22390 | 102° | 57km/h | 3043m | 5.5m/s | 9.4°C | 75.8% | 707.7hPa | 0V | 00:00:00 | 00:00:00 | 00:00:00 | |
| PU1XMG-16 | 2026-09-05 11:40:40 | -22.84421 | -43.22475 | 99° | 51km/h | 3013m | 4.5m/s | 9.6°C | 74.6% | 710.5hPa | 0V | 00:00:00 | 00:00:00 | 00:00:00 | |
| PU1XMG-16 | 2026-09-05 11:40:35 | -22.84407 | -43.22551 | 102° | 57km/h | 2987m | 3.6m/s | 9.8°C | 74.0% | 712.6hPa | 0V | 00:00:00 | 00:00:00 | 00:00:00 | |
| PU1XMG-16 | 2026-09-05 11:40:29 | -22.84394 | -43.22642 | 96° | 51km/h | 2957m | 6.5m/s | 10.1°C | 73.0% | 715.2hPa | 0V | 00:00:00 | 00:00:00 | 00:00:00 | |
| PU1XMG-16 | 2026-09-05 11:40:24 | -22.84383 | -43.22712 | 108° | 53km/h | 2932m | 5.6m/s | 10.3°C | 72.3% | 717.6hPa | 0V | 00:00:00 | 00:00:00 | 00:00:00 | |
| PU1XMG-16 | 2026-09-05 11:40:18 | -22.84354 | -43.22803 | 114° | 57km/h | 2896m | 5.3m/s | 10.7°C | 71.0% | 720.6hPa | 0V | 00:00:00 | 00:00:00 | 00:00:00 | |
| PU1XMG-16 | 2026-09-05 11:40:13 | -22.84327 | -43.22867 | 114° | 49km/h | 2875m | 4.3m/s | 10.8°C | 70.7% | 722.3hPa | 0V | 00:00:00 | 00:00:00 | 00:00:00 | |
| PU1XMG-16 | 2026-09-05 11:40:07 | -22.84293 | -43.22949 | 120° | 57km/h | 2844m | 5.7m/s | 11.1°C | 69.6% | 724.9hPa | 0V | 00:00:00 | 00:00:00 | 00:00:00 | |
| PU1XMG-16 | 2026-09-05 11:40:02 | -22.84264 | -43.23013 | 115° | 44km/h | 2817m | 5.2m/s | 11.3°C | 68.5% | 727.3hPa | 0V | 00:00:00 | 00:00:00 | 00:00:00 | |
| PU1XMG-16 | 2026-09-05 11:39:57 | -22.84242 | -43.23083 | 112° | 60km/h | 2792m | 6.4m/s | 11.5°C | 68.0% | 729.5hPa | 0V | 00:00:00 | 00:00:00 | 00:00:00 | |
| PU1XMG-16 | 2026-09-05 11:39:51 | -22.84213 | -43.23169 | 106° | 51km/h | 2755m | 3.4m/s | 11.7°C | 68.3% | 732.7hPa | 0V | 00:00:00 | 00:00:00 | 00:00:00 | |
| PU1XMG-16 | 2026-09-05 11:39:45 | -22.84191 | -43.23259 | 113° | 60km/h | 2726m | 5.3m/s | 11.9°C | 68.4% | 735.2hPa | 0V | 00:00:00 | 00:00:00 | 00:00:00 | |
| PU1XMG-16 | 2026-09-05 11:39:40 | -22.84158 | -43.23321 | 119° | 46km/h | 2687m | 7.0m/s | 12.1°C | 68.9% | 738.4hPa | 0V | 00:00:00 | 00:00:00 | 00:00:00 | |
| PU1XMG-16 | 2026-09-05 11:39:34 | -22.84118 | -43.23397 | 124° | 57km/h | 2654m | 8.1m/s | 12.5°C | 67.5% | 741.6hPa | 0V | 00:00:00 | 00:00:00 | 00:00:00 | |
| PU1XMG-16 | 2026-09-05 11:39:29 | -22.84078 | -43.23458 | 122° | 49km/h | 2622m | 5.7m/s | 12.7°C | 66.7% | 744.3hPa | 0V | 00:00:00 | 00:00:00 | 00:00:00 | |
| PU1XMG-16 | 2026-09-05 11:39:23 | -22.84036 | -43.23530 | 121° | 60km/h | 2587m | 7.6m/s | 12.9°C | 65.5% | 747.4hPa | 0V | 00:00:00 | 00:00:00 | 00:00:00 | |
| PU1XMG-16 | 2026-09-05 11:39:18 | -22.83990 | -43.23614 | 128° | 49km/h | 2548m | 6.0m/s | 13.2°C | 64.0% | 750.5hPa | 0V | 00:00:00 | 00:00:00 | 00:00:00 | |
| PU1XMG-16 | 2026-09-05 11:39:11 | -22.83934 | -43.23685 | 134° | 60km/h | 2515m | 6.0m/s | 13.5°C | 62.4% | 753.8hPa | 0V | 00:00:00 | 00:00:00 | 00:00:00 | |
| PU1XMG-16 | 2026-09-05 11:39:05 | -22.83881 | -43.23751 | 133° | 53km/h | 2484m | 3.6m/s | 13.8°C | 61.6% | 756.5hPa | 0V | 00:00:00 | 00:00:00 | 00:00:00 | |
| PU1XMG-16 | 2026-09-05 11:38:59 | -22.83835 | -43.23816 | 129° | 46km/h | 2448m | 6.7m/s | 14.1°C | 60.5% | 759.9hPa | 0V | 00:00:00 | 00:00:00 | 00:00:00 | |
| PU1XMG-16 | 2026-09-05 11:38:53 | -22.83792 | -43.23879 | 124° | 51km/h | 2418m | 5.9m/s | 14.3°C | 60.1% | 762.6hPa | 0V | 00:00:00 | 00:00:00 | 00:00:00 | |
| PU1XMG-16 | 2026-09-05 11:38:48 | -22.83753 | -43.23943 | 123° | 55km/h | 2398m | 4.6m/s | 14.4°C | 60.5% | 764.6hPa | 0V | 00:00:00 | 00:00:00 | 00:00:00 | |
| PU1XMG-16 | 2026-09-05 11:38:43 | -22.83712 | -43.23999 | 130° | 49km/h | 2370m | 7.9m/s | 14.5°C | 62.6% | 767.0hPa | 0V | 00:00:00 | 00:00:00 | 00:00:00 | |
| PU1XMG-16 | 2026-09-05 11:38:37 | -22.83664 | -43.24057 | 133° | 51km/h | 2337m | 7.0m/s | 14.7°C | 63.4% | 769.9hPa | 0V | 00:00:00 | 00:00:00 | 00:00:00 | |
| PU1XMG-16 | 2026-09-05 11:38:31 | -22.83614 | -43.24129 | 130° | 60km/h | 2307m | 6.0m/s | 14.9°C | 63.0% | 772.8hPa | 0V | 00:00:00 | 00:00:00 | 00:00:00 | |
| PU1XMG-16 | 2026-09-05 11:38:26 | -22.83566 | -43.24176 | 144° | 44km/h | 2281m | 4.4m/s | 15.1°C | 62.1% | 775.1hPa | 0V | 00:00:00 | 00:00:00 | 00:00:00 | |
| PU1XMG-16 | 2026-09-05 11:38:20 | -22.83508 | -43.24234 | 134° | 62km/h | 2248m | 6.3m/s | 15.4°C | 60.8% | 778.1hPa | 0V | 00:00:00 | 00:00:00 | 00:00:00 | |
| PU1XMG-16 | 2026-09-05 11:38:14 | -22.83447 | -43.24299 | 140° | 49km/h | 2212m | 5.0m/s | 15.7°C | 60.3% | 781.5hPa | 0V | 00:00:00 | 00:00:00 | 00:00:00 | |
| PU1XMG-16 | 2026-09-05 11:38:09 | -22.83408 | -43.24354 | 122° | 53km/h | 2183m | 6.1m/s | 15.9°C | 59.5% | 784.0hPa | 0V | 00:00:00 | 00:00:00 | 00:00:00 | |
| PU1XMG-16 | 2026-09-05 11:38:04 | -22.83370 | -43.24412 | 128° | 47km/h | 2156m | 7.6m/s | 16.2°C | 59.8% | 786.5hPa | 0V | 00:00:00 | 00:00:00 | 00:00:00 | |
| PU1XMG-16 | 2026-09-05 11:37:58 | -22.83317 | -43.24474 | 133° | 57km/h | 2116m | 8.6m/s | 16.4°C | 59.0% | 790.0hPa | 0V | 00:00:00 | 00:00:00 | 00:00:00 | |
| PU1XMG-16 | 2026-09-05 11:37:53 | -22.83270 | -43.24529 | 135° | 49km/h | 2085m | 5.6m/s | 16.7°C | 58.5% | 793.0hPa | 0V | 00:00:00 | 00:00:00 | 00:00:00 | |
| PU1XMG-16 | 2026-09-05 11:37:48 | -22.83227 | -43.24587 | 131° | 62km/h | 2058m | 3.0m/s | 16.9°C | 57.4% | 795.2hPa | 0V | 00:00:00 | 00:00:00 | 00:00:00 | |
| PU1XMG-16 | 2026-09-05 11:37:42 | -22.83178 | -43.24646 | 138° | 33km/h | 2030m | 4.0m/s | 17.1°C | 56.8% | 798.2hPa | 0V | 00:00:00 | 00:00:00 | 00:00:00 | |
| PU1XMG-16 | 2026-09-05 11:37:37 | -22.83143 | -43.24686 | 138° | 51km/h | 2006m | 7.4m/s | 17.3°C | 56.8% | 800.4hPa | 0V | 00:00:00 | 00:00:00 | 00:00:00 | |
| PU1XMG-16 | 2026-09-05 11:37:32 | -22.83095 | -43.24730 | 139° | 47km/h | 1980m | 3.9m/s | 17.4°C | 57.6% | 802.7hPa | 0V | 00:00:00 | 00:00:00 | 00:00:00 | |
| PU1XMG-16 | 2026-09-05 11:37:26 | -22.83047 | -43.24777 | 139° | 47km/h | 1952m | 2.8m/s | 17.5°C | 57.8% | 805.5hPa | 0V | 00:00:00 | 00:00:00 | 00:00:00 | |
| PU1XMG-16 | 2026-09-05 11:37:21 | -22.82993 | -43.24823 | 136° | 55km/h | 1927m | 5.1m/s | 17.6°C | 58.4% | 808.0hPa | 0V | 00:00:00 | 00:00:00 | 00:00:00 | |
| PU1XMG-16 | 2026-09-05 11:37:16 | -22.82958 | -43.24876 | 125° | 47km/h | 1897m | 4.4m/s | 17.9°C | 58.1% | 810.8hPa | 0V | 00:00:00 | 00:00:00 | 00:00:00 | |
| PU1XMG-16 | 2026-09-05 11:37:11 | -22.82907 | -43.24938 | 138° | 53km/h | 1866m | 3.1m/s | 18.1°C | 57.3% | 813.9hPa | 0V | 00:00:00 | 00:00:00 | 00:00:00 | |
| PU1XMG-16 | 2026-09-05 11:37:06 | -22.82856 | -43.24993 | 128° | 53km/h | 1843m | 3.7m/s | 18.3°C | 56.8% | 816.1hPa | 0V | 00:00:00 | 00:00:00 | 00:00:00 | |
| PU1XMG-16 | 2026-09-05 11:37:00 | -22.82820 | -43.25051 | 123° | 55km/h | 1818m | 7.1m/s | 18.5°C | 56.0% | 818.3hPa | 0V | 00:00:00 | 00:00:00 | 00:00:00 | |
| PU1XMG-16 | 2026-09-05 11:36:55 | -22.82780 | -43.25102 | 146° | 44km/h | 1793m | 6.7m/s | 18.7°C | 56.1% | 820.7hPa | 0V | 00:00:00 | 00:00:00 | 00:00:00 | |
| PU1XMG-16 | 2026-09-05 11:36:49 | -22.82725 | -43.25156 | 134° | 53km/h | 1757m | 4.3m/s | 18.9°C | 53.2% | 824.4hPa | 0V | 00:00:00 | 00:00:00 | 00:00:00 | |
| PU1XMG-16 | 2026-09-05 11:36:44 | -22.82673 | -43.25210 | 139° | 58km/h | 1732m | 6.6m/s | 19.1°C | 51.9% | 826.5hPa | 0V | 00:00:00 | 00:00:00 | 00:00:00 | |
| PU1XMG-16 | 2026-09-05 11:36:39 | -22.82622 | -43.25263 | 142° | 51km/h | 1708m | 7.1m/s | 19.3°C | 52.5% | 828.8hPa | 0V | 00:00:00 | 00:00:00 | 00:00:00 | |
| PU1XMG-16 | 2026-09-05 11:36:35 | -22.82575 | -43.25308 | 135° | 49km/h | 1679m | 6.9m/s | 19.4°C | 54.9% | 831.7hPa | 0V | 00:00:00 | 00:00:00 | 00:00:00 | |
| PU1XMG-16 | 2026-09-05 11:36:23 | -22.82465 | -43.25427 | 139° | 60km/h | 1626m | 8.7m/s | 19.3°C | 58.8% | 836.9hPa | 0V | 00:00:00 | 00:00:00 | 00:00:00 | |
| PU1XMG-16 | 2026-09-05 11:36:18 | -22.82416 | -43.25470 | 143° | 42km/h | 1596m | 5.5m/s | 19.4°C | 60.0% | 840.0hPa | 0V | 00:00:00 | 00:00:00 | 00:00:00 | |
| PU1XMG-16 | 2026-09-05 11:36:13 | -22.82367 | -43.25503 | 147° | 55km/h | 1568m | 6.5m/s | 19.5°C | 60.4% | 842.6hPa | 0V | 00:00:00 | 00:00:00 | 00:00:00 | |
| PU1XMG-16 | 2026-09-05 11:36:07 | -22.82301 | -43.25547 | 160° | 47km/h | 1526m | 7.8m/s | 19.5°C | 61.8% | 846.4hPa | 0V | 00:00:00 | 00:00:00 | 00:00:00 | |
| PU1XMG-16 | 2026-09-05 11:36:01 | -22.82230 | -43.25586 | 157° | 60km/h | 1495m | 4.5m/s | 19.3°C | 65.3% | 849.3hPa | 0V | 00:00:00 | 00:00:00 | 00:00:00 | |
| PU1XMG-16 | 2026-09-05 11:35:56 | -22.82162 | -43.25616 | 161° | 60km/h | 1474m | 3.2m/s | 19.3°C | 66.1% | 851.4hPa | 0V | 00:00:00 | 00:00:00 | 00:00:00 | |
| PU1XMG-16 | 2026-09-05 11:35:50 | -22.82086 | -43.25652 | 166° | 53km/h | 1445m | 6.3m/s | 19.1°C | 68.0% | 854.2hPa | 0V | 00:00:00 | 00:00:00 | 00:00:00 | |
| PU1XMG-16 | 2026-09-05 11:35:44 | -22.82030 | -43.25668 | 156° | 38km/h | 1415m | 2.2m/s | 18.7°C | 73.0% | 857.3hPa | 0V | 00:00:00 | 00:00:00 | 00:00:00 | |
| PU1XMG-16 | 2026-09-05 11:35:38 | -22.81985 | -43.25684 | 165° | 18km/h | 1383m | 4.1m/s | 18.7°C | 74.8% | 860.6hPa | 0V | 00:00:00 | 00:00:00 | 00:00:00 | |
| PU1XMG-16 | 2026-09-05 11:35:32 | -22.81940 | -43.25695 | 167° | 40km/h | 1349m | 6.9m/s | 18.9°C | 75.7% | 864.0hPa | 0V | 00:00:00 | 00:00:00 | 00:00:00 | |
| PU1XMG-16 | 2026-09-05 11:35:26 | -22.81888 | -43.25699 | 170° | 35km/h | 1319m | 6.4m/s | 19.1°C | 75.3% | 867.1hPa | 0V | 00:00:00 | 00:00:00 | 00:00:00 | |
| PU1XMG-16 | 2026-09-05 11:35:20 | -22.81830 | -43.25720 | 167° | 42km/h | 1289m | 7.0m/s | 19.3°C | 74.3% | 870.2hPa | 0V | 00:00:00 | 00:00:00 | 00:00:00 | |
| PU1XMG-16 | 2026-09-05 11:35:14 | -22.81775 | -43.25725 | 172° | 42km/h | 1258m | 4.1m/s | 19.4°C | 74.6% | 873.3hPa | 0V | 00:00:00 | 00:00:00 | 00:00:00 | |
| PU1XMG-16 | 2026-09-05 11:35:09 | -22.81723 | -43.25729 | 188° | 38km/h | 1227m | 4.6m/s | 19.5°C | 74.8% | 876.5hPa | 0V | 00:00:00 | 00:00:00 | 00:00:00 | |
| PU1XMG-16 | 2026-09-05 11:35:03 | -22.81658 | -43.25723 | 186° | 38km/h | 1197m | 7.6m/s | 19.7°C | 74.2% | 879.6hPa | 0V | 00:00:00 | 00:00:00 | 00:00:00 | |
| PU1XMG-16 | 2026-09-05 11:34:57 | -22.81596 | -43.25718 | 193° | 47km/h | 1163m | 2.5m/s | 19.7°C | 75.2% | 882.9hPa | 0V | 00:00:00 | 00:00:00 | 00:00:00 | |
| PU1XMG-16 | 2026-09-05 11:34:52 | -22.81546 | -43.25697 | 201° | 44km/h | 1138m | 3.5m/s | 19.5°C | 75.9% | 885.6hPa | 0V | 00:00:00 | 00:00:00 | 00:00:00 | |
| PU1XMG-16 | 2026-09-05 11:34:46 | -22.81473 | -43.25685 | 174° | 46km/h | 1109m | 4.9m/s | 19.2°C | 74.8% | 888.4hPa | 0V | 00:00:00 | 00:00:00 | 00:00:00 | |
| PU1XMG-16 | 2026-09-05 11:34:40 | -22.81399 | -43.25684 | 185° | 40km/h | 1084m | 4.7m/s | 19.4°C | 73.5% | 891.1hPa | 0V | 00:00:00 | 00:00:00 | 00:00:00 | |
| PU1XMG-16 | 2026-09-05 11:34:35 | -22.81358 | -43.25679 | 186° | 29km/h | 1052m | 4.2m/s | 19.4°C | 72.1% | 894.1hPa | 0V | 00:00:00 | 00:00:00 | 00:00:00 | |
| PU1XMG-16 | 2026-09-05 11:34:30 | -22.81318 | -43.25669 | 186° | 31km/h | 1024m | 5.7m/s | 19.5°C | 70.8% | 897.1hPa | 0V | 00:00:00 | 00:00:00 | 00:00:00 | |
| PU1XMG-16 | 2026-09-05 11:34:24 | -22.81284 | -43.25665 | 184° | 27km/h | 991m | 2.9m/s | 19.3°C | 69.8% | 900.5hPa | 0V | 00:00:00 | 00:00:00 | 00:00:00 | |
| PU1XMG-16 | 2026-09-05 11:34:19 | -22.81253 | -43.25661 | 188° | 20km/h | 964m | 7.8m/s | 18.6°C | 70.1% | 903.6hPa | 0V | 00:00:00 | 00:00:00 | 00:00:00 | |
| PU1XMG-16 | 2026-09-05 11:34:14 | -22.81233 | -43.25648 | 223° | 22km/h | 930m | 7.4m/s | 19.0°C | 67.1% | 907.1hPa | 0V | 00:00:00 | 00:00:00 | 00:00:00 | |
| PU1XMG-16 | 2026-09-05 11:34:09 | -22.81210 | -43.25616 | 222° | 31km/h | 901m | 4.7m/s | 19.2°C | 62.2% | 910.2hPa | 0V | 00:00:00 | 00:00:00 | 00:00:00 | |
| PU1XMG-16 | 2026-09-05 11:34:03 | -22.81180 | -43.25582 | 224° | 27km/h | 867m | 5.2m/s | 19.3°C | 55.9% | 914.0hPa | 0V | 00:00:00 | 00:00:00 | 00:00:00 | |
| PU1XMG-16 | 2026-09-05 11:33:58 | -22.81163 | -43.25553 | 254° | 18km/h | 839m | 4.8m/s | 19.5°C | 54.2% | 916.8hPa | 0V | 00:00:00 | 00:00:00 | 00:00:00 | |
| PU1XMG-16 | 2026-09-05 11:33:53 | -22.81147 | -43.25525 | 243° | 29km/h | 814m | 5.8m/s | 19.4°C | 55.9% | 919.7hPa | 0V | 00:00:00 | 00:00:00 | 00:00:00 | |
| PU1XMG-16 | 2026-09-05 11:33:47 | -22.81120 | -43.25484 | 242° | 27km/h | 781m | 3.8m/s | 19.1°C | 60.1% | 923.1hPa | 0V | 00:00:00 | 00:00:00 | 00:00:00 | |
| PU1XMG-16 | 2026-09-05 11:33:41 | -22.81097 | -43.25451 | 227° | 29km/h | 750m | 4.2m/s | 18.8°C | 69.2% | 926.7hPa | 0V | 00:00:00 | 00:00:00 | 00:00:00 | |
| PU1XMG-16 | 2026-09-05 11:33:36 | -22.81073 | -43.25426 | 224° | 20km/h | 718m | 8.5m/s | 18.7°C | 74.1% | 929.8hPa | 0V | 00:00:00 | 00:00:00 | 00:00:00 | |
| PU1XMG-16 | 2026-09-05 11:33:30 | -22.81061 | -43.25406 | 256° | 18km/h | 678m | 6.3m/s | 18.7°C | 0% | 933.9hPa | 0V | 00:00:00 | 00:00:00 | 00:00:00 | |
| PU1XMG-16 | 2026-09-05 11:33:24 | -22.81048 | -43.25369 | 231° | 24km/h | 648m | 5.5m/s | 18.9°C | 0% | 937.3hPa | 0V | 00:00:00 | 00:00:00 | 00:00:00 | |
| PU1XMG-16 | 2026-09-05 11:33:18 | -22.81030 | -43.25343 | 248° | 18km/h | 608m | 7.9m/s | 19.1°C | 0% | 941.6hPa | 0V | 00:00:00 | 00:00:00 | 00:00:00 | |
| PU1XMG-16 | 2026-09-05 11:33:13 | -22.81022 | -43.25323 | 228° | 18km/h | 580m | 4.1m/s | 19.2°C | 0% | 0hPa | 0V | 00:00:00 | 00:00:00 | 00:00:00 | |
| PU1XMG-16 | 2026-09-05 11:33:08 | -22.81010 | -43.25302 | 247° | 18km/h | 547m | 6.4m/s | 19.4°C | 0% | 0hPa | 0V | 00:00:00 | 00:00:00 | 00:00:00 | |
| PU1XMG-16 | 2026-09-05 11:33:03 | -22.80997 | -43.25275 | 229° | 22km/h | 524m | 3.1m/s | 19.5°C | 0% | 0hPa | 0V | 00:00:00 | 00:00:00 | 00:00:00 | |
| PU1XMG-16 | 2026-09-05 11:32:57 | -22.80973 | -43.25247 | 211° | 16km/h | 490m | 6.4m/s | 19.6°C | 0% | 0hPa | 0V | 00:00:00 | 00:00:00 | 00:00:00 | |
| PU1XMG-16 | 2026-09-05 11:32:52 | -22.80952 | -43.25243 | 206° | 15km/h | 467m | 4.8m/s | 19.6°C | 0% | 0hPa | 0V | 00:00:00 | 00:00:00 | 00:00:00 | |
| PU1XMG-16 | 2026-09-05 11:32:47 | -22.80942 | -43.25221 | 246° | 26km/h | 442m | 5.8m/s | 19.4°C | 0% | 0hPa | 0V | 00:00:00 | 00:00:00 | 00:00:00 | |
| PU1XMG-16 | 2026-09-05 11:32:41 | -22.80944 | -43.25196 | 319° | 7km/h | 410m | 5.1m/s | 19.5°C | 0% | 0hPa | 0V | 00:00:00 | 00:00:00 | 00:00:00 | |
| PU1XMG-16 | 2026-09-05 11:32:36 | -22.80941 | -43.25188 | 244° | 18km/h | 381m | 4.9m/s | 0°C | 0% | 0hPa | 0V | 00:00:00 | 00:00:00 | 00:00:00 | |
| PU1XMG-16 | 2026-09-05 11:32:29 | -22.80924 | -43.25152 | 246° | 20km/h | 340m | 5.6m/s | 0°C | 0% | 0hPa | 0V | 00:00:00 | 00:00:00 | 00:00:00 | |
| PU1XMG-16 | 2026-09-05 11:32:24 | -22.80916 | -43.25142 | 259° | 7km/h | 312m | 6.8m/s | 0°C | 0% | 0hPa | 0V | 00:00:00 | 00:00:00 | 00:00:00 | |
| PU1XMG-16 | 2026-09-05 11:32:18 | -22.80908 | -43.25120 | 271° | 15km/h | 290m | 4.0m/s | 0°C | 0% | 0hPa | 0V | 00:00:00 | 00:00:00 | 00:00:00 | |
| PU1XMG-16 | 2026-09-05 11:32:12 | -22.80895 | -43.25099 | 274° | 7km/h | 267m | 5.8m/s | 0°C | 0% | 0hPa | 0V | 00:00:00 | 00:00:00 | 00:00:00 | |
| PU1XMG-16 | 2026-09-05 11:32:07 | -22.80906 | -43.25072 | 262° | 9km/h | 237m | 6.9m/s | 0°C | 0% | 0hPa | 0V | 00:00:00 | 00:00:00 | 00:00:00 |